<?xml version="1.0" encoding="UTF-8" standalone="no" ?>
<gpx xmlns="http://www.topografix.com/GPX/1/1" xmlns:xsi="http://www.w3.org/2001/XMLSchema-instance" xsi:schemaLocation="http://www.topografix.com/GPX/1/1 http://www.topografix.com/GPX/1/1/gpx.xsd" version="1.1" creator="VisuGPX - https://www.visugpx.com">
  <metadata>
    <name>Morgin/Mérennes</name>
    <desc><![CDATA[Départ du télésiège de La Foilleuse à Morgin (Suisse)]]></desc>
  </metadata>
  <trk>
    <name><![CDATA[Morgin/Foilleuse 26 FEV 2015 12:04]]></name>
    <trkseg>
      <trkpt lat="46.23693" lon="6.85672">
        <ele>1121.52</ele>
        <time>2015-02-26T11:04:31Z</time>
      </trkpt>
      <trkpt lat="46.23699" lon="6.85664">
        <ele>1128.73</ele>
        <time>2015-02-26T11:04:56Z</time>
      </trkpt>
      <trkpt lat="46.23695" lon="6.85673">
        <ele>1130.17</ele>
        <time>2015-02-26T11:05:24Z</time>
      </trkpt>
      <trkpt lat="46.23695" lon="6.8567">
        <ele>1129.69</ele>
        <time>2015-02-26T11:05:48Z</time>
      </trkpt>
      <trkpt lat="46.23693" lon="6.85679">
        <ele>1130.65</ele>
        <time>2015-02-26T11:06:17Z</time>
      </trkpt>
      <trkpt lat="46.23687" lon="6.85693">
        <ele>1090.75</ele>
        <time>2015-02-26T11:07:59Z</time>
      </trkpt>
      <trkpt lat="46.23689" lon="6.85695">
        <ele>1107.58</ele>
        <time>2015-02-26T11:08:23Z</time>
      </trkpt>
      <trkpt lat="46.23689" lon="6.85702">
        <ele>1105.17</ele>
        <time>2015-02-26T11:08:31Z</time>
      </trkpt>
      <trkpt lat="46.23688" lon="6.85708">
        <ele>1180.16</ele>
        <time>2015-02-26T12:55:05Z</time>
      </trkpt>
      <trkpt lat="46.23686" lon="6.85713">
        <ele>1237.83</ele>
        <time>2015-02-26T12:55:08Z</time>
      </trkpt>
      <trkpt lat="46.23685" lon="6.85716">
        <ele>1287.82</ele>
        <time>2015-02-26T12:55:20Z</time>
      </trkpt>
      <trkpt lat="46.23683" lon="6.8572">
        <ele>1295.03</ele>
        <time>2015-02-26T12:55:31Z</time>
      </trkpt>
      <trkpt lat="46.23679" lon="6.8573">
        <ele>1295.03</ele>
        <time>2015-02-26T12:55:34Z</time>
      </trkpt>
      <trkpt lat="46.23681" lon="6.85731">
        <ele>1295.99</ele>
        <time>2015-02-26T12:55:38Z</time>
      </trkpt>
      <trkpt lat="46.2368" lon="6.85721">
        <ele>1296.48</ele>
        <time>2015-02-26T12:55:41Z</time>
      </trkpt>
      <trkpt lat="46.23679" lon="6.85736">
        <ele>1300.32</ele>
        <time>2015-02-26T12:55:49Z</time>
      </trkpt>
      <trkpt lat="46.23683" lon="6.85744">
        <ele>1301.76</ele>
        <time>2015-02-26T12:55:54Z</time>
      </trkpt>
      <trkpt lat="46.23688" lon="6.85754">
        <ele>1303.69</ele>
        <time>2015-02-26T12:56:03Z</time>
      </trkpt>
      <trkpt lat="46.23691" lon="6.85765">
        <ele>1302.72</ele>
        <time>2015-02-26T12:56:13Z</time>
      </trkpt>
      <trkpt lat="46.23691" lon="6.85768">
        <ele>1302.72</ele>
        <time>2015-02-26T12:56:15Z</time>
      </trkpt>
      <trkpt lat="46.2369" lon="6.8577">
        <ele>1303.2</ele>
        <time>2015-02-26T12:56:17Z</time>
      </trkpt>
      <trkpt lat="46.23679" lon="6.85772">
        <ele>1306.57</ele>
        <time>2015-02-26T12:56:27Z</time>
      </trkpt>
      <trkpt lat="46.23668" lon="6.85777">
        <ele>1308.01</ele>
        <time>2015-02-26T12:56:38Z</time>
      </trkpt>
      <trkpt lat="46.23667" lon="6.85778">
        <ele>1308.01</ele>
        <time>2015-02-26T12:56:40Z</time>
      </trkpt>
      <trkpt lat="46.23664" lon="6.85783">
        <ele>1308.49</ele>
        <time>2015-02-26T12:56:44Z</time>
      </trkpt>
      <trkpt lat="46.23663" lon="6.85784">
        <ele>1308.49</ele>
        <time>2015-02-26T12:56:46Z</time>
      </trkpt>
      <trkpt lat="46.23662" lon="6.85792">
        <ele>1308.49</ele>
        <time>2015-02-26T12:57:00Z</time>
      </trkpt>
      <trkpt lat="46.23661" lon="6.85791">
        <ele>1307.53</ele>
        <time>2015-02-26T12:57:14Z</time>
      </trkpt>
      <trkpt lat="46.23662" lon="6.85793">
        <ele>1307.05</ele>
        <time>2015-02-26T12:57:27Z</time>
      </trkpt>
      <trkpt lat="46.2366" lon="6.85793">
        <ele>1306.09</ele>
        <time>2015-02-26T12:57:40Z</time>
      </trkpt>
      <trkpt lat="46.2366" lon="6.85795">
        <ele>1305.13</ele>
        <time>2015-02-26T12:57:51Z</time>
      </trkpt>
      <trkpt lat="46.2366" lon="6.85795">
        <ele>1306.09</ele>
        <time>2015-02-26T12:57:58Z</time>
      </trkpt>
      <trkpt lat="46.2366" lon="6.85795">
        <ele>1306.09</ele>
        <time>2015-02-26T12:58:10Z</time>
      </trkpt>
      <trkpt lat="46.23659" lon="6.85796">
        <ele>1306.09</ele>
        <time>2015-02-26T12:58:28Z</time>
      </trkpt>
      <trkpt lat="46.23659" lon="6.85796">
        <ele>1306.57</ele>
        <time>2015-02-26T12:58:41Z</time>
      </trkpt>
      <trkpt lat="46.23659" lon="6.85797">
        <ele>1307.05</ele>
        <time>2015-02-26T12:58:44Z</time>
      </trkpt>
      <trkpt lat="46.23659" lon="6.85797">
        <ele>1308.01</ele>
        <time>2015-02-26T12:58:55Z</time>
      </trkpt>
      <trkpt lat="46.2366" lon="6.85795">
        <ele>1309.45</ele>
        <time>2015-02-26T12:59:06Z</time>
      </trkpt>
      <trkpt lat="46.2366" lon="6.85794">
        <ele>1308.97</ele>
        <time>2015-02-26T12:59:15Z</time>
      </trkpt>
      <trkpt lat="46.2366" lon="6.85796">
        <ele>1308.97</ele>
        <time>2015-02-26T12:59:28Z</time>
      </trkpt>
      <trkpt lat="46.2366" lon="6.85796">
        <ele>1309.45</ele>
        <time>2015-02-26T12:59:38Z</time>
      </trkpt>
      <trkpt lat="46.2366" lon="6.85797">
        <ele>1308.49</ele>
        <time>2015-02-26T12:59:51Z</time>
      </trkpt>
      <trkpt lat="46.2366" lon="6.85797">
        <ele>1308.97</ele>
        <time>2015-02-26T12:59:52Z</time>
      </trkpt>
      <trkpt lat="46.23659" lon="6.85797">
        <ele>1309.45</ele>
        <time>2015-02-26T13:00:03Z</time>
      </trkpt>
      <trkpt lat="46.2366" lon="6.85797">
        <ele>1309.45</ele>
        <time>2015-02-26T13:00:18Z</time>
      </trkpt>
      <trkpt lat="46.2366" lon="6.85798">
        <ele>1311.38</ele>
        <time>2015-02-26T13:00:34Z</time>
      </trkpt>
      <trkpt lat="46.23659" lon="6.85804">
        <ele>1312.82</ele>
        <time>2015-02-26T13:00:47Z</time>
      </trkpt>
      <trkpt lat="46.23659" lon="6.85802">
        <ele>1312.34</ele>
        <time>2015-02-26T13:01:02Z</time>
      </trkpt>
      <trkpt lat="46.23659" lon="6.85803">
        <ele>1312.34</ele>
        <time>2015-02-26T13:01:12Z</time>
      </trkpt>
      <trkpt lat="46.23658" lon="6.85804">
        <ele>1312.34</ele>
        <time>2015-02-26T13:01:24Z</time>
      </trkpt>
      <trkpt lat="46.23655" lon="6.85806">
        <ele>1310.41</ele>
        <time>2015-02-26T13:01:33Z</time>
      </trkpt>
      <trkpt lat="46.23647" lon="6.85811">
        <ele>1310.41</ele>
        <time>2015-02-26T13:01:43Z</time>
      </trkpt>
      <trkpt lat="46.23645" lon="6.85812">
        <ele>1310.9</ele>
        <time>2015-02-26T13:01:53Z</time>
      </trkpt>
      <trkpt lat="46.23642" lon="6.85812">
        <ele>1311.38</ele>
        <time>2015-02-26T13:02:03Z</time>
      </trkpt>
      <trkpt lat="46.23641" lon="6.85812">
        <ele>1311.38</ele>
        <time>2015-02-26T13:02:04Z</time>
      </trkpt>
      <trkpt lat="46.23637" lon="6.85814">
        <ele>1314.26</ele>
        <time>2015-02-26T13:02:11Z</time>
      </trkpt>
      <trkpt lat="46.23632" lon="6.85817">
        <ele>1316.66</ele>
        <time>2015-02-26T13:02:16Z</time>
      </trkpt>
      <trkpt lat="46.23631" lon="6.85818">
        <ele>1318.59</ele>
        <time>2015-02-26T13:02:19Z</time>
      </trkpt>
      <trkpt lat="46.23624" lon="6.8583">
        <ele>1320.99</ele>
        <time>2015-02-26T13:02:32Z</time>
      </trkpt>
      <trkpt lat="46.23623" lon="6.85831">
        <ele>1320.03</ele>
        <time>2015-02-26T13:02:48Z</time>
      </trkpt>
      <trkpt lat="46.23623" lon="6.8583">
        <ele>1320.99</ele>
        <time>2015-02-26T13:03:12Z</time>
      </trkpt>
      <trkpt lat="46.23623" lon="6.85829">
        <ele>1320.03</ele>
        <time>2015-02-26T13:03:33Z</time>
      </trkpt>
      <trkpt lat="46.23622" lon="6.85842">
        <ele>1317.14</ele>
        <time>2015-02-26T13:03:45Z</time>
      </trkpt>
      <trkpt lat="46.2362" lon="6.85846">
        <ele>1317.62</ele>
        <time>2015-02-26T13:03:53Z</time>
      </trkpt>
      <trkpt lat="46.23619" lon="6.85848">
        <ele>1317.62</ele>
        <time>2015-02-26T13:04:14Z</time>
      </trkpt>
      <trkpt lat="46.23617" lon="6.85858">
        <ele>1317.14</ele>
        <time>2015-02-26T13:04:20Z</time>
      </trkpt>
      <trkpt lat="46.23617" lon="6.85863">
        <ele>1316.66</ele>
        <time>2015-02-26T13:04:29Z</time>
      </trkpt>
      <trkpt lat="46.23617" lon="6.85864">
        <ele>1316.18</ele>
        <time>2015-02-26T13:04:32Z</time>
      </trkpt>
      <trkpt lat="46.23616" lon="6.85874">
        <ele>1316.66</ele>
        <time>2015-02-26T13:04:42Z</time>
      </trkpt>
      <trkpt lat="46.23615" lon="6.85886">
        <ele>1319.55</ele>
        <time>2015-02-26T13:04:51Z</time>
      </trkpt>
      <trkpt lat="46.23615" lon="6.85892">
        <ele>1320.51</ele>
        <time>2015-02-26T13:04:54Z</time>
      </trkpt>
      <trkpt lat="46.2361" lon="6.85909">
        <ele>1325.8</ele>
        <time>2015-02-26T13:05:05Z</time>
      </trkpt>
      <trkpt lat="46.23607" lon="6.85915">
        <ele>1327.72</ele>
        <time>2015-02-26T13:05:18Z</time>
      </trkpt>
      <trkpt lat="46.23606" lon="6.85927">
        <ele>1331.56</ele>
        <time>2015-02-26T13:05:26Z</time>
      </trkpt>
      <trkpt lat="46.23601" lon="6.8594">
        <ele>1334.93</ele>
        <time>2015-02-26T13:05:38Z</time>
      </trkpt>
      <trkpt lat="46.23601" lon="6.85948">
        <ele>1334.93</ele>
        <time>2015-02-26T13:05:47Z</time>
      </trkpt>
      <trkpt lat="46.236" lon="6.85952">
        <ele>1336.37</ele>
        <time>2015-02-26T13:05:58Z</time>
      </trkpt>
      <trkpt lat="46.23599" lon="6.85956">
        <ele>1337.33</ele>
        <time>2015-02-26T13:06:11Z</time>
      </trkpt>
      <trkpt lat="46.23597" lon="6.85955">
        <ele>1336.85</ele>
        <time>2015-02-26T13:06:14Z</time>
      </trkpt>
      <trkpt lat="46.23595" lon="6.85951">
        <ele>1337.33</ele>
        <time>2015-02-26T13:06:26Z</time>
      </trkpt>
      <trkpt lat="46.23592" lon="6.85952">
        <ele>1337.33</ele>
        <time>2015-02-26T13:06:38Z</time>
      </trkpt>
      <trkpt lat="46.2359" lon="6.85953">
        <ele>1337.33</ele>
        <time>2015-02-26T13:06:52Z</time>
      </trkpt>
      <trkpt lat="46.23589" lon="6.85954">
        <ele>1337.33</ele>
        <time>2015-02-26T13:07:06Z</time>
      </trkpt>
      <trkpt lat="46.23588" lon="6.85955">
        <ele>1337.33</ele>
        <time>2015-02-26T13:07:20Z</time>
      </trkpt>
      <trkpt lat="46.23586" lon="6.85953">
        <ele>1336.85</ele>
        <time>2015-02-26T13:07:31Z</time>
      </trkpt>
      <trkpt lat="46.23584" lon="6.85953">
        <ele>1336.85</ele>
        <time>2015-02-26T13:07:41Z</time>
      </trkpt>
      <trkpt lat="46.23583" lon="6.85956">
        <ele>1336.37</ele>
        <time>2015-02-26T13:07:47Z</time>
      </trkpt>
      <trkpt lat="46.23579" lon="6.85962">
        <ele>1335.89</ele>
        <time>2015-02-26T13:07:59Z</time>
      </trkpt>
      <trkpt lat="46.23578" lon="6.85965">
        <ele>1338.29</ele>
        <time>2015-02-26T13:08:13Z</time>
      </trkpt>
      <trkpt lat="46.23578" lon="6.85965">
        <ele>1338.77</ele>
        <time>2015-02-26T13:08:27Z</time>
      </trkpt>
      <trkpt lat="46.23577" lon="6.85975">
        <ele>1339.73</ele>
        <time>2015-02-26T13:08:39Z</time>
      </trkpt>
      <trkpt lat="46.23575" lon="6.85984">
        <ele>1342.14</ele>
        <time>2015-02-26T13:08:44Z</time>
      </trkpt>
      <trkpt lat="46.23579" lon="6.85993">
        <ele>1343.1</ele>
        <time>2015-02-26T13:08:50Z</time>
      </trkpt>
      <trkpt lat="46.23579" lon="6.86001">
        <ele>1343.1</ele>
        <time>2015-02-26T13:08:56Z</time>
      </trkpt>
      <trkpt lat="46.23578" lon="6.86012">
        <ele>1341.66</ele>
        <time>2015-02-26T13:09:02Z</time>
      </trkpt>
      <trkpt lat="46.23579" lon="6.86015">
        <ele>1341.66</ele>
        <time>2015-02-26T13:09:04Z</time>
      </trkpt>
      <trkpt lat="46.23576" lon="6.8602">
        <ele>1341.66</ele>
        <time>2015-02-26T13:09:08Z</time>
      </trkpt>
      <trkpt lat="46.23579" lon="6.86034">
        <ele>1341.18</ele>
        <time>2015-02-26T13:09:19Z</time>
      </trkpt>
      <trkpt lat="46.23579" lon="6.86038">
        <ele>1341.18</ele>
        <time>2015-02-26T13:09:22Z</time>
      </trkpt>
      <trkpt lat="46.23582" lon="6.8606">
        <ele>1340.22</ele>
        <time>2015-02-26T13:09:34Z</time>
      </trkpt>
      <trkpt lat="46.23582" lon="6.86061">
        <ele>1340.22</ele>
        <time>2015-02-26T13:09:35Z</time>
      </trkpt>
      <trkpt lat="46.2358" lon="6.86068">
        <ele>1340.22</ele>
        <time>2015-02-26T13:09:41Z</time>
      </trkpt>
      <trkpt lat="46.23578" lon="6.86076">
        <ele>1341.66</ele>
        <time>2015-02-26T13:09:48Z</time>
      </trkpt>
      <trkpt lat="46.23577" lon="6.86092">
        <ele>1342.62</ele>
        <time>2015-02-26T13:09:59Z</time>
      </trkpt>
      <trkpt lat="46.23578" lon="6.86098">
        <ele>1342.62</ele>
        <time>2015-02-26T13:10:03Z</time>
      </trkpt>
      <trkpt lat="46.23577" lon="6.86105">
        <ele>1343.1</ele>
        <time>2015-02-26T13:10:07Z</time>
      </trkpt>
      <trkpt lat="46.23576" lon="6.86114">
        <ele>1343.58</ele>
        <time>2015-02-26T13:10:15Z</time>
      </trkpt>
      <trkpt lat="46.23576" lon="6.86119">
        <ele>1343.58</ele>
        <time>2015-02-26T13:10:18Z</time>
      </trkpt>
      <trkpt lat="46.23578" lon="6.86133">
        <ele>1344.54</ele>
        <time>2015-02-26T13:10:27Z</time>
      </trkpt>
      <trkpt lat="46.23583" lon="6.86146">
        <ele>1344.54</ele>
        <time>2015-02-26T13:10:36Z</time>
      </trkpt>
      <trkpt lat="46.23582" lon="6.86148">
        <ele>1344.54</ele>
        <time>2015-02-26T13:10:38Z</time>
      </trkpt>
      <trkpt lat="46.23582" lon="6.86155">
        <ele>1345.98</ele>
        <time>2015-02-26T13:10:43Z</time>
      </trkpt>
      <trkpt lat="46.23582" lon="6.86159">
        <ele>1347.43</ele>
        <time>2015-02-26T13:10:46Z</time>
      </trkpt>
      <trkpt lat="46.23583" lon="6.86164">
        <ele>1347.91</ele>
        <time>2015-02-26T13:10:49Z</time>
      </trkpt>
      <trkpt lat="46.23585" lon="6.86171">
        <ele>1348.87</ele>
        <time>2015-02-26T13:10:54Z</time>
      </trkpt>
      <trkpt lat="46.23585" lon="6.8618">
        <ele>1349.83</ele>
        <time>2015-02-26T13:11:00Z</time>
      </trkpt>
      <trkpt lat="46.23586" lon="6.86188">
        <ele>1349.35</ele>
        <time>2015-02-26T13:11:04Z</time>
      </trkpt>
      <trkpt lat="46.23587" lon="6.86193">
        <ele>1350.31</ele>
        <time>2015-02-26T13:11:07Z</time>
      </trkpt>
      <trkpt lat="46.23589" lon="6.86199">
        <ele>1352.23</ele>
        <time>2015-02-26T13:11:13Z</time>
      </trkpt>
      <trkpt lat="46.23587" lon="6.86214">
        <ele>1355.6</ele>
        <time>2015-02-26T13:11:21Z</time>
      </trkpt>
      <trkpt lat="46.23584" lon="6.8622">
        <ele>1358.48</ele>
        <time>2015-02-26T13:11:33Z</time>
      </trkpt>
      <trkpt lat="46.23586" lon="6.86223">
        <ele>1358.48</ele>
        <time>2015-02-26T13:11:45Z</time>
      </trkpt>
      <trkpt lat="46.23581" lon="6.86232">
        <ele>1358.96</ele>
        <time>2015-02-26T13:11:57Z</time>
      </trkpt>
      <trkpt lat="46.23578" lon="6.86236">
        <ele>1358.48</ele>
        <time>2015-02-26T13:12:01Z</time>
      </trkpt>
      <trkpt lat="46.23571" lon="6.86247">
        <ele>1357.52</ele>
        <time>2015-02-26T13:12:15Z</time>
      </trkpt>
      <trkpt lat="46.23569" lon="6.86252">
        <ele>1357.04</ele>
        <time>2015-02-26T13:12:19Z</time>
      </trkpt>
      <trkpt lat="46.23568" lon="6.86259">
        <ele>1356.56</ele>
        <time>2015-02-26T13:12:27Z</time>
      </trkpt>
      <trkpt lat="46.23567" lon="6.86274">
        <ele>1355.6</ele>
        <time>2015-02-26T13:12:37Z</time>
      </trkpt>
      <trkpt lat="46.23565" lon="6.86277">
        <ele>1355.12</ele>
        <time>2015-02-26T13:12:55Z</time>
      </trkpt>
      <trkpt lat="46.23565" lon="6.86291">
        <ele>1354.15</ele>
        <time>2015-02-26T13:13:05Z</time>
      </trkpt>
      <trkpt lat="46.23564" lon="6.86293">
        <ele>1354.15</ele>
        <time>2015-02-26T13:13:09Z</time>
      </trkpt>
      <trkpt lat="46.23573" lon="6.86311">
        <ele>1354.15</ele>
        <time>2015-02-26T13:13:21Z</time>
      </trkpt>
      <trkpt lat="46.23571" lon="6.86316">
        <ele>1354.63</ele>
        <time>2015-02-26T13:13:24Z</time>
      </trkpt>
      <trkpt lat="46.23572" lon="6.86324">
        <ele>1355.12</ele>
        <time>2015-02-26T13:13:29Z</time>
      </trkpt>
      <trkpt lat="46.23571" lon="6.86328">
        <ele>1355.6</ele>
        <time>2015-02-26T13:13:31Z</time>
      </trkpt>
      <trkpt lat="46.23569" lon="6.86341">
        <ele>1356.56</ele>
        <time>2015-02-26T13:13:38Z</time>
      </trkpt>
      <trkpt lat="46.23568" lon="6.86355">
        <ele>1356.08</ele>
        <time>2015-02-26T13:13:49Z</time>
      </trkpt>
      <trkpt lat="46.23566" lon="6.86359">
        <ele>1357.52</ele>
        <time>2015-02-26T13:14:00Z</time>
      </trkpt>
      <trkpt lat="46.23566" lon="6.86361">
        <ele>1358.96</ele>
        <time>2015-02-26T13:14:12Z</time>
      </trkpt>
      <trkpt lat="46.23566" lon="6.86359">
        <ele>1358.96</ele>
        <time>2015-02-26T13:14:24Z</time>
      </trkpt>
      <trkpt lat="46.23567" lon="6.86359">
        <ele>1359.44</ele>
        <time>2015-02-26T13:14:46Z</time>
      </trkpt>
      <trkpt lat="46.23567" lon="6.86357">
        <ele>1358</ele>
        <time>2015-02-26T13:15:02Z</time>
      </trkpt>
      <trkpt lat="46.23564" lon="6.86358">
        <ele>1358</ele>
        <time>2015-02-26T13:15:22Z</time>
      </trkpt>
      <trkpt lat="46.23561" lon="6.86363">
        <ele>1356.08</ele>
        <time>2015-02-26T13:15:32Z</time>
      </trkpt>
      <trkpt lat="46.2356" lon="6.86368">
        <ele>1357.52</ele>
        <time>2015-02-26T13:15:39Z</time>
      </trkpt>
      <trkpt lat="46.23558" lon="6.86375">
        <ele>1358.96</ele>
        <time>2015-02-26T13:15:43Z</time>
      </trkpt>
      <trkpt lat="46.23558" lon="6.8638">
        <ele>1358.96</ele>
        <time>2015-02-26T13:15:53Z</time>
      </trkpt>
      <trkpt lat="46.23556" lon="6.86386">
        <ele>1360.4</ele>
        <time>2015-02-26T13:16:04Z</time>
      </trkpt>
      <trkpt lat="46.23556" lon="6.86388">
        <ele>1360.88</ele>
        <time>2015-02-26T13:16:08Z</time>
      </trkpt>
      <trkpt lat="46.23553" lon="6.86398">
        <ele>1360.88</ele>
        <time>2015-02-26T13:16:19Z</time>
      </trkpt>
      <trkpt lat="46.23551" lon="6.86407">
        <ele>1359.44</ele>
        <time>2015-02-26T13:16:30Z</time>
      </trkpt>
      <trkpt lat="46.23554" lon="6.86414">
        <ele>1362.81</ele>
        <time>2015-02-26T13:16:42Z</time>
      </trkpt>
      <trkpt lat="46.23558" lon="6.86422">
        <ele>1364.25</ele>
        <time>2015-02-26T13:16:54Z</time>
      </trkpt>
      <trkpt lat="46.23563" lon="6.86429">
        <ele>1364.25</ele>
        <time>2015-02-26T13:17:08Z</time>
      </trkpt>
      <trkpt lat="46.23565" lon="6.86441">
        <ele>1364.73</ele>
        <time>2015-02-26T13:17:21Z</time>
      </trkpt>
      <trkpt lat="46.23558" lon="6.86444">
        <ele>1365.21</ele>
        <time>2015-02-26T13:17:29Z</time>
      </trkpt>
      <trkpt lat="46.23553" lon="6.86437">
        <ele>1367.61</ele>
        <time>2015-02-26T13:17:40Z</time>
      </trkpt>
      <trkpt lat="46.23554" lon="6.86442">
        <ele>1370.5</ele>
        <time>2015-02-26T13:17:51Z</time>
      </trkpt>
      <trkpt lat="46.23555" lon="6.86444">
        <ele>1370.02</ele>
        <time>2015-02-26T13:18:12Z</time>
      </trkpt>
      <trkpt lat="46.23554" lon="6.86446">
        <ele>1370.98</ele>
        <time>2015-02-26T13:18:38Z</time>
      </trkpt>
      <trkpt lat="46.23556" lon="6.86447">
        <ele>1374.82</ele>
        <time>2015-02-26T13:18:57Z</time>
      </trkpt>
      <trkpt lat="46.23556" lon="6.86446">
        <ele>1376.75</ele>
        <time>2015-02-26T13:19:18Z</time>
      </trkpt>
      <trkpt lat="46.23557" lon="6.86451">
        <ele>1378.19</ele>
        <time>2015-02-26T13:19:38Z</time>
      </trkpt>
      <trkpt lat="46.23558" lon="6.86452">
        <ele>1378.67</ele>
        <time>2015-02-26T13:19:39Z</time>
      </trkpt>
      <trkpt lat="46.23557" lon="6.86464">
        <ele>1380.59</ele>
        <time>2015-02-26T13:19:51Z</time>
      </trkpt>
      <trkpt lat="46.23554" lon="6.86476">
        <ele>1384.92</ele>
        <time>2015-02-26T13:20:05Z</time>
      </trkpt>
      <trkpt lat="46.23547" lon="6.8648">
        <ele>1386.36</ele>
        <time>2015-02-26T13:20:13Z</time>
      </trkpt>
      <trkpt lat="46.23547" lon="6.86474">
        <ele>1387.32</ele>
        <time>2015-02-26T13:20:16Z</time>
      </trkpt>
      <trkpt lat="46.2354" lon="6.86469">
        <ele>1391.65</ele>
        <time>2015-02-26T13:20:28Z</time>
      </trkpt>
      <trkpt lat="46.23535" lon="6.8648">
        <ele>1398.86</ele>
        <time>2015-02-26T13:20:43Z</time>
      </trkpt>
      <trkpt lat="46.23532" lon="6.86487">
        <ele>1399.34</ele>
        <time>2015-02-26T13:20:55Z</time>
      </trkpt>
      <trkpt lat="46.2353" lon="6.86495">
        <ele>1401.26</ele>
        <time>2015-02-26T13:21:07Z</time>
      </trkpt>
      <trkpt lat="46.23531" lon="6.86495">
        <ele>1401.26</ele>
        <time>2015-02-26T13:21:27Z</time>
      </trkpt>
      <trkpt lat="46.2353" lon="6.86494">
        <ele>1401.26</ele>
        <time>2015-02-26T13:21:51Z</time>
      </trkpt>
      <trkpt lat="46.2353" lon="6.86492">
        <ele>1400.78</ele>
        <time>2015-02-26T13:22:21Z</time>
      </trkpt>
      <trkpt lat="46.23529" lon="6.86493">
        <ele>1401.26</ele>
        <time>2015-02-26T13:22:43Z</time>
      </trkpt>
      <trkpt lat="46.23529" lon="6.86493">
        <ele>1401.26</ele>
        <time>2015-02-26T13:23:06Z</time>
      </trkpt>
      <trkpt lat="46.23528" lon="6.86493">
        <ele>1400.78</ele>
        <time>2015-02-26T13:23:32Z</time>
      </trkpt>
      <trkpt lat="46.23527" lon="6.86494">
        <ele>1401.74</ele>
        <time>2015-02-26T13:24:04Z</time>
      </trkpt>
      <trkpt lat="46.23525" lon="6.86495">
        <ele>1401.26</ele>
        <time>2015-02-26T13:24:33Z</time>
      </trkpt>
      <trkpt lat="46.23522" lon="6.86498">
        <ele>1401.26</ele>
        <time>2015-02-26T13:24:51Z</time>
      </trkpt>
      <trkpt lat="46.23519" lon="6.865">
        <ele>1402.7</ele>
        <time>2015-02-26T13:25:03Z</time>
      </trkpt>
      <trkpt lat="46.23516" lon="6.86496">
        <ele>1405.58</ele>
        <time>2015-02-26T13:25:13Z</time>
      </trkpt>
      <trkpt lat="46.23515" lon="6.86495">
        <ele>1406.55</ele>
        <time>2015-02-26T13:25:14Z</time>
      </trkpt>
      <trkpt lat="46.23515" lon="6.86492">
        <ele>1406.55</ele>
        <time>2015-02-26T13:25:16Z</time>
      </trkpt>
      <trkpt lat="46.23514" lon="6.86488">
        <ele>1407.03</ele>
        <time>2015-02-26T13:25:26Z</time>
      </trkpt>
      <trkpt lat="46.23507" lon="6.86496">
        <ele>1406.55</ele>
        <time>2015-02-26T13:25:39Z</time>
      </trkpt>
      <trkpt lat="46.23504" lon="6.86508">
        <ele>1406.55</ele>
        <time>2015-02-26T13:25:53Z</time>
      </trkpt>
      <trkpt lat="46.23503" lon="6.86508">
        <ele>1406.55</ele>
        <time>2015-02-26T13:25:55Z</time>
      </trkpt>
      <trkpt lat="46.23503" lon="6.86512">
        <ele>1407.51</ele>
        <time>2015-02-26T13:26:10Z</time>
      </trkpt>
      <trkpt lat="46.23499" lon="6.86518">
        <ele>1408.47</ele>
        <time>2015-02-26T13:26:22Z</time>
      </trkpt>
      <trkpt lat="46.23497" lon="6.86528">
        <ele>1408.95</ele>
        <time>2015-02-26T13:26:36Z</time>
      </trkpt>
      <trkpt lat="46.23494" lon="6.86533">
        <ele>1411.83</ele>
        <time>2015-02-26T13:26:50Z</time>
      </trkpt>
      <trkpt lat="46.23491" lon="6.86531">
        <ele>1416.16</ele>
        <time>2015-02-26T13:27:02Z</time>
      </trkpt>
      <trkpt lat="46.23491" lon="6.86528">
        <ele>1417.6</ele>
        <time>2015-02-26T13:27:23Z</time>
      </trkpt>
      <trkpt lat="46.23492" lon="6.86526">
        <ele>1419.52</ele>
        <time>2015-02-26T13:27:44Z</time>
      </trkpt>
      <trkpt lat="46.2349" lon="6.86523">
        <ele>1420.97</ele>
        <time>2015-02-26T13:27:59Z</time>
      </trkpt>
      <trkpt lat="46.23485" lon="6.86517">
        <ele>1422.89</ele>
        <time>2015-02-26T13:28:10Z</time>
      </trkpt>
      <trkpt lat="46.23481" lon="6.86509">
        <ele>1426.73</ele>
        <time>2015-02-26T13:28:21Z</time>
      </trkpt>
      <trkpt lat="46.23474" lon="6.86509">
        <ele>1428.18</ele>
        <time>2015-02-26T13:28:36Z</time>
      </trkpt>
      <trkpt lat="46.23476" lon="6.86521">
        <ele>1429.14</ele>
        <time>2015-02-26T13:28:53Z</time>
      </trkpt>
      <trkpt lat="46.23477" lon="6.86526">
        <ele>1431.06</ele>
        <time>2015-02-26T13:29:08Z</time>
      </trkpt>
      <trkpt lat="46.23476" lon="6.86527">
        <ele>1431.06</ele>
        <time>2015-02-26T13:29:27Z</time>
      </trkpt>
      <trkpt lat="46.23477" lon="6.86529">
        <ele>1431.06</ele>
        <time>2015-02-26T13:29:41Z</time>
      </trkpt>
      <trkpt lat="46.23477" lon="6.86528">
        <ele>1432.5</ele>
        <time>2015-02-26T13:30:04Z</time>
      </trkpt>
      <trkpt lat="46.23478" lon="6.86528">
        <ele>1433.94</ele>
        <time>2015-02-26T13:30:22Z</time>
      </trkpt>
      <trkpt lat="46.23478" lon="6.86528">
        <ele>1434.91</ele>
        <time>2015-02-26T13:30:42Z</time>
      </trkpt>
      <trkpt lat="46.23476" lon="6.8653">
        <ele>1433.46</ele>
        <time>2015-02-26T13:30:53Z</time>
      </trkpt>
      <trkpt lat="46.23476" lon="6.86533">
        <ele>1432.98</ele>
        <time>2015-02-26T13:31:08Z</time>
      </trkpt>
      <trkpt lat="46.23474" lon="6.86536">
        <ele>1433.46</ele>
        <time>2015-02-26T13:31:24Z</time>
      </trkpt>
      <trkpt lat="46.23474" lon="6.86537">
        <ele>1433.94</ele>
        <time>2015-02-26T13:31:44Z</time>
      </trkpt>
      <trkpt lat="46.23475" lon="6.86536">
        <ele>1433.94</ele>
        <time>2015-02-26T13:32:10Z</time>
      </trkpt>
      <trkpt lat="46.23476" lon="6.86536">
        <ele>1434.91</ele>
        <time>2015-02-26T13:32:31Z</time>
      </trkpt>
      <trkpt lat="46.23476" lon="6.86536">
        <ele>1435.87</ele>
        <time>2015-02-26T13:32:56Z</time>
      </trkpt>
      <trkpt lat="46.23476" lon="6.86535">
        <ele>1436.83</ele>
        <time>2015-02-26T13:33:23Z</time>
      </trkpt>
      <trkpt lat="46.23476" lon="6.86534">
        <ele>1438.27</ele>
        <time>2015-02-26T13:33:51Z</time>
      </trkpt>
      <trkpt lat="46.23476" lon="6.86535">
        <ele>1439.23</ele>
        <time>2015-02-26T13:34:13Z</time>
      </trkpt>
      <trkpt lat="46.23477" lon="6.86535">
        <ele>1439.23</ele>
        <time>2015-02-26T13:34:40Z</time>
      </trkpt>
      <trkpt lat="46.23476" lon="6.86536">
        <ele>1439.23</ele>
        <time>2015-02-26T13:35:11Z</time>
      </trkpt>
      <trkpt lat="46.23475" lon="6.86536">
        <ele>1438.75</ele>
        <time>2015-02-26T13:35:37Z</time>
      </trkpt>
      <trkpt lat="46.23475" lon="6.86536">
        <ele>1438.75</ele>
        <time>2015-02-26T13:36:12Z</time>
      </trkpt>
      <trkpt lat="46.23475" lon="6.86537">
        <ele>1439.23</ele>
        <time>2015-02-26T13:36:38Z</time>
      </trkpt>
      <trkpt lat="46.23475" lon="6.86538">
        <ele>1439.23</ele>
        <time>2015-02-26T13:37:03Z</time>
      </trkpt>
      <trkpt lat="46.23474" lon="6.86543">
        <ele>1439.23</ele>
        <time>2015-02-26T13:37:13Z</time>
      </trkpt>
      <trkpt lat="46.23471" lon="6.86543">
        <ele>1438.75</ele>
        <time>2015-02-26T13:37:27Z</time>
      </trkpt>
      <trkpt lat="46.2347" lon="6.86544">
        <ele>1437.79</ele>
        <time>2015-02-26T13:37:43Z</time>
      </trkpt>
      <trkpt lat="46.23471" lon="6.86541">
        <ele>1435.87</ele>
        <time>2015-02-26T13:38:03Z</time>
      </trkpt>
      <trkpt lat="46.23472" lon="6.86541">
        <ele>1435.39</ele>
        <time>2015-02-26T13:38:28Z</time>
      </trkpt>
      <trkpt lat="46.23471" lon="6.86539">
        <ele>1434.91</ele>
        <time>2015-02-26T13:38:56Z</time>
      </trkpt>
      <trkpt lat="46.23471" lon="6.86539">
        <ele>1434.91</ele>
        <time>2015-02-26T13:39:18Z</time>
      </trkpt>
      <trkpt lat="46.23472" lon="6.86538">
        <ele>1435.87</ele>
        <time>2015-02-26T13:39:40Z</time>
      </trkpt>
      <trkpt lat="46.23472" lon="6.86537">
        <ele>1435.39</ele>
        <time>2015-02-26T13:40:01Z</time>
      </trkpt>
      <trkpt lat="46.23473" lon="6.86537">
        <ele>1437.31</ele>
        <time>2015-02-26T13:40:26Z</time>
      </trkpt>
      <trkpt lat="46.23473" lon="6.86536">
        <ele>1436.35</ele>
        <time>2015-02-26T13:40:51Z</time>
      </trkpt>
      <trkpt lat="46.23474" lon="6.86535">
        <ele>1435.87</ele>
        <time>2015-02-26T13:41:11Z</time>
      </trkpt>
      <trkpt lat="46.23468" lon="6.86544">
        <ele>1435.87</ele>
        <time>2015-02-26T13:41:30Z</time>
      </trkpt>
      <trkpt lat="46.23464" lon="6.86547">
        <ele>1435.87</ele>
        <time>2015-02-26T13:41:35Z</time>
      </trkpt>
      <trkpt lat="46.23464" lon="6.86561">
        <ele>1437.79</ele>
        <time>2015-02-26T13:41:48Z</time>
      </trkpt>
      <trkpt lat="46.23461" lon="6.86568">
        <ele>1439.71</ele>
        <time>2015-02-26T13:41:59Z</time>
      </trkpt>
      <trkpt lat="46.23459" lon="6.86577">
        <ele>1443.08</ele>
        <time>2015-02-26T13:42:11Z</time>
      </trkpt>
      <trkpt lat="46.23459" lon="6.8658">
        <ele>1442.6</ele>
        <time>2015-02-26T13:42:20Z</time>
      </trkpt>
      <trkpt lat="46.23457" lon="6.86588">
        <ele>1444.04</ele>
        <time>2015-02-26T13:42:31Z</time>
      </trkpt>
      <trkpt lat="46.23459" lon="6.866">
        <ele>1447.4</ele>
        <time>2015-02-26T13:42:42Z</time>
      </trkpt>
      <trkpt lat="46.2346" lon="6.86607">
        <ele>1450.29</ele>
        <time>2015-02-26T13:42:55Z</time>
      </trkpt>
      <trkpt lat="46.23458" lon="6.86608">
        <ele>1450.29</ele>
        <time>2015-02-26T13:43:10Z</time>
      </trkpt>
      <trkpt lat="46.23458" lon="6.86606">
        <ele>1451.25</ele>
        <time>2015-02-26T13:43:33Z</time>
      </trkpt>
      <trkpt lat="46.23458" lon="6.86607">
        <ele>1451.25</ele>
        <time>2015-02-26T13:43:52Z</time>
      </trkpt>
      <trkpt lat="46.23457" lon="6.86607">
        <ele>1451.73</ele>
        <time>2015-02-26T13:44:16Z</time>
      </trkpt>
      <trkpt lat="46.23456" lon="6.86614">
        <ele>1453.65</ele>
        <time>2015-02-26T13:44:30Z</time>
      </trkpt>
      <trkpt lat="46.23453" lon="6.86618">
        <ele>1454.13</ele>
        <time>2015-02-26T13:44:43Z</time>
      </trkpt>
      <trkpt lat="46.2345" lon="6.86631">
        <ele>1455.57</ele>
        <time>2015-02-26T13:44:56Z</time>
      </trkpt>
      <trkpt lat="46.23448" lon="6.86636">
        <ele>1456.53</ele>
        <time>2015-02-26T13:45:09Z</time>
      </trkpt>
      <trkpt lat="46.23444" lon="6.86639">
        <ele>1457.5</ele>
        <time>2015-02-26T13:45:21Z</time>
      </trkpt>
      <trkpt lat="46.23443" lon="6.86639">
        <ele>1457.5</ele>
        <time>2015-02-26T13:45:39Z</time>
      </trkpt>
      <trkpt lat="46.23443" lon="6.86639">
        <ele>1457.02</ele>
        <time>2015-02-26T13:46:01Z</time>
      </trkpt>
      <trkpt lat="46.23441" lon="6.86639">
        <ele>1457.02</ele>
        <time>2015-02-26T13:46:20Z</time>
      </trkpt>
      <trkpt lat="46.23442" lon="6.86641">
        <ele>1457.5</ele>
        <time>2015-02-26T13:46:35Z</time>
      </trkpt>
      <trkpt lat="46.23441" lon="6.86643">
        <ele>1458.46</ele>
        <time>2015-02-26T13:46:52Z</time>
      </trkpt>
      <trkpt lat="46.2344" lon="6.86643">
        <ele>1457.5</ele>
        <time>2015-02-26T13:47:17Z</time>
      </trkpt>
      <trkpt lat="46.23439" lon="6.86645">
        <ele>1457.02</ele>
        <time>2015-02-26T13:47:37Z</time>
      </trkpt>
      <trkpt lat="46.23439" lon="6.86645">
        <ele>1457.02</ele>
        <time>2015-02-26T13:47:56Z</time>
      </trkpt>
      <trkpt lat="46.23439" lon="6.86644">
        <ele>1457.5</ele>
        <time>2015-02-26T13:48:20Z</time>
      </trkpt>
      <trkpt lat="46.23439" lon="6.86644">
        <ele>1457.5</ele>
        <time>2015-02-26T13:48:47Z</time>
      </trkpt>
      <trkpt lat="46.2344" lon="6.86643">
        <ele>1457.98</ele>
        <time>2015-02-26T13:49:05Z</time>
      </trkpt>
      <trkpt lat="46.23439" lon="6.86642">
        <ele>1458.46</ele>
        <time>2015-02-26T13:49:23Z</time>
      </trkpt>
      <trkpt lat="46.23434" lon="6.86643">
        <ele>1458.94</ele>
        <time>2015-02-26T13:49:44Z</time>
      </trkpt>
      <trkpt lat="46.23422" lon="6.86643">
        <ele>1460.86</ele>
        <time>2015-02-26T13:49:58Z</time>
      </trkpt>
      <trkpt lat="46.23418" lon="6.86646">
        <ele>1461.34</ele>
        <time>2015-02-26T13:50:09Z</time>
      </trkpt>
      <trkpt lat="46.23408" lon="6.86652">
        <ele>1461.82</ele>
        <time>2015-02-26T13:50:20Z</time>
      </trkpt>
      <trkpt lat="46.23406" lon="6.86666">
        <ele>1462.3</ele>
        <time>2015-02-26T13:50:33Z</time>
      </trkpt>
      <trkpt lat="46.23404" lon="6.86674">
        <ele>1461.34</ele>
        <time>2015-02-26T13:50:44Z</time>
      </trkpt>
      <trkpt lat="46.23403" lon="6.86676">
        <ele>1460.86</ele>
        <time>2015-02-26T13:51:00Z</time>
      </trkpt>
      <trkpt lat="46.23402" lon="6.86677">
        <ele>1460.38</ele>
        <time>2015-02-26T13:51:23Z</time>
      </trkpt>
      <trkpt lat="46.23401" lon="6.86678">
        <ele>1460.38</ele>
        <time>2015-02-26T13:51:47Z</time>
      </trkpt>
      <trkpt lat="46.234" lon="6.86681">
        <ele>1461.34</ele>
        <time>2015-02-26T13:52:12Z</time>
      </trkpt>
      <trkpt lat="46.23399" lon="6.8668">
        <ele>1462.3</ele>
        <time>2015-02-26T13:52:37Z</time>
      </trkpt>
      <trkpt lat="46.23399" lon="6.8668">
        <ele>1462.3</ele>
        <time>2015-02-26T13:53:06Z</time>
      </trkpt>
      <trkpt lat="46.23392" lon="6.86684">
        <ele>1464.23</ele>
        <time>2015-02-26T13:53:21Z</time>
      </trkpt>
      <trkpt lat="46.23392" lon="6.86684">
        <ele>1464.23</ele>
        <time>2015-02-26T13:53:23Z</time>
      </trkpt>
      <trkpt lat="46.23386" lon="6.8669">
        <ele>1463.74</ele>
        <time>2015-02-26T13:53:34Z</time>
      </trkpt>
      <trkpt lat="46.23385" lon="6.8669">
        <ele>1463.74</ele>
        <time>2015-02-26T13:53:36Z</time>
      </trkpt>
      <trkpt lat="46.23376" lon="6.86698">
        <ele>1464.71</ele>
        <time>2015-02-26T13:53:49Z</time>
      </trkpt>
      <trkpt lat="46.2337" lon="6.86703">
        <ele>1468.55</ele>
        <time>2015-02-26T13:54:01Z</time>
      </trkpt>
      <trkpt lat="46.23364" lon="6.8671">
        <ele>1471.44</ele>
        <time>2015-02-26T13:54:12Z</time>
      </trkpt>
      <trkpt lat="46.23363" lon="6.86712">
        <ele>1471.92</ele>
        <time>2015-02-26T13:54:16Z</time>
      </trkpt>
      <trkpt lat="46.23363" lon="6.86719">
        <ele>1472.88</ele>
        <time>2015-02-26T13:54:27Z</time>
      </trkpt>
      <trkpt lat="46.23368" lon="6.86725">
        <ele>1473.36</ele>
        <time>2015-02-26T13:54:38Z</time>
      </trkpt>
      <trkpt lat="46.2337" lon="6.86726">
        <ele>1474.32</ele>
        <time>2015-02-26T13:54:40Z</time>
      </trkpt>
      <trkpt lat="46.23377" lon="6.86731">
        <ele>1476.72</ele>
        <time>2015-02-26T13:54:51Z</time>
      </trkpt>
      <trkpt lat="46.23382" lon="6.86735">
        <ele>1481.05</ele>
        <time>2015-02-26T13:55:04Z</time>
      </trkpt>
      <trkpt lat="46.23373" lon="6.86741">
        <ele>1485.85</ele>
        <time>2015-02-26T13:55:18Z</time>
      </trkpt>
      <trkpt lat="46.23373" lon="6.86742">
        <ele>1485.85</ele>
        <time>2015-02-26T13:55:30Z</time>
      </trkpt>
      <trkpt lat="46.23364" lon="6.86745">
        <ele>1486.34</ele>
        <time>2015-02-26T13:55:44Z</time>
      </trkpt>
      <trkpt lat="46.23361" lon="6.86751">
        <ele>1488.74</ele>
        <time>2015-02-26T13:55:56Z</time>
      </trkpt>
      <trkpt lat="46.23359" lon="6.86755">
        <ele>1489.22</ele>
        <time>2015-02-26T13:56:16Z</time>
      </trkpt>
      <trkpt lat="46.23356" lon="6.86758">
        <ele>1490.18</ele>
        <time>2015-02-26T13:56:29Z</time>
      </trkpt>
      <trkpt lat="46.23356" lon="6.86768">
        <ele>1493.06</ele>
        <time>2015-02-26T13:56:39Z</time>
      </trkpt>
      <trkpt lat="46.23353" lon="6.86782">
        <ele>1497.39</ele>
        <time>2015-02-26T13:56:46Z</time>
      </trkpt>
      <trkpt lat="46.23357" lon="6.86787">
        <ele>1499.31</ele>
        <time>2015-02-26T13:56:59Z</time>
      </trkpt>
      <trkpt lat="46.23359" lon="6.86787">
        <ele>1500.76</ele>
        <time>2015-02-26T13:57:09Z</time>
      </trkpt>
      <trkpt lat="46.23361" lon="6.8679">
        <ele>1502.2</ele>
        <time>2015-02-26T13:57:29Z</time>
      </trkpt>
      <trkpt lat="46.23361" lon="6.8679">
        <ele>1501.24</ele>
        <time>2015-02-26T13:57:50Z</time>
      </trkpt>
      <trkpt lat="46.23361" lon="6.8679">
        <ele>1501.72</ele>
        <time>2015-02-26T13:58:13Z</time>
      </trkpt>
      <trkpt lat="46.23362" lon="6.86792">
        <ele>1502.2</ele>
        <time>2015-02-26T13:58:33Z</time>
      </trkpt>
      <trkpt lat="46.23362" lon="6.86792">
        <ele>1503.16</ele>
        <time>2015-02-26T13:58:57Z</time>
      </trkpt>
      <trkpt lat="46.23362" lon="6.86793">
        <ele>1503.16</ele>
        <time>2015-02-26T13:59:20Z</time>
      </trkpt>
      <trkpt lat="46.23361" lon="6.86792">
        <ele>1503.16</ele>
        <time>2015-02-26T13:59:49Z</time>
      </trkpt>
      <trkpt lat="46.23359" lon="6.86792">
        <ele>1502.2</ele>
        <time>2015-02-26T14:00:07Z</time>
      </trkpt>
      <trkpt lat="46.23358" lon="6.86793">
        <ele>1502.2</ele>
        <time>2015-02-26T14:00:26Z</time>
      </trkpt>
      <trkpt lat="46.23358" lon="6.86792">
        <ele>1502.2</ele>
        <time>2015-02-26T14:00:47Z</time>
      </trkpt>
      <trkpt lat="46.23358" lon="6.86791">
        <ele>1502.2</ele>
        <time>2015-02-26T14:01:12Z</time>
      </trkpt>
      <trkpt lat="46.23357" lon="6.86792">
        <ele>1501.72</ele>
        <time>2015-02-26T14:01:34Z</time>
      </trkpt>
      <trkpt lat="46.23359" lon="6.86793">
        <ele>1499.31</ele>
        <time>2015-02-26T14:01:57Z</time>
      </trkpt>
      <trkpt lat="46.23363" lon="6.868">
        <ele>1499.31</ele>
        <time>2015-02-26T14:02:08Z</time>
      </trkpt>
      <trkpt lat="46.23359" lon="6.86805">
        <ele>1500.27</ele>
        <time>2015-02-26T14:02:18Z</time>
      </trkpt>
      <trkpt lat="46.23347" lon="6.86812">
        <ele>1502.68</ele>
        <time>2015-02-26T14:02:30Z</time>
      </trkpt>
      <trkpt lat="46.23339" lon="6.8681">
        <ele>1505.08</ele>
        <time>2015-02-26T14:02:41Z</time>
      </trkpt>
      <trkpt lat="46.23335" lon="6.86816">
        <ele>1506.04</ele>
        <time>2015-02-26T14:02:51Z</time>
      </trkpt>
      <trkpt lat="46.23327" lon="6.86821">
        <ele>1506.04</ele>
        <time>2015-02-26T14:03:03Z</time>
      </trkpt>
      <trkpt lat="46.23318" lon="6.86822">
        <ele>1507.48</ele>
        <time>2015-02-26T14:03:14Z</time>
      </trkpt>
      <trkpt lat="46.23317" lon="6.86823">
        <ele>1507.97</ele>
        <time>2015-02-26T14:03:15Z</time>
      </trkpt>
      <trkpt lat="46.23308" lon="6.86832">
        <ele>1508.93</ele>
        <time>2015-02-26T14:03:26Z</time>
      </trkpt>
      <trkpt lat="46.23306" lon="6.86836">
        <ele>1507.48</ele>
        <time>2015-02-26T14:03:37Z</time>
      </trkpt>
      <trkpt lat="46.23305" lon="6.86837">
        <ele>1507.48</ele>
        <time>2015-02-26T14:03:38Z</time>
      </trkpt>
      <trkpt lat="46.23304" lon="6.8684">
        <ele>1507.48</ele>
        <time>2015-02-26T14:03:47Z</time>
      </trkpt>
      <trkpt lat="46.23315" lon="6.86846">
        <ele>1511.81</ele>
        <time>2015-02-26T14:03:59Z</time>
      </trkpt>
      <trkpt lat="46.23318" lon="6.86853">
        <ele>1512.29</ele>
        <time>2015-02-26T14:04:11Z</time>
      </trkpt>
      <trkpt lat="46.2332" lon="6.86865">
        <ele>1511.33</ele>
        <time>2015-02-26T14:04:23Z</time>
      </trkpt>
      <trkpt lat="46.23324" lon="6.8687">
        <ele>1511.81</ele>
        <time>2015-02-26T14:04:33Z</time>
      </trkpt>
      <trkpt lat="46.23323" lon="6.86869">
        <ele>1511.81</ele>
        <time>2015-02-26T14:04:51Z</time>
      </trkpt>
      <trkpt lat="46.23324" lon="6.86869">
        <ele>1511.81</ele>
        <time>2015-02-26T14:05:09Z</time>
      </trkpt>
      <trkpt lat="46.23324" lon="6.86867">
        <ele>1512.29</ele>
        <time>2015-02-26T14:05:33Z</time>
      </trkpt>
      <trkpt lat="46.23326" lon="6.86871">
        <ele>1514.69</ele>
        <time>2015-02-26T14:05:55Z</time>
      </trkpt>
      <trkpt lat="46.23326" lon="6.86875">
        <ele>1515.66</ele>
        <time>2015-02-26T14:06:09Z</time>
      </trkpt>
      <trkpt lat="46.23326" lon="6.86879">
        <ele>1516.14</ele>
        <time>2015-02-26T14:06:14Z</time>
      </trkpt>
      <trkpt lat="46.23317" lon="6.8688">
        <ele>1517.1</ele>
        <time>2015-02-26T14:06:28Z</time>
      </trkpt>
      <trkpt lat="46.23308" lon="6.86887">
        <ele>1520.46</ele>
        <time>2015-02-26T14:06:42Z</time>
      </trkpt>
      <trkpt lat="46.23301" lon="6.8689">
        <ele>1523.35</ele>
        <time>2015-02-26T14:06:56Z</time>
      </trkpt>
      <trkpt lat="46.23298" lon="6.86892">
        <ele>1522.87</ele>
        <time>2015-02-26T14:07:13Z</time>
      </trkpt>
      <trkpt lat="46.23299" lon="6.86891">
        <ele>1522.87</ele>
        <time>2015-02-26T14:07:28Z</time>
      </trkpt>
      <trkpt lat="46.23295" lon="6.86894">
        <ele>1523.35</ele>
        <time>2015-02-26T14:07:45Z</time>
      </trkpt>
      <trkpt lat="46.23296" lon="6.86891">
        <ele>1526.23</ele>
        <time>2015-02-26T14:08:00Z</time>
      </trkpt>
      <trkpt lat="46.23296" lon="6.86891">
        <ele>1527.19</ele>
        <time>2015-02-26T14:08:15Z</time>
      </trkpt>
      <trkpt lat="46.23297" lon="6.8689">
        <ele>1528.15</ele>
        <time>2015-02-26T14:08:32Z</time>
      </trkpt>
      <trkpt lat="46.23295" lon="6.86897">
        <ele>1527.67</ele>
        <time>2015-02-26T14:08:51Z</time>
      </trkpt>
      <trkpt lat="46.233" lon="6.86901">
        <ele>1532.48</ele>
        <time>2015-02-26T14:09:05Z</time>
      </trkpt>
      <trkpt lat="46.23304" lon="6.86903">
        <ele>1533.92</ele>
        <time>2015-02-26T14:09:13Z</time>
      </trkpt>
      <trkpt lat="46.23306" lon="6.86911">
        <ele>1535.84</ele>
        <time>2015-02-26T14:09:23Z</time>
      </trkpt>
      <trkpt lat="46.233" lon="6.86916">
        <ele>1537.77</ele>
        <time>2015-02-26T14:09:33Z</time>
      </trkpt>
      <trkpt lat="46.23309" lon="6.86925">
        <ele>1540.65</ele>
        <time>2015-02-26T14:09:47Z</time>
      </trkpt>
      <trkpt lat="46.23318" lon="6.86922">
        <ele>1543.05</ele>
        <time>2015-02-26T14:10:01Z</time>
      </trkpt>
      <trkpt lat="46.23321" lon="6.86923">
        <ele>1545.46</ele>
        <time>2015-02-26T14:10:10Z</time>
      </trkpt>
      <trkpt lat="46.23323" lon="6.86923">
        <ele>1545.94</ele>
        <time>2015-02-26T14:10:28Z</time>
      </trkpt>
      <trkpt lat="46.23324" lon="6.86923">
        <ele>1547.86</ele>
        <time>2015-02-26T14:10:52Z</time>
      </trkpt>
      <trkpt lat="46.23324" lon="6.86923">
        <ele>1546.9</ele>
        <time>2015-02-26T14:11:15Z</time>
      </trkpt>
      <trkpt lat="46.23325" lon="6.86924">
        <ele>1546.9</ele>
        <time>2015-02-26T14:11:47Z</time>
      </trkpt>
      <trkpt lat="46.23323" lon="6.86925">
        <ele>1544.98</ele>
        <time>2015-02-26T14:12:16Z</time>
      </trkpt>
      <trkpt lat="46.23323" lon="6.86925">
        <ele>1544.98</ele>
        <time>2015-02-26T14:12:39Z</time>
      </trkpt>
      <trkpt lat="46.23323" lon="6.86925">
        <ele>1545.94</ele>
        <time>2015-02-26T14:13:02Z</time>
      </trkpt>
      <trkpt lat="46.23324" lon="6.86925">
        <ele>1546.42</ele>
        <time>2015-02-26T14:13:27Z</time>
      </trkpt>
      <trkpt lat="46.23325" lon="6.86926">
        <ele>1547.38</ele>
        <time>2015-02-26T14:13:53Z</time>
      </trkpt>
      <trkpt lat="46.23324" lon="6.86924">
        <ele>1547.86</ele>
        <time>2015-02-26T14:14:17Z</time>
      </trkpt>
      <trkpt lat="46.23325" lon="6.86924">
        <ele>1547.86</ele>
        <time>2015-02-26T14:14:40Z</time>
      </trkpt>
      <trkpt lat="46.23325" lon="6.86924">
        <ele>1548.82</ele>
        <time>2015-02-26T14:15:02Z</time>
      </trkpt>
      <trkpt lat="46.23325" lon="6.86924">
        <ele>1548.82</ele>
        <time>2015-02-26T14:15:24Z</time>
      </trkpt>
      <trkpt lat="46.23327" lon="6.86927">
        <ele>1549.3</ele>
        <time>2015-02-26T14:15:47Z</time>
      </trkpt>
      <trkpt lat="46.23324" lon="6.86929">
        <ele>1549.3</ele>
        <time>2015-02-26T14:15:58Z</time>
      </trkpt>
      <trkpt lat="46.23338" lon="6.86947">
        <ele>1551.71</ele>
        <time>2015-02-26T14:16:12Z</time>
      </trkpt>
      <trkpt lat="46.23341" lon="6.86959">
        <ele>1552.67</ele>
        <time>2015-02-26T14:16:25Z</time>
      </trkpt>
      <trkpt lat="46.23341" lon="6.86969">
        <ele>1554.11</ele>
        <time>2015-02-26T14:16:37Z</time>
      </trkpt>
      <trkpt lat="46.23343" lon="6.86984">
        <ele>1556.99</ele>
        <time>2015-02-26T14:16:50Z</time>
      </trkpt>
      <trkpt lat="46.23338" lon="6.86997">
        <ele>1557.95</ele>
        <time>2015-02-26T14:17:04Z</time>
      </trkpt>
      <trkpt lat="46.23337" lon="6.87011">
        <ele>1558.92</ele>
        <time>2015-02-26T14:17:14Z</time>
      </trkpt>
      <trkpt lat="46.23333" lon="6.87017">
        <ele>1561.8</ele>
        <time>2015-02-26T14:17:24Z</time>
      </trkpt>
      <trkpt lat="46.23325" lon="6.87024">
        <ele>1562.76</ele>
        <time>2015-02-26T14:17:35Z</time>
      </trkpt>
      <trkpt lat="46.23323" lon="6.87026">
        <ele>1563.24</ele>
        <time>2015-02-26T14:17:37Z</time>
      </trkpt>
      <trkpt lat="46.2332" lon="6.87032">
        <ele>1564.68</ele>
        <time>2015-02-26T14:17:45Z</time>
      </trkpt>
      <trkpt lat="46.23318" lon="6.87033">
        <ele>1565.64</ele>
        <time>2015-02-26T14:17:47Z</time>
      </trkpt>
      <trkpt lat="46.23313" lon="6.87039">
        <ele>1570.45</ele>
        <time>2015-02-26T14:17:58Z</time>
      </trkpt>
      <trkpt lat="46.23313" lon="6.87038">
        <ele>1568.53</ele>
        <time>2015-02-26T14:18:10Z</time>
      </trkpt>
      <trkpt lat="46.23313" lon="6.8704">
        <ele>1567.09</ele>
        <time>2015-02-26T14:18:29Z</time>
      </trkpt>
      <trkpt lat="46.23311" lon="6.8704">
        <ele>1565.64</ele>
        <time>2015-02-26T14:18:44Z</time>
      </trkpt>
      <trkpt lat="46.23309" lon="6.87041">
        <ele>1564.68</ele>
        <time>2015-02-26T14:18:59Z</time>
      </trkpt>
      <trkpt lat="46.23311" lon="6.87039">
        <ele>1563.24</ele>
        <time>2015-02-26T14:19:12Z</time>
      </trkpt>
      <trkpt lat="46.23313" lon="6.87038">
        <ele>1561.8</ele>
        <time>2015-02-26T14:19:29Z</time>
      </trkpt>
      <trkpt lat="46.23313" lon="6.8704">
        <ele>1561.8</ele>
        <time>2015-02-26T14:19:46Z</time>
      </trkpt>
      <trkpt lat="46.2331" lon="6.87042">
        <ele>1561.32</ele>
        <time>2015-02-26T14:20:02Z</time>
      </trkpt>
      <trkpt lat="46.23307" lon="6.87047">
        <ele>1562.28</ele>
        <time>2015-02-26T14:20:15Z</time>
      </trkpt>
      <trkpt lat="46.23305" lon="6.87049">
        <ele>1562.76</ele>
        <time>2015-02-26T14:20:26Z</time>
      </trkpt>
      <trkpt lat="46.23299" lon="6.87058">
        <ele>1564.68</ele>
        <time>2015-02-26T14:20:37Z</time>
      </trkpt>
      <trkpt lat="46.23294" lon="6.87066">
        <ele>1565.64</ele>
        <time>2015-02-26T14:20:47Z</time>
      </trkpt>
      <trkpt lat="46.23289" lon="6.87074">
        <ele>1565.64</ele>
        <time>2015-02-26T14:20:59Z</time>
      </trkpt>
      <trkpt lat="46.2328" lon="6.87088">
        <ele>1567.09</ele>
        <time>2015-02-26T14:21:11Z</time>
      </trkpt>
      <trkpt lat="46.23276" lon="6.87096">
        <ele>1568.53</ele>
        <time>2015-02-26T14:21:22Z</time>
      </trkpt>
      <trkpt lat="46.23276" lon="6.87099">
        <ele>1569.01</ele>
        <time>2015-02-26T14:21:27Z</time>
      </trkpt>
      <trkpt lat="46.23272" lon="6.87104">
        <ele>1567.09</ele>
        <time>2015-02-26T14:21:33Z</time>
      </trkpt>
      <trkpt lat="46.23264" lon="6.87114">
        <ele>1566.12</ele>
        <time>2015-02-26T14:21:44Z</time>
      </trkpt>
      <trkpt lat="46.23262" lon="6.87123">
        <ele>1564.68</ele>
        <time>2015-02-26T14:21:54Z</time>
      </trkpt>
      <trkpt lat="46.23261" lon="6.87125">
        <ele>1564.68</ele>
        <time>2015-02-26T14:21:56Z</time>
      </trkpt>
      <trkpt lat="46.23256" lon="6.87132">
        <ele>1565.16</ele>
        <time>2015-02-26T14:22:04Z</time>
      </trkpt>
      <trkpt lat="46.23252" lon="6.87145">
        <ele>1566.12</ele>
        <time>2015-02-26T14:22:15Z</time>
      </trkpt>
      <trkpt lat="46.23249" lon="6.87159">
        <ele>1569.49</ele>
        <time>2015-02-26T14:22:26Z</time>
      </trkpt>
      <trkpt lat="46.23247" lon="6.87168">
        <ele>1569.49</ele>
        <time>2015-02-26T14:22:36Z</time>
      </trkpt>
      <trkpt lat="46.23243" lon="6.87177">
        <ele>1569.01</ele>
        <time>2015-02-26T14:22:45Z</time>
      </trkpt>
      <trkpt lat="46.23239" lon="6.87185">
        <ele>1569.97</ele>
        <time>2015-02-26T14:22:54Z</time>
      </trkpt>
      <trkpt lat="46.23236" lon="6.8719">
        <ele>1569.49</ele>
        <time>2015-02-26T14:23:00Z</time>
      </trkpt>
      <trkpt lat="46.23232" lon="6.87199">
        <ele>1569.97</ele>
        <time>2015-02-26T14:23:10Z</time>
      </trkpt>
      <trkpt lat="46.23226" lon="6.87212">
        <ele>1569.49</ele>
        <time>2015-02-26T14:23:22Z</time>
      </trkpt>
      <trkpt lat="46.23226" lon="6.87214">
        <ele>1569.01</ele>
        <time>2015-02-26T14:23:24Z</time>
      </trkpt>
      <trkpt lat="46.23222" lon="6.87218">
        <ele>1569.49</ele>
        <time>2015-02-26T14:23:30Z</time>
      </trkpt>
      <trkpt lat="46.23219" lon="6.87223">
        <ele>1571.41</ele>
        <time>2015-02-26T14:23:36Z</time>
      </trkpt>
      <trkpt lat="46.23214" lon="6.87234">
        <ele>1569.97</ele>
        <time>2015-02-26T14:23:48Z</time>
      </trkpt>
      <trkpt lat="46.23208" lon="6.87245">
        <ele>1570.93</ele>
        <time>2015-02-26T14:23:58Z</time>
      </trkpt>
      <trkpt lat="46.23206" lon="6.87247">
        <ele>1571.89</ele>
        <time>2015-02-26T14:24:01Z</time>
      </trkpt>
      <trkpt lat="46.23204" lon="6.87248">
        <ele>1572.37</ele>
        <time>2015-02-26T14:24:04Z</time>
      </trkpt>
      <trkpt lat="46.23196" lon="6.87256">
        <ele>1574.78</ele>
        <time>2015-02-26T14:24:16Z</time>
      </trkpt>
      <trkpt lat="46.23187" lon="6.87269">
        <ele>1574.78</ele>
        <time>2015-02-26T14:24:30Z</time>
      </trkpt>
      <trkpt lat="46.23179" lon="6.87274">
        <ele>1575.26</ele>
        <time>2015-02-26T14:24:43Z</time>
      </trkpt>
      <trkpt lat="46.23178" lon="6.87278">
        <ele>1575.74</ele>
        <time>2015-02-26T14:24:46Z</time>
      </trkpt>
      <trkpt lat="46.23175" lon="6.87282">
        <ele>1575.74</ele>
        <time>2015-02-26T14:24:51Z</time>
      </trkpt>
      <trkpt lat="46.23175" lon="6.87286">
        <ele>1575.74</ele>
        <time>2015-02-26T14:24:53Z</time>
      </trkpt>
      <trkpt lat="46.23173" lon="6.87295">
        <ele>1577.66</ele>
        <time>2015-02-26T14:25:01Z</time>
      </trkpt>
      <trkpt lat="46.2317" lon="6.87305">
        <ele>1582.95</ele>
        <time>2015-02-26T14:25:14Z</time>
      </trkpt>
      <trkpt lat="46.23157" lon="6.87312">
        <ele>1583.43</ele>
        <time>2015-02-26T14:25:27Z</time>
      </trkpt>
      <trkpt lat="46.23152" lon="6.87319">
        <ele>1583.91</ele>
        <time>2015-02-26T14:25:39Z</time>
      </trkpt>
      <trkpt lat="46.23152" lon="6.8732">
        <ele>1583.91</ele>
        <time>2015-02-26T14:25:40Z</time>
      </trkpt>
      <trkpt lat="46.23149" lon="6.8732">
        <ele>1584.39</ele>
        <time>2015-02-26T14:25:55Z</time>
      </trkpt>
      <trkpt lat="46.2315" lon="6.87324">
        <ele>1586.31</ele>
        <time>2015-02-26T14:26:19Z</time>
      </trkpt>
      <trkpt lat="46.23148" lon="6.87325">
        <ele>1587.27</ele>
        <time>2015-02-26T14:26:27Z</time>
      </trkpt>
      <trkpt lat="46.23145" lon="6.87331">
        <ele>1588.72</ele>
        <time>2015-02-26T14:26:34Z</time>
      </trkpt>
      <trkpt lat="46.23138" lon="6.8734">
        <ele>1589.2</ele>
        <time>2015-02-26T14:26:44Z</time>
      </trkpt>
      <trkpt lat="46.23131" lon="6.87344">
        <ele>1590.64</ele>
        <time>2015-02-26T14:26:54Z</time>
      </trkpt>
      <trkpt lat="46.23127" lon="6.87352">
        <ele>1591.6</ele>
        <time>2015-02-26T14:27:04Z</time>
      </trkpt>
      <trkpt lat="46.23124" lon="6.87362">
        <ele>1592.08</ele>
        <time>2015-02-26T14:27:16Z</time>
      </trkpt>
      <trkpt lat="46.23125" lon="6.87363">
        <ele>1592.08</ele>
        <time>2015-02-26T14:27:36Z</time>
      </trkpt>
      <trkpt lat="46.23125" lon="6.87366">
        <ele>1592.56</ele>
        <time>2015-02-26T14:27:57Z</time>
      </trkpt>
      <trkpt lat="46.23121" lon="6.8737">
        <ele>1592.56</ele>
        <time>2015-02-26T14:28:08Z</time>
      </trkpt>
      <trkpt lat="46.23117" lon="6.87373">
        <ele>1593.04</ele>
        <time>2015-02-26T14:28:22Z</time>
      </trkpt>
      <trkpt lat="46.23112" lon="6.8738">
        <ele>1595.45</ele>
        <time>2015-02-26T14:28:35Z</time>
      </trkpt>
      <trkpt lat="46.2311" lon="6.87384">
        <ele>1596.41</ele>
        <time>2015-02-26T14:28:46Z</time>
      </trkpt>
      <trkpt lat="46.23108" lon="6.87384">
        <ele>1597.37</ele>
        <time>2015-02-26T14:28:48Z</time>
      </trkpt>
      <trkpt lat="46.23098" lon="6.87387">
        <ele>1601.21</ele>
        <time>2015-02-26T14:28:59Z</time>
      </trkpt>
      <trkpt lat="46.23095" lon="6.87387">
        <ele>1602.17</ele>
        <time>2015-02-26T14:29:02Z</time>
      </trkpt>
      <trkpt lat="46.23086" lon="6.87392">
        <ele>1607.94</ele>
        <time>2015-02-26T14:29:16Z</time>
      </trkpt>
      <trkpt lat="46.23084" lon="6.87391">
        <ele>1608.9</ele>
        <time>2015-02-26T14:29:20Z</time>
      </trkpt>
      <trkpt lat="46.2308" lon="6.87394">
        <ele>1610.83</ele>
        <time>2015-02-26T14:29:33Z</time>
      </trkpt>
      <trkpt lat="46.23077" lon="6.87395">
        <ele>1610.83</ele>
        <time>2015-02-26T14:29:57Z</time>
      </trkpt>
      <trkpt lat="46.23077" lon="6.87396">
        <ele>1610.83</ele>
        <time>2015-02-26T14:30:02Z</time>
      </trkpt>
      <trkpt lat="46.23072" lon="6.874">
        <ele>1614.19</ele>
        <time>2015-02-26T14:30:14Z</time>
      </trkpt>
      <trkpt lat="46.23068" lon="6.87403">
        <ele>1617.56</ele>
        <time>2015-02-26T14:30:27Z</time>
      </trkpt>
      <trkpt lat="46.23066" lon="6.87408">
        <ele>1618.04</ele>
        <time>2015-02-26T14:30:41Z</time>
      </trkpt>
      <trkpt lat="46.2306" lon="6.87411">
        <ele>1619.96</ele>
        <time>2015-02-26T14:30:52Z</time>
      </trkpt>
      <trkpt lat="46.23057" lon="6.87414">
        <ele>1619.96</ele>
        <time>2015-02-26T14:31:04Z</time>
      </trkpt>
      <trkpt lat="46.23045" lon="6.87424">
        <ele>1620.44</ele>
        <time>2015-02-26T14:31:23Z</time>
      </trkpt>
      <trkpt lat="46.23041" lon="6.87425">
        <ele>1619.96</ele>
        <time>2015-02-26T14:31:41Z</time>
      </trkpt>
      <trkpt lat="46.2304" lon="6.87427">
        <ele>1619.96</ele>
        <time>2015-02-26T14:31:54Z</time>
      </trkpt>
      <trkpt lat="46.23036" lon="6.87429">
        <ele>1619</ele>
        <time>2015-02-26T14:32:08Z</time>
      </trkpt>
      <trkpt lat="46.23028" lon="6.8743">
        <ele>1615.63</ele>
        <time>2015-02-26T14:32:18Z</time>
      </trkpt>
      <trkpt lat="46.23018" lon="6.87437">
        <ele>1610.35</ele>
        <time>2015-02-26T14:32:30Z</time>
      </trkpt>
      <trkpt lat="46.23014" lon="6.87435">
        <ele>1608.42</ele>
        <time>2015-02-26T14:32:41Z</time>
      </trkpt>
      <trkpt lat="46.23012" lon="6.87436">
        <ele>1606.98</ele>
        <time>2015-02-26T14:32:45Z</time>
      </trkpt>
      <trkpt lat="46.23003" lon="6.87442">
        <ele>1607.46</ele>
        <time>2015-02-26T14:32:58Z</time>
      </trkpt>
      <trkpt lat="46.22996" lon="6.87447">
        <ele>1611.79</ele>
        <time>2015-02-26T14:33:10Z</time>
      </trkpt>
      <trkpt lat="46.22995" lon="6.87449">
        <ele>1612.75</ele>
        <time>2015-02-26T14:33:15Z</time>
      </trkpt>
      <trkpt lat="46.22988" lon="6.87456">
        <ele>1613.71</ele>
        <time>2015-02-26T14:33:26Z</time>
      </trkpt>
      <trkpt lat="46.22983" lon="6.87458">
        <ele>1614.67</ele>
        <time>2015-02-26T14:33:39Z</time>
      </trkpt>
      <trkpt lat="46.22981" lon="6.8746">
        <ele>1617.56</ele>
        <time>2015-02-26T14:33:52Z</time>
      </trkpt>
      <trkpt lat="46.2298" lon="6.87461">
        <ele>1618.04</ele>
        <time>2015-02-26T14:34:04Z</time>
      </trkpt>
      <trkpt lat="46.22978" lon="6.87461">
        <ele>1619.96</ele>
        <time>2015-02-26T14:34:18Z</time>
      </trkpt>
      <trkpt lat="46.22974" lon="6.87462">
        <ele>1619.96</ele>
        <time>2015-02-26T14:34:33Z</time>
      </trkpt>
      <trkpt lat="46.22966" lon="6.87467">
        <ele>1620.92</ele>
        <time>2015-02-26T14:34:45Z</time>
      </trkpt>
      <trkpt lat="46.22964" lon="6.87469">
        <ele>1621.4</ele>
        <time>2015-02-26T14:34:50Z</time>
      </trkpt>
      <trkpt lat="46.2296" lon="6.87476">
        <ele>1622.36</ele>
        <time>2015-02-26T14:35:00Z</time>
      </trkpt>
      <trkpt lat="46.22956" lon="6.8748">
        <ele>1623.8</ele>
        <time>2015-02-26T14:35:09Z</time>
      </trkpt>
      <trkpt lat="46.22953" lon="6.87481">
        <ele>1624.77</ele>
        <time>2015-02-26T14:35:23Z</time>
      </trkpt>
      <trkpt lat="46.22944" lon="6.87486">
        <ele>1626.21</ele>
        <time>2015-02-26T14:35:31Z</time>
      </trkpt>
      <trkpt lat="46.22942" lon="6.87489">
        <ele>1626.21</ele>
        <time>2015-02-26T14:35:34Z</time>
      </trkpt>
      <trkpt lat="46.22939" lon="6.87491">
        <ele>1626.21</ele>
        <time>2015-02-26T14:35:37Z</time>
      </trkpt>
      <trkpt lat="46.22934" lon="6.87494">
        <ele>1626.21</ele>
        <time>2015-02-26T14:35:41Z</time>
      </trkpt>
      <trkpt lat="46.22932" lon="6.87495">
        <ele>1626.21</ele>
        <time>2015-02-26T14:35:43Z</time>
      </trkpt>
      <trkpt lat="46.22925" lon="6.87499">
        <ele>1627.65</ele>
        <time>2015-02-26T14:35:50Z</time>
      </trkpt>
      <trkpt lat="46.22919" lon="6.87502">
        <ele>1628.13</ele>
        <time>2015-02-26T14:35:55Z</time>
      </trkpt>
      <trkpt lat="46.22917" lon="6.87504">
        <ele>1628.13</ele>
        <time>2015-02-26T14:35:57Z</time>
      </trkpt>
      <trkpt lat="46.2291" lon="6.87508">
        <ele>1628.61</ele>
        <time>2015-02-26T14:36:04Z</time>
      </trkpt>
      <trkpt lat="46.22906" lon="6.87511">
        <ele>1628.61</ele>
        <time>2015-02-26T14:36:08Z</time>
      </trkpt>
      <trkpt lat="46.22898" lon="6.87515">
        <ele>1628.13</ele>
        <time>2015-02-26T14:36:14Z</time>
      </trkpt>
      <trkpt lat="46.2289" lon="6.87513">
        <ele>1628.13</ele>
        <time>2015-02-26T14:36:21Z</time>
      </trkpt>
      <trkpt lat="46.22882" lon="6.87515">
        <ele>1628.61</ele>
        <time>2015-02-26T14:36:28Z</time>
      </trkpt>
      <trkpt lat="46.22869" lon="6.87519">
        <ele>1631.49</ele>
        <time>2015-02-26T14:36:39Z</time>
      </trkpt>
      <trkpt lat="46.22867" lon="6.87519">
        <ele>1631.49</ele>
        <time>2015-02-26T14:36:41Z</time>
      </trkpt>
      <trkpt lat="46.22863" lon="6.87518">
        <ele>1631.01</ele>
        <time>2015-02-26T14:36:44Z</time>
      </trkpt>
      <trkpt lat="46.2286" lon="6.87518">
        <ele>1631.01</ele>
        <time>2015-02-26T14:36:46Z</time>
      </trkpt>
      <trkpt lat="46.22856" lon="6.87519">
        <ele>1631.98</ele>
        <time>2015-02-26T14:36:50Z</time>
      </trkpt>
      <trkpt lat="46.22854" lon="6.87519">
        <ele>1631.49</ele>
        <time>2015-02-26T14:36:52Z</time>
      </trkpt>
      <trkpt lat="46.22847" lon="6.87522">
        <ele>1631.01</ele>
        <time>2015-02-26T14:36:56Z</time>
      </trkpt>
      <trkpt lat="46.22841" lon="6.87529">
        <ele>1631.49</ele>
        <time>2015-02-26T14:37:05Z</time>
      </trkpt>
      <trkpt lat="46.22841" lon="6.8753">
        <ele>1632.94</ele>
        <time>2015-02-26T14:37:09Z</time>
      </trkpt>
      <trkpt lat="46.2284" lon="6.87531">
        <ele>1633.42</ele>
        <time>2015-02-26T14:37:11Z</time>
      </trkpt>
      <trkpt lat="46.22833" lon="6.87537">
        <ele>1634.38</ele>
        <time>2015-02-26T14:37:22Z</time>
      </trkpt>
      <trkpt lat="46.22832" lon="6.87539">
        <ele>1634.38</ele>
        <time>2015-02-26T14:37:26Z</time>
      </trkpt>
      <trkpt lat="46.22827" lon="6.87546">
        <ele>1637.26</ele>
        <time>2015-02-26T14:37:36Z</time>
      </trkpt>
      <trkpt lat="46.22824" lon="6.87554">
        <ele>1637.74</ele>
        <time>2015-02-26T14:37:45Z</time>
      </trkpt>
      <trkpt lat="46.22824" lon="6.87554">
        <ele>1637.26</ele>
        <time>2015-02-26T14:37:47Z</time>
      </trkpt>
      <trkpt lat="46.22821" lon="6.87563">
        <ele>1636.3</ele>
        <time>2015-02-26T14:37:54Z</time>
      </trkpt>
      <trkpt lat="46.22821" lon="6.87571">
        <ele>1635.82</ele>
        <time>2015-02-26T14:38:05Z</time>
      </trkpt>
      <trkpt lat="46.22821" lon="6.87576">
        <ele>1639.67</ele>
        <time>2015-02-26T14:38:16Z</time>
      </trkpt>
      <trkpt lat="46.22819" lon="6.87576">
        <ele>1640.15</ele>
        <time>2015-02-26T14:38:27Z</time>
      </trkpt>
      <trkpt lat="46.2282" lon="6.87575">
        <ele>1640.63</ele>
        <time>2015-02-26T14:38:40Z</time>
      </trkpt>
      <trkpt lat="46.22816" lon="6.87576">
        <ele>1642.55</ele>
        <time>2015-02-26T14:38:51Z</time>
      </trkpt>
      <trkpt lat="46.22815" lon="6.87577">
        <ele>1643.99</ele>
        <time>2015-02-26T14:39:11Z</time>
      </trkpt>
      <trkpt lat="46.22815" lon="6.87577">
        <ele>1644.47</ele>
        <time>2015-02-26T14:39:31Z</time>
      </trkpt>
      <trkpt lat="46.22815" lon="6.87576">
        <ele>1643.51</ele>
        <time>2015-02-26T14:39:51Z</time>
      </trkpt>
      <trkpt lat="46.22815" lon="6.87577">
        <ele>1643.03</ele>
        <time>2015-02-26T14:39:58Z</time>
      </trkpt>
      <trkpt lat="46.2281" lon="6.87581">
        <ele>1640.15</ele>
        <time>2015-02-26T14:40:10Z</time>
      </trkpt>
      <trkpt lat="46.22807" lon="6.87582">
        <ele>1639.19</ele>
        <time>2015-02-26T14:40:27Z</time>
      </trkpt>
      <trkpt lat="46.22802" lon="6.87577">
        <ele>1638.22</ele>
        <time>2015-02-26T14:40:36Z</time>
      </trkpt>
      <trkpt lat="46.22799" lon="6.87576">
        <ele>1636.3</ele>
        <time>2015-02-26T14:40:46Z</time>
      </trkpt>
      <trkpt lat="46.22798" lon="6.87576">
        <ele>1636.78</ele>
        <time>2015-02-26T14:41:12Z</time>
      </trkpt>
      <trkpt lat="46.22798" lon="6.87576">
        <ele>1636.78</ele>
        <time>2015-02-26T14:41:16Z</time>
      </trkpt>
      <trkpt lat="46.22798" lon="6.87572">
        <ele>1636.78</ele>
        <time>2015-02-26T14:41:21Z</time>
      </trkpt>
      <trkpt lat="46.2279" lon="6.8757">
        <ele>1636.78</ele>
        <time>2015-02-26T14:41:30Z</time>
      </trkpt>
      <trkpt lat="46.22788" lon="6.87571">
        <ele>1636.78</ele>
        <time>2015-02-26T14:41:32Z</time>
      </trkpt>
      <trkpt lat="46.22779" lon="6.87576">
        <ele>1635.82</ele>
        <time>2015-02-26T14:41:46Z</time>
      </trkpt>
      <trkpt lat="46.22777" lon="6.87578">
        <ele>1635.82</ele>
        <time>2015-02-26T14:42:00Z</time>
      </trkpt>
      <trkpt lat="46.22779" lon="6.87577">
        <ele>1635.34</ele>
        <time>2015-02-26T14:42:13Z</time>
      </trkpt>
      <trkpt lat="46.22781" lon="6.87577">
        <ele>1635.82</ele>
        <time>2015-02-26T14:42:15Z</time>
      </trkpt>
      <trkpt lat="46.22787" lon="6.87575">
        <ele>1636.78</ele>
        <time>2015-02-26T14:42:23Z</time>
      </trkpt>
      <trkpt lat="46.22791" lon="6.87575">
        <ele>1636.78</ele>
        <time>2015-02-26T14:42:31Z</time>
      </trkpt>
      <trkpt lat="46.22795" lon="6.87575">
        <ele>1638.22</ele>
        <time>2015-02-26T14:42:42Z</time>
      </trkpt>
      <trkpt lat="46.22798" lon="6.87574">
        <ele>1638.22</ele>
        <time>2015-02-26T14:42:54Z</time>
      </trkpt>
      <trkpt lat="46.22798" lon="6.87574">
        <ele>1638.22</ele>
        <time>2015-02-26T14:42:55Z</time>
      </trkpt>
      <trkpt lat="46.228" lon="6.87574">
        <ele>1638.7</ele>
        <time>2015-02-26T14:42:59Z</time>
      </trkpt>
      <trkpt lat="46.22802" lon="6.87575">
        <ele>1639.19</ele>
        <time>2015-02-26T14:43:01Z</time>
      </trkpt>
      <trkpt lat="46.22808" lon="6.87578">
        <ele>1639.67</ele>
        <time>2015-02-26T14:43:07Z</time>
      </trkpt>
      <trkpt lat="46.22811" lon="6.87578">
        <ele>1640.63</ele>
        <time>2015-02-26T14:43:11Z</time>
      </trkpt>
      <trkpt lat="46.22816" lon="6.87575">
        <ele>1642.07</ele>
        <time>2015-02-26T14:43:24Z</time>
      </trkpt>
      <trkpt lat="46.22817" lon="6.87575">
        <ele>1641.59</ele>
        <time>2015-02-26T14:43:38Z</time>
      </trkpt>
      <trkpt lat="46.22818" lon="6.87575">
        <ele>1641.11</ele>
        <time>2015-02-26T14:43:59Z</time>
      </trkpt>
      <trkpt lat="46.22818" lon="6.87577">
        <ele>1641.11</ele>
        <time>2015-02-26T14:44:13Z</time>
      </trkpt>
      <trkpt lat="46.22819" lon="6.87577">
        <ele>1641.11</ele>
        <time>2015-02-26T14:44:42Z</time>
      </trkpt>
      <trkpt lat="46.22819" lon="6.87577">
        <ele>1641.11</ele>
        <time>2015-02-26T14:45:07Z</time>
      </trkpt>
      <trkpt lat="46.22819" lon="6.87577">
        <ele>1640.63</ele>
        <time>2015-02-26T14:45:27Z</time>
      </trkpt>
      <trkpt lat="46.2282" lon="6.87577">
        <ele>1641.11</ele>
        <time>2015-02-26T14:45:50Z</time>
      </trkpt>
      <trkpt lat="46.2282" lon="6.87578">
        <ele>1641.11</ele>
        <time>2015-02-26T14:46:12Z</time>
      </trkpt>
      <trkpt lat="46.2282" lon="6.87578">
        <ele>1641.11</ele>
        <time>2015-02-26T14:46:34Z</time>
      </trkpt>
      <trkpt lat="46.2282" lon="6.87578">
        <ele>1641.59</ele>
        <time>2015-02-26T14:47:03Z</time>
      </trkpt>
      <trkpt lat="46.2282" lon="6.87578">
        <ele>1641.59</ele>
        <time>2015-02-26T14:47:26Z</time>
      </trkpt>
      <trkpt lat="46.2282" lon="6.87578">
        <ele>1641.11</ele>
        <time>2015-02-26T14:47:53Z</time>
      </trkpt>
      <trkpt lat="46.22819" lon="6.87577">
        <ele>1641.59</ele>
        <time>2015-02-26T14:48:18Z</time>
      </trkpt>
      <trkpt lat="46.22819" lon="6.87577">
        <ele>1641.59</ele>
        <time>2015-02-26T14:48:48Z</time>
      </trkpt>
      <trkpt lat="46.2282" lon="6.87578">
        <ele>1641.11</ele>
        <time>2015-02-26T14:49:13Z</time>
      </trkpt>
      <trkpt lat="46.22819" lon="6.87578">
        <ele>1641.11</ele>
        <time>2015-02-26T14:49:33Z</time>
      </trkpt>
      <trkpt lat="46.2282" lon="6.87577">
        <ele>1641.11</ele>
        <time>2015-02-26T14:49:58Z</time>
      </trkpt>
      <trkpt lat="46.2282" lon="6.87577">
        <ele>1641.59</ele>
        <time>2015-02-26T14:50:26Z</time>
      </trkpt>
      <trkpt lat="46.2282" lon="6.87577">
        <ele>1641.59</ele>
        <time>2015-02-26T14:50:49Z</time>
      </trkpt>
      <trkpt lat="46.22819" lon="6.87575">
        <ele>1642.07</ele>
        <time>2015-02-26T14:51:10Z</time>
      </trkpt>
      <trkpt lat="46.22819" lon="6.87577">
        <ele>1642.55</ele>
        <time>2015-02-26T14:51:36Z</time>
      </trkpt>
      <trkpt lat="46.22819" lon="6.87577">
        <ele>1642.55</ele>
        <time>2015-02-26T14:51:55Z</time>
      </trkpt>
      <trkpt lat="46.2282" lon="6.87577">
        <ele>1642.55</ele>
        <time>2015-02-26T14:52:09Z</time>
      </trkpt>
      <trkpt lat="46.2282" lon="6.87576">
        <ele>1643.03</ele>
        <time>2015-02-26T14:52:30Z</time>
      </trkpt>
      <trkpt lat="46.2282" lon="6.87577">
        <ele>1643.03</ele>
        <time>2015-02-26T14:52:49Z</time>
      </trkpt>
      <trkpt lat="46.2282" lon="6.87577">
        <ele>1643.03</ele>
        <time>2015-02-26T14:53:13Z</time>
      </trkpt>
      <trkpt lat="46.2282" lon="6.87576">
        <ele>1643.03</ele>
        <time>2015-02-26T14:53:33Z</time>
      </trkpt>
      <trkpt lat="46.2282" lon="6.87576">
        <ele>1643.51</ele>
        <time>2015-02-26T14:53:59Z</time>
      </trkpt>
      <trkpt lat="46.2282" lon="6.87577">
        <ele>1643.51</ele>
        <time>2015-02-26T14:54:20Z</time>
      </trkpt>
      <trkpt lat="46.2282" lon="6.87576">
        <ele>1643.99</ele>
        <time>2015-02-26T14:54:41Z</time>
      </trkpt>
      <trkpt lat="46.2282" lon="6.87576">
        <ele>1643.99</ele>
        <time>2015-02-26T14:54:55Z</time>
      </trkpt>
      <trkpt lat="46.2282" lon="6.87576">
        <ele>1643.99</ele>
        <time>2015-02-26T14:55:17Z</time>
      </trkpt>
      <trkpt lat="46.2282" lon="6.87576">
        <ele>1643.99</ele>
        <time>2015-02-26T14:55:39Z</time>
      </trkpt>
      <trkpt lat="46.2282" lon="6.87576">
        <ele>1643.51</ele>
        <time>2015-02-26T14:55:54Z</time>
      </trkpt>
      <trkpt lat="46.22819" lon="6.87576">
        <ele>1643.51</ele>
        <time>2015-02-26T14:56:11Z</time>
      </trkpt>
      <trkpt lat="46.22819" lon="6.87576">
        <ele>1643.51</ele>
        <time>2015-02-26T14:56:31Z</time>
      </trkpt>
      <trkpt lat="46.2282" lon="6.87577">
        <ele>1643.51</ele>
        <time>2015-02-26T14:56:54Z</time>
      </trkpt>
      <trkpt lat="46.22819" lon="6.87577">
        <ele>1643.51</ele>
        <time>2015-02-26T14:57:06Z</time>
      </trkpt>
      <trkpt lat="46.2282" lon="6.87577">
        <ele>1643.99</ele>
        <time>2015-02-26T14:57:30Z</time>
      </trkpt>
      <trkpt lat="46.2282" lon="6.87578">
        <ele>1643.51</ele>
        <time>2015-02-26T14:57:51Z</time>
      </trkpt>
      <trkpt lat="46.2282" lon="6.87578">
        <ele>1643.99</ele>
        <time>2015-02-26T14:58:14Z</time>
      </trkpt>
      <trkpt lat="46.2282" lon="6.87577">
        <ele>1643.99</ele>
        <time>2015-02-26T14:58:37Z</time>
      </trkpt>
      <trkpt lat="46.2282" lon="6.87578">
        <ele>1643.99</ele>
        <time>2015-02-26T14:58:58Z</time>
      </trkpt>
      <trkpt lat="46.2282" lon="6.87578">
        <ele>1643.99</ele>
        <time>2015-02-26T14:59:21Z</time>
      </trkpt>
      <trkpt lat="46.2282" lon="6.87578">
        <ele>1643.99</ele>
        <time>2015-02-26T14:59:43Z</time>
      </trkpt>
      <trkpt lat="46.2282" lon="6.87578">
        <ele>1643.99</ele>
        <time>2015-02-26T15:00:08Z</time>
      </trkpt>
      <trkpt lat="46.2282" lon="6.87578">
        <ele>1643.99</ele>
        <time>2015-02-26T15:00:37Z</time>
      </trkpt>
      <trkpt lat="46.2282" lon="6.87577">
        <ele>1643.99</ele>
        <time>2015-02-26T15:01:06Z</time>
      </trkpt>
      <trkpt lat="46.2282" lon="6.87577">
        <ele>1644.47</ele>
        <time>2015-02-26T15:01:29Z</time>
      </trkpt>
      <trkpt lat="46.2282" lon="6.87577">
        <ele>1644.47</ele>
        <time>2015-02-26T15:01:54Z</time>
      </trkpt>
      <trkpt lat="46.22821" lon="6.87577">
        <ele>1644.95</ele>
        <time>2015-02-26T15:02:18Z</time>
      </trkpt>
      <trkpt lat="46.22821" lon="6.87576">
        <ele>1644.47</ele>
        <time>2015-02-26T15:02:44Z</time>
      </trkpt>
      <trkpt lat="46.22821" lon="6.87577">
        <ele>1643.99</ele>
        <time>2015-02-26T15:02:59Z</time>
      </trkpt>
      <trkpt lat="46.2282" lon="6.87578">
        <ele>1643.51</ele>
        <time>2015-02-26T15:03:22Z</time>
      </trkpt>
      <trkpt lat="46.22821" lon="6.87578">
        <ele>1643.51</ele>
        <time>2015-02-26T15:03:23Z</time>
      </trkpt>
      <trkpt lat="46.22821" lon="6.87577">
        <ele>1643.51</ele>
        <time>2015-02-26T15:03:31Z</time>
      </trkpt>
      <trkpt lat="46.2282" lon="6.87577">
        <ele>1643.99</ele>
        <time>2015-02-26T15:03:47Z</time>
      </trkpt>
      <trkpt lat="46.2282" lon="6.87577">
        <ele>1643.99</ele>
        <time>2015-02-26T15:04:08Z</time>
      </trkpt>
      <trkpt lat="46.2282" lon="6.87576">
        <ele>1643.51</ele>
        <time>2015-02-26T15:04:35Z</time>
      </trkpt>
      <trkpt lat="46.22821" lon="6.87576">
        <ele>1643.03</ele>
        <time>2015-02-26T15:04:52Z</time>
      </trkpt>
      <trkpt lat="46.22821" lon="6.87576">
        <ele>1643.03</ele>
        <time>2015-02-26T15:05:17Z</time>
      </trkpt>
      <trkpt lat="46.22821" lon="6.87576">
        <ele>1642.55</ele>
        <time>2015-02-26T15:05:35Z</time>
      </trkpt>
      <trkpt lat="46.22821" lon="6.87576">
        <ele>1643.03</ele>
        <time>2015-02-26T15:05:59Z</time>
      </trkpt>
      <trkpt lat="46.22821" lon="6.87577">
        <ele>1642.55</ele>
        <time>2015-02-26T15:06:26Z</time>
      </trkpt>
      <trkpt lat="46.22821" lon="6.87576">
        <ele>1643.51</ele>
        <time>2015-02-26T15:06:44Z</time>
      </trkpt>
      <trkpt lat="46.22821" lon="6.87576">
        <ele>1643.99</ele>
        <time>2015-02-26T15:06:54Z</time>
      </trkpt>
      <trkpt lat="46.22822" lon="6.87577">
        <ele>1642.55</ele>
        <time>2015-02-26T15:07:04Z</time>
      </trkpt>
      <trkpt lat="46.22822" lon="6.87576">
        <ele>1642.07</ele>
        <time>2015-02-26T15:07:14Z</time>
      </trkpt>
      <trkpt lat="46.22822" lon="6.87576">
        <ele>1643.03</ele>
        <time>2015-02-26T15:07:21Z</time>
      </trkpt>
      <trkpt lat="46.22821" lon="6.87576">
        <ele>1643.03</ele>
        <time>2015-02-26T15:07:35Z</time>
      </trkpt>
      <trkpt lat="46.2282" lon="6.87576">
        <ele>1643.03</ele>
        <time>2015-02-26T15:07:52Z</time>
      </trkpt>
      <trkpt lat="46.22821" lon="6.87577">
        <ele>1643.51</ele>
        <time>2015-02-26T15:08:15Z</time>
      </trkpt>
      <trkpt lat="46.22821" lon="6.87577">
        <ele>1643.51</ele>
        <time>2015-02-26T15:08:41Z</time>
      </trkpt>
      <trkpt lat="46.2282" lon="6.87577">
        <ele>1643.99</ele>
        <time>2015-02-26T15:08:59Z</time>
      </trkpt>
      <trkpt lat="46.2282" lon="6.87577">
        <ele>1643.51</ele>
        <time>2015-02-26T15:09:20Z</time>
      </trkpt>
      <trkpt lat="46.2282" lon="6.87577">
        <ele>1643.99</ele>
        <time>2015-02-26T15:09:44Z</time>
      </trkpt>
      <trkpt lat="46.2282" lon="6.87578">
        <ele>1644.47</ele>
        <time>2015-02-26T15:10:00Z</time>
      </trkpt>
      <trkpt lat="46.2282" lon="6.87577">
        <ele>1644.95</ele>
        <time>2015-02-26T15:10:15Z</time>
      </trkpt>
      <trkpt lat="46.22819" lon="6.87578">
        <ele>1644.95</ele>
        <time>2015-02-26T15:10:35Z</time>
      </trkpt>
      <trkpt lat="46.2282" lon="6.87576">
        <ele>1645.43</ele>
        <time>2015-02-26T15:10:49Z</time>
      </trkpt>
      <trkpt lat="46.22819" lon="6.87578">
        <ele>1646.4</ele>
        <time>2015-02-26T15:11:09Z</time>
      </trkpt>
      <trkpt lat="46.2282" lon="6.87578">
        <ele>1646.4</ele>
        <time>2015-02-26T15:11:35Z</time>
      </trkpt>
      <trkpt lat="46.22819" lon="6.87578">
        <ele>1646.4</ele>
        <time>2015-02-26T15:11:50Z</time>
      </trkpt>
      <trkpt lat="46.22819" lon="6.87578">
        <ele>1646.88</ele>
        <time>2015-02-26T15:12:07Z</time>
      </trkpt>
      <trkpt lat="46.22819" lon="6.87577">
        <ele>1647.36</ele>
        <time>2015-02-26T15:12:28Z</time>
      </trkpt>
      <trkpt lat="46.22819" lon="6.87577">
        <ele>1647.36</ele>
        <time>2015-02-26T15:12:52Z</time>
      </trkpt>
      <trkpt lat="46.22819" lon="6.87577">
        <ele>1648.32</ele>
        <time>2015-02-26T15:13:20Z</time>
      </trkpt>
      <trkpt lat="46.22819" lon="6.87578">
        <ele>1647.84</ele>
        <time>2015-02-26T15:13:34Z</time>
      </trkpt>
      <trkpt lat="46.22817" lon="6.87578">
        <ele>1647.84</ele>
        <time>2015-02-26T15:13:48Z</time>
      </trkpt>
      <trkpt lat="46.22816" lon="6.87579">
        <ele>1647.36</ele>
        <time>2015-02-26T15:14:03Z</time>
      </trkpt>
      <trkpt lat="46.22816" lon="6.8758">
        <ele>1647.36</ele>
        <time>2015-02-26T15:14:23Z</time>
      </trkpt>
      <trkpt lat="46.22816" lon="6.87579">
        <ele>1647.36</ele>
        <time>2015-02-26T15:14:52Z</time>
      </trkpt>
      <trkpt lat="46.22816" lon="6.8758">
        <ele>1646.4</ele>
        <time>2015-02-26T15:15:23Z</time>
      </trkpt>
      <trkpt lat="46.22819" lon="6.87577">
        <ele>1643.99</ele>
        <time>2015-02-26T15:15:44Z</time>
      </trkpt>
      <trkpt lat="46.22821" lon="6.87576">
        <ele>1644.47</ele>
        <time>2015-02-26T15:15:57Z</time>
      </trkpt>
      <trkpt lat="46.22821" lon="6.87579">
        <ele>1643.99</ele>
        <time>2015-02-26T15:16:09Z</time>
      </trkpt>
      <trkpt lat="46.22822" lon="6.87584">
        <ele>1644.47</ele>
        <time>2015-02-26T15:16:13Z</time>
      </trkpt>
      <trkpt lat="46.22822" lon="6.87589">
        <ele>1644.47</ele>
        <time>2015-02-26T15:16:16Z</time>
      </trkpt>
      <trkpt lat="46.22822" lon="6.87593">
        <ele>1644.47</ele>
        <time>2015-02-26T15:16:18Z</time>
      </trkpt>
      <trkpt lat="46.22821" lon="6.87596">
        <ele>1644.47</ele>
        <time>2015-02-26T15:16:20Z</time>
      </trkpt>
      <trkpt lat="46.2282" lon="6.87606">
        <ele>1644.47</ele>
        <time>2015-02-26T15:16:26Z</time>
      </trkpt>
      <trkpt lat="46.2282" lon="6.87612">
        <ele>1645.43</ele>
        <time>2015-02-26T15:16:33Z</time>
      </trkpt>
      <trkpt lat="46.22821" lon="6.8762">
        <ele>1646.88</ele>
        <time>2015-02-26T15:16:42Z</time>
      </trkpt>
      <trkpt lat="46.22821" lon="6.87625">
        <ele>1647.84</ele>
        <time>2015-02-26T15:16:47Z</time>
      </trkpt>
      <trkpt lat="46.2282" lon="6.87633">
        <ele>1650.24</ele>
        <time>2015-02-26T15:16:59Z</time>
      </trkpt>
      <trkpt lat="46.2282" lon="6.87634">
        <ele>1650.72</ele>
        <time>2015-02-26T15:17:16Z</time>
      </trkpt>
      <trkpt lat="46.2282" lon="6.87634">
        <ele>1650.72</ele>
        <time>2015-02-26T15:17:17Z</time>
      </trkpt>
      <trkpt lat="46.2282" lon="6.87645">
        <ele>1652.16</ele>
        <time>2015-02-26T15:17:31Z</time>
      </trkpt>
      <trkpt lat="46.22819" lon="6.87646">
        <ele>1652.64</ele>
        <time>2015-02-26T15:17:59Z</time>
      </trkpt>
      <trkpt lat="46.22819" lon="6.87649">
        <ele>1653.12</ele>
        <time>2015-02-26T15:18:11Z</time>
      </trkpt>
      <trkpt lat="46.2282" lon="6.87652">
        <ele>1651.68</ele>
        <time>2015-02-26T15:18:38Z</time>
      </trkpt>
      <trkpt lat="46.22819" lon="6.87655">
        <ele>1651.68</ele>
        <time>2015-02-26T15:18:40Z</time>
      </trkpt>
      <trkpt lat="46.2282" lon="6.87662">
        <ele>1652.16</ele>
        <time>2015-02-26T15:18:47Z</time>
      </trkpt>
      <trkpt lat="46.2282" lon="6.87664">
        <ele>1652.16</ele>
        <time>2015-02-26T15:18:50Z</time>
      </trkpt>
      <trkpt lat="46.22821" lon="6.87671">
        <ele>1652.16</ele>
        <time>2015-02-26T15:18:55Z</time>
      </trkpt>
      <trkpt lat="46.22824" lon="6.87678">
        <ele>1651.68</ele>
        <time>2015-02-26T15:19:00Z</time>
      </trkpt>
      <trkpt lat="46.22829" lon="6.87687">
        <ele>1652.64</ele>
        <time>2015-02-26T15:19:10Z</time>
      </trkpt>
      <trkpt lat="46.22831" lon="6.87698">
        <ele>1655.05</ele>
        <time>2015-02-26T15:19:19Z</time>
      </trkpt>
      <trkpt lat="46.22834" lon="6.87707">
        <ele>1656.49</ele>
        <time>2015-02-26T15:19:28Z</time>
      </trkpt>
      <trkpt lat="46.22835" lon="6.87708">
        <ele>1656.49</ele>
        <time>2015-02-26T15:19:29Z</time>
      </trkpt>
      <trkpt lat="46.22837" lon="6.87712">
        <ele>1656.01</ele>
        <time>2015-02-26T15:19:33Z</time>
      </trkpt>
      <trkpt lat="46.22839" lon="6.87716">
        <ele>1655.53</ele>
        <time>2015-02-26T15:19:37Z</time>
      </trkpt>
      <trkpt lat="46.2284" lon="6.87722">
        <ele>1656.01</ele>
        <time>2015-02-26T15:19:41Z</time>
      </trkpt>
      <trkpt lat="46.22841" lon="6.87725">
        <ele>1656.49</ele>
        <time>2015-02-26T15:19:43Z</time>
      </trkpt>
      <trkpt lat="46.22843" lon="6.87732">
        <ele>1657.45</ele>
        <time>2015-02-26T15:19:49Z</time>
      </trkpt>
      <trkpt lat="46.22851" lon="6.87742">
        <ele>1658.89</ele>
        <time>2015-02-26T15:20:01Z</time>
      </trkpt>
      <trkpt lat="46.22851" lon="6.87744">
        <ele>1659.37</ele>
        <time>2015-02-26T15:20:15Z</time>
      </trkpt>
      <trkpt lat="46.22854" lon="6.8775">
        <ele>1658.89</ele>
        <time>2015-02-26T15:20:29Z</time>
      </trkpt>
      <trkpt lat="46.22857" lon="6.87761">
        <ele>1658.41</ele>
        <time>2015-02-26T15:20:41Z</time>
      </trkpt>
      <trkpt lat="46.22861" lon="6.87768">
        <ele>1657.93</ele>
        <time>2015-02-26T15:20:50Z</time>
      </trkpt>
      <trkpt lat="46.22863" lon="6.87781">
        <ele>1656.01</ele>
        <time>2015-02-26T15:20:59Z</time>
      </trkpt>
      <trkpt lat="46.22865" lon="6.8779">
        <ele>1655.53</ele>
        <time>2015-02-26T15:21:07Z</time>
      </trkpt>
      <trkpt lat="46.22867" lon="6.87794">
        <ele>1654.09</ele>
        <time>2015-02-26T15:21:17Z</time>
      </trkpt>
      <trkpt lat="46.2287" lon="6.87804">
        <ele>1654.09</ele>
        <time>2015-02-26T15:21:26Z</time>
      </trkpt>
      <trkpt lat="46.22871" lon="6.87806">
        <ele>1654.57</ele>
        <time>2015-02-26T15:21:27Z</time>
      </trkpt>
      <trkpt lat="46.22872" lon="6.87819">
        <ele>1654.09</ele>
        <time>2015-02-26T15:21:35Z</time>
      </trkpt>
      <trkpt lat="46.22872" lon="6.87822">
        <ele>1653.6</ele>
        <time>2015-02-26T15:21:37Z</time>
      </trkpt>
      <trkpt lat="46.22877" lon="6.87836">
        <ele>1653.12</ele>
        <time>2015-02-26T15:21:50Z</time>
      </trkpt>
      <trkpt lat="46.22882" lon="6.87844">
        <ele>1655.05</ele>
        <time>2015-02-26T15:22:01Z</time>
      </trkpt>
      <trkpt lat="46.22886" lon="6.87861">
        <ele>1656.01</ele>
        <time>2015-02-26T15:22:14Z</time>
      </trkpt>
      <trkpt lat="46.22887" lon="6.87871">
        <ele>1654.57</ele>
        <time>2015-02-26T15:22:19Z</time>
      </trkpt>
      <trkpt lat="46.22894" lon="6.87885">
        <ele>1651.2</ele>
        <time>2015-02-26T15:22:30Z</time>
      </trkpt>
      <trkpt lat="46.22897" lon="6.87888">
        <ele>1651.2</ele>
        <time>2015-02-26T15:22:40Z</time>
      </trkpt>
      <trkpt lat="46.22906" lon="6.87902">
        <ele>1649.28</ele>
        <time>2015-02-26T15:22:53Z</time>
      </trkpt>
      <trkpt lat="46.22918" lon="6.87904">
        <ele>1646.88</ele>
        <time>2015-02-26T15:23:04Z</time>
      </trkpt>
      <trkpt lat="46.22917" lon="6.87915">
        <ele>1646.4</ele>
        <time>2015-02-26T15:23:14Z</time>
      </trkpt>
      <trkpt lat="46.22915" lon="6.87921">
        <ele>1647.36</ele>
        <time>2015-02-26T15:23:27Z</time>
      </trkpt>
      <trkpt lat="46.22917" lon="6.87922">
        <ele>1646.4</ele>
        <time>2015-02-26T15:23:44Z</time>
      </trkpt>
      <trkpt lat="46.22915" lon="6.87925">
        <ele>1647.36</ele>
        <time>2015-02-26T15:24:08Z</time>
      </trkpt>
      <trkpt lat="46.22914" lon="6.87928">
        <ele>1648.32</ele>
        <time>2015-02-26T15:24:23Z</time>
      </trkpt>
      <trkpt lat="46.22915" lon="6.87929">
        <ele>1648.8</ele>
        <time>2015-02-26T15:24:42Z</time>
      </trkpt>
      <trkpt lat="46.22915" lon="6.8793">
        <ele>1648.32</ele>
        <time>2015-02-26T15:25:06Z</time>
      </trkpt>
      <trkpt lat="46.22914" lon="6.8793">
        <ele>1648.32</ele>
        <time>2015-02-26T15:25:30Z</time>
      </trkpt>
      <trkpt lat="46.22913" lon="6.87932">
        <ele>1648.8</ele>
        <time>2015-02-26T15:25:51Z</time>
      </trkpt>
      <trkpt lat="46.22914" lon="6.87932">
        <ele>1648.8</ele>
        <time>2015-02-26T15:26:15Z</time>
      </trkpt>
      <trkpt lat="46.22914" lon="6.87932">
        <ele>1649.28</ele>
        <time>2015-02-26T15:26:30Z</time>
      </trkpt>
      <trkpt lat="46.22914" lon="6.87932">
        <ele>1649.28</ele>
        <time>2015-02-26T15:26:51Z</time>
      </trkpt>
      <trkpt lat="46.22914" lon="6.87933">
        <ele>1649.76</ele>
        <time>2015-02-26T15:27:03Z</time>
      </trkpt>
      <trkpt lat="46.22916" lon="6.87935">
        <ele>1649.28</ele>
        <time>2015-02-26T15:27:09Z</time>
      </trkpt>
      <trkpt lat="46.22918" lon="6.87946">
        <ele>1649.76</ele>
        <time>2015-02-26T15:27:22Z</time>
      </trkpt>
      <trkpt lat="46.2292" lon="6.87949">
        <ele>1647.84</ele>
        <time>2015-02-26T15:27:31Z</time>
      </trkpt>
      <trkpt lat="46.22921" lon="6.87951">
        <ele>1646.4</ele>
        <time>2015-02-26T15:27:34Z</time>
      </trkpt>
      <trkpt lat="46.22923" lon="6.87955">
        <ele>1645.91</ele>
        <time>2015-02-26T15:27:36Z</time>
      </trkpt>
      <trkpt lat="46.22925" lon="6.87958">
        <ele>1645.43</ele>
        <time>2015-02-26T15:27:41Z</time>
      </trkpt>
      <trkpt lat="46.22927" lon="6.8796">
        <ele>1643.99</ele>
        <time>2015-02-26T15:27:44Z</time>
      </trkpt>
      <trkpt lat="46.2293" lon="6.87968">
        <ele>1644.95</ele>
        <time>2015-02-26T15:27:50Z</time>
      </trkpt>
      <trkpt lat="46.22931" lon="6.87975">
        <ele>1648.32</ele>
        <time>2015-02-26T15:27:56Z</time>
      </trkpt>
      <trkpt lat="46.22933" lon="6.87984">
        <ele>1650.72</ele>
        <time>2015-02-26T15:28:02Z</time>
      </trkpt>
      <trkpt lat="46.22936" lon="6.87987">
        <ele>1650.24</ele>
        <time>2015-02-26T15:28:07Z</time>
      </trkpt>
      <trkpt lat="46.22938" lon="6.87997">
        <ele>1649.76</ele>
        <time>2015-02-26T15:28:14Z</time>
      </trkpt>
      <trkpt lat="46.22941" lon="6.88003">
        <ele>1649.76</ele>
        <time>2015-02-26T15:28:19Z</time>
      </trkpt>
      <trkpt lat="46.22941" lon="6.88007">
        <ele>1648.32</ele>
        <time>2015-02-26T15:28:22Z</time>
      </trkpt>
      <trkpt lat="46.22946" lon="6.88016">
        <ele>1647.84</ele>
        <time>2015-02-26T15:28:32Z</time>
      </trkpt>
      <trkpt lat="46.22947" lon="6.88025">
        <ele>1647.36</ele>
        <time>2015-02-26T15:28:40Z</time>
      </trkpt>
      <trkpt lat="46.22951" lon="6.88033">
        <ele>1645.43</ele>
        <time>2015-02-26T15:28:47Z</time>
      </trkpt>
      <trkpt lat="46.22957" lon="6.88049">
        <ele>1647.84</ele>
        <time>2015-02-26T15:29:00Z</time>
      </trkpt>
      <trkpt lat="46.22958" lon="6.88052">
        <ele>1648.8</ele>
        <time>2015-02-26T15:29:03Z</time>
      </trkpt>
      <trkpt lat="46.2296" lon="6.88056">
        <ele>1650.24</ele>
        <time>2015-02-26T15:29:07Z</time>
      </trkpt>
      <trkpt lat="46.22962" lon="6.88064">
        <ele>1650.24</ele>
        <time>2015-02-26T15:29:19Z</time>
      </trkpt>
      <trkpt lat="46.22966" lon="6.88066">
        <ele>1651.68</ele>
        <time>2015-02-26T15:29:30Z</time>
      </trkpt>
      <trkpt lat="46.2297" lon="6.88067">
        <ele>1653.12</ele>
        <time>2015-02-26T15:29:34Z</time>
      </trkpt>
      <trkpt lat="46.22976" lon="6.8807">
        <ele>1654.09</ele>
        <time>2015-02-26T15:29:44Z</time>
      </trkpt>
      <trkpt lat="46.22982" lon="6.88073">
        <ele>1655.05</ele>
        <time>2015-02-26T15:29:57Z</time>
      </trkpt>
      <trkpt lat="46.22991" lon="6.88077">
        <ele>1656.49</ele>
        <time>2015-02-26T15:30:10Z</time>
      </trkpt>
      <trkpt lat="46.22998" lon="6.88082">
        <ele>1655.53</ele>
        <time>2015-02-26T15:30:22Z</time>
      </trkpt>
      <trkpt lat="46.23004" lon="6.88085">
        <ele>1656.01</ele>
        <time>2015-02-26T15:30:34Z</time>
      </trkpt>
      <trkpt lat="46.23008" lon="6.88085">
        <ele>1657.93</ele>
        <time>2015-02-26T15:30:47Z</time>
      </trkpt>
      <trkpt lat="46.23008" lon="6.88085">
        <ele>1657.45</ele>
        <time>2015-02-26T15:31:02Z</time>
      </trkpt>
      <trkpt lat="46.2301" lon="6.88084">
        <ele>1658.41</ele>
        <time>2015-02-26T15:31:21Z</time>
      </trkpt>
      <trkpt lat="46.23019" lon="6.88085">
        <ele>1657.93</ele>
        <time>2015-02-26T15:31:33Z</time>
      </trkpt>
      <trkpt lat="46.23029" lon="6.88087">
        <ele>1658.89</ele>
        <time>2015-02-26T15:31:45Z</time>
      </trkpt>
      <trkpt lat="46.23035" lon="6.88087">
        <ele>1657.93</ele>
        <time>2015-02-26T15:31:51Z</time>
      </trkpt>
      <trkpt lat="46.23043" lon="6.88088">
        <ele>1655.53</ele>
        <time>2015-02-26T15:32:00Z</time>
      </trkpt>
      <trkpt lat="46.23047" lon="6.88088">
        <ele>1654.57</ele>
        <time>2015-02-26T15:32:04Z</time>
      </trkpt>
      <trkpt lat="46.23057" lon="6.88094">
        <ele>1653.12</ele>
        <time>2015-02-26T15:32:15Z</time>
      </trkpt>
      <trkpt lat="46.23067" lon="6.88097">
        <ele>1651.68</ele>
        <time>2015-02-26T15:32:27Z</time>
      </trkpt>
      <trkpt lat="46.23072" lon="6.881">
        <ele>1650.72</ele>
        <time>2015-02-26T15:32:32Z</time>
      </trkpt>
      <trkpt lat="46.23077" lon="6.88101">
        <ele>1650.24</ele>
        <time>2015-02-26T15:32:38Z</time>
      </trkpt>
      <trkpt lat="46.23086" lon="6.88107">
        <ele>1647.36</ele>
        <time>2015-02-26T15:32:51Z</time>
      </trkpt>
      <trkpt lat="46.23089" lon="6.8811">
        <ele>1644.95</ele>
        <time>2015-02-26T15:32:57Z</time>
      </trkpt>
      <trkpt lat="46.23093" lon="6.88111">
        <ele>1643.51</ele>
        <time>2015-02-26T15:33:05Z</time>
      </trkpt>
      <trkpt lat="46.23092" lon="6.88112">
        <ele>1643.51</ele>
        <time>2015-02-26T15:33:23Z</time>
      </trkpt>
      <trkpt lat="46.23092" lon="6.88113">
        <ele>1643.99</ele>
        <time>2015-02-26T15:33:40Z</time>
      </trkpt>
      <trkpt lat="46.23091" lon="6.88112">
        <ele>1644.47</ele>
        <time>2015-02-26T15:34:01Z</time>
      </trkpt>
      <trkpt lat="46.23092" lon="6.8811">
        <ele>1644.95</ele>
        <time>2015-02-26T15:34:11Z</time>
      </trkpt>
      <trkpt lat="46.23092" lon="6.88112">
        <ele>1645.91</ele>
        <time>2015-02-26T15:34:15Z</time>
      </trkpt>
      <trkpt lat="46.23095" lon="6.88116">
        <ele>1644.95</ele>
        <time>2015-02-26T15:34:21Z</time>
      </trkpt>
      <trkpt lat="46.23104" lon="6.88123">
        <ele>1640.15</ele>
        <time>2015-02-26T15:34:32Z</time>
      </trkpt>
      <trkpt lat="46.23113" lon="6.88129">
        <ele>1636.3</ele>
        <time>2015-02-26T15:34:41Z</time>
      </trkpt>
      <trkpt lat="46.23114" lon="6.8813">
        <ele>1635.82</ele>
        <time>2015-02-26T15:34:42Z</time>
      </trkpt>
      <trkpt lat="46.23119" lon="6.88132">
        <ele>1633.9</ele>
        <time>2015-02-26T15:34:46Z</time>
      </trkpt>
      <trkpt lat="46.23123" lon="6.8814">
        <ele>1631.98</ele>
        <time>2015-02-26T15:34:53Z</time>
      </trkpt>
      <trkpt lat="46.23128" lon="6.88145">
        <ele>1627.65</ele>
        <time>2015-02-26T15:35:01Z</time>
      </trkpt>
      <trkpt lat="46.23132" lon="6.88147">
        <ele>1626.21</ele>
        <time>2015-02-26T15:35:07Z</time>
      </trkpt>
      <trkpt lat="46.23136" lon="6.8815">
        <ele>1625.73</ele>
        <time>2015-02-26T15:35:17Z</time>
      </trkpt>
      <trkpt lat="46.23135" lon="6.88151">
        <ele>1625.25</ele>
        <time>2015-02-26T15:35:34Z</time>
      </trkpt>
      <trkpt lat="46.23136" lon="6.8815">
        <ele>1624.77</ele>
        <time>2015-02-26T15:35:47Z</time>
      </trkpt>
      <trkpt lat="46.23135" lon="6.88151">
        <ele>1625.73</ele>
        <time>2015-02-26T15:36:08Z</time>
      </trkpt>
      <trkpt lat="46.23134" lon="6.8815">
        <ele>1624.77</ele>
        <time>2015-02-26T15:36:23Z</time>
      </trkpt>
      <trkpt lat="46.23136" lon="6.8815">
        <ele>1624.77</ele>
        <time>2015-02-26T15:36:36Z</time>
      </trkpt>
      <trkpt lat="46.2314" lon="6.88153">
        <ele>1624.28</ele>
        <time>2015-02-26T15:36:49Z</time>
      </trkpt>
      <trkpt lat="46.23142" lon="6.88153">
        <ele>1624.77</ele>
        <time>2015-02-26T15:37:06Z</time>
      </trkpt>
      <trkpt lat="46.23143" lon="6.88155">
        <ele>1624.28</ele>
        <time>2015-02-26T15:37:16Z</time>
      </trkpt>
      <trkpt lat="46.23147" lon="6.8816">
        <ele>1622.84</ele>
        <time>2015-02-26T15:37:22Z</time>
      </trkpt>
      <trkpt lat="46.23152" lon="6.88165">
        <ele>1622.84</ele>
        <time>2015-02-26T15:37:27Z</time>
      </trkpt>
      <trkpt lat="46.23156" lon="6.88165">
        <ele>1623.32</ele>
        <time>2015-02-26T15:37:39Z</time>
      </trkpt>
      <trkpt lat="46.2316" lon="6.88167">
        <ele>1623.8</ele>
        <time>2015-02-26T15:37:49Z</time>
      </trkpt>
      <trkpt lat="46.23165" lon="6.88168">
        <ele>1623.8</ele>
        <time>2015-02-26T15:37:59Z</time>
      </trkpt>
      <trkpt lat="46.23173" lon="6.88172">
        <ele>1622.84</ele>
        <time>2015-02-26T15:38:09Z</time>
      </trkpt>
      <trkpt lat="46.2318" lon="6.88175">
        <ele>1621.88</ele>
        <time>2015-02-26T15:38:16Z</time>
      </trkpt>
      <trkpt lat="46.23186" lon="6.88175">
        <ele>1622.36</ele>
        <time>2015-02-26T15:38:27Z</time>
      </trkpt>
      <trkpt lat="46.23196" lon="6.88176">
        <ele>1623.32</ele>
        <time>2015-02-26T15:38:37Z</time>
      </trkpt>
      <trkpt lat="46.23201" lon="6.88176">
        <ele>1624.28</ele>
        <time>2015-02-26T15:38:46Z</time>
      </trkpt>
      <trkpt lat="46.23205" lon="6.88176">
        <ele>1622.84</ele>
        <time>2015-02-26T15:38:58Z</time>
      </trkpt>
      <trkpt lat="46.23206" lon="6.88176">
        <ele>1622.84</ele>
        <time>2015-02-26T15:38:59Z</time>
      </trkpt>
      <trkpt lat="46.2321" lon="6.88174">
        <ele>1624.28</ele>
        <time>2015-02-26T15:39:09Z</time>
      </trkpt>
      <trkpt lat="46.2321" lon="6.88174">
        <ele>1624.28</ele>
        <time>2015-02-26T15:39:24Z</time>
      </trkpt>
      <trkpt lat="46.23211" lon="6.88174">
        <ele>1625.25</ele>
        <time>2015-02-26T15:39:39Z</time>
      </trkpt>
      <trkpt lat="46.23212" lon="6.88176">
        <ele>1624.77</ele>
        <time>2015-02-26T15:39:50Z</time>
      </trkpt>
      <trkpt lat="46.23213" lon="6.88177">
        <ele>1624.77</ele>
        <time>2015-02-26T15:40:09Z</time>
      </trkpt>
      <trkpt lat="46.23213" lon="6.88178">
        <ele>1624.77</ele>
        <time>2015-02-26T15:40:15Z</time>
      </trkpt>
      <trkpt lat="46.23215" lon="6.88184">
        <ele>1623.8</ele>
        <time>2015-02-26T15:40:21Z</time>
      </trkpt>
      <trkpt lat="46.23219" lon="6.88186">
        <ele>1622.36</ele>
        <time>2015-02-26T15:40:27Z</time>
      </trkpt>
      <trkpt lat="46.23225" lon="6.88192">
        <ele>1622.36</ele>
        <time>2015-02-26T15:40:33Z</time>
      </trkpt>
      <trkpt lat="46.23229" lon="6.88198">
        <ele>1622.36</ele>
        <time>2015-02-26T15:40:38Z</time>
      </trkpt>
      <trkpt lat="46.23231" lon="6.88202">
        <ele>1621.88</ele>
        <time>2015-02-26T15:40:48Z</time>
      </trkpt>
      <trkpt lat="46.23232" lon="6.88202">
        <ele>1621.4</ele>
        <time>2015-02-26T15:40:59Z</time>
      </trkpt>
      <trkpt lat="46.23232" lon="6.88201">
        <ele>1619.48</ele>
        <time>2015-02-26T15:41:29Z</time>
      </trkpt>
      <trkpt lat="46.23233" lon="6.88202">
        <ele>1618.52</ele>
        <time>2015-02-26T15:41:45Z</time>
      </trkpt>
      <trkpt lat="46.23236" lon="6.88203">
        <ele>1619</ele>
        <time>2015-02-26T15:41:47Z</time>
      </trkpt>
      <trkpt lat="46.23239" lon="6.88206">
        <ele>1620.44</ele>
        <time>2015-02-26T15:41:51Z</time>
      </trkpt>
      <trkpt lat="46.23245" lon="6.88215">
        <ele>1621.4</ele>
        <time>2015-02-26T15:41:58Z</time>
      </trkpt>
      <trkpt lat="46.23251" lon="6.88222">
        <ele>1621.88</ele>
        <time>2015-02-26T15:42:04Z</time>
      </trkpt>
      <trkpt lat="46.23254" lon="6.88226">
        <ele>1622.36</ele>
        <time>2015-02-26T15:42:07Z</time>
      </trkpt>
      <trkpt lat="46.23258" lon="6.88229">
        <ele>1621.88</ele>
        <time>2015-02-26T15:42:10Z</time>
      </trkpt>
      <trkpt lat="46.23265" lon="6.88243">
        <ele>1621.88</ele>
        <time>2015-02-26T15:42:19Z</time>
      </trkpt>
      <trkpt lat="46.23266" lon="6.88245">
        <ele>1621.88</ele>
        <time>2015-02-26T15:42:21Z</time>
      </trkpt>
      <trkpt lat="46.23271" lon="6.88253">
        <ele>1622.84</ele>
        <time>2015-02-26T15:42:27Z</time>
      </trkpt>
      <trkpt lat="46.23274" lon="6.88258">
        <ele>1622.36</ele>
        <time>2015-02-26T15:42:31Z</time>
      </trkpt>
      <trkpt lat="46.23283" lon="6.88264">
        <ele>1621.4</ele>
        <time>2015-02-26T15:42:39Z</time>
      </trkpt>
      <trkpt lat="46.23293" lon="6.88273">
        <ele>1620.92</ele>
        <time>2015-02-26T15:42:48Z</time>
      </trkpt>
      <trkpt lat="46.23296" lon="6.88275">
        <ele>1620.92</ele>
        <time>2015-02-26T15:42:51Z</time>
      </trkpt>
      <trkpt lat="46.23297" lon="6.88277">
        <ele>1621.4</ele>
        <time>2015-02-26T15:42:53Z</time>
      </trkpt>
      <trkpt lat="46.23302" lon="6.88281">
        <ele>1622.84</ele>
        <time>2015-02-26T15:42:58Z</time>
      </trkpt>
      <trkpt lat="46.23304" lon="6.88282">
        <ele>1622.36</ele>
        <time>2015-02-26T15:43:00Z</time>
      </trkpt>
      <trkpt lat="46.23309" lon="6.88289">
        <ele>1622.84</ele>
        <time>2015-02-26T15:43:06Z</time>
      </trkpt>
      <trkpt lat="46.23317" lon="6.88302">
        <ele>1622.84</ele>
        <time>2015-02-26T15:43:16Z</time>
      </trkpt>
      <trkpt lat="46.23324" lon="6.88311">
        <ele>1622.36</ele>
        <time>2015-02-26T15:43:23Z</time>
      </trkpt>
      <trkpt lat="46.23328" lon="6.88319">
        <ele>1623.8</ele>
        <time>2015-02-26T15:43:29Z</time>
      </trkpt>
      <trkpt lat="46.23331" lon="6.88322">
        <ele>1624.77</ele>
        <time>2015-02-26T15:43:34Z</time>
      </trkpt>
      <trkpt lat="46.23334" lon="6.88326">
        <ele>1625.25</ele>
        <time>2015-02-26T15:43:39Z</time>
      </trkpt>
      <trkpt lat="46.23344" lon="6.88331">
        <ele>1626.21</ele>
        <time>2015-02-26T15:43:50Z</time>
      </trkpt>
      <trkpt lat="46.23346" lon="6.88332">
        <ele>1626.21</ele>
        <time>2015-02-26T15:43:54Z</time>
      </trkpt>
      <trkpt lat="46.23356" lon="6.88343">
        <ele>1627.65</ele>
        <time>2015-02-26T15:44:06Z</time>
      </trkpt>
      <trkpt lat="46.23358" lon="6.88345">
        <ele>1627.65</ele>
        <time>2015-02-26T15:44:08Z</time>
      </trkpt>
      <trkpt lat="46.23361" lon="6.88348">
        <ele>1627.17</ele>
        <time>2015-02-26T15:44:12Z</time>
      </trkpt>
      <trkpt lat="46.23371" lon="6.88358">
        <ele>1624.28</ele>
        <time>2015-02-26T15:44:23Z</time>
      </trkpt>
      <trkpt lat="46.23374" lon="6.88361">
        <ele>1622.84</ele>
        <time>2015-02-26T15:44:27Z</time>
      </trkpt>
      <trkpt lat="46.23375" lon="6.88363">
        <ele>1622.84</ele>
        <time>2015-02-26T15:44:29Z</time>
      </trkpt>
      <trkpt lat="46.23383" lon="6.88374">
        <ele>1619.96</ele>
        <time>2015-02-26T15:44:40Z</time>
      </trkpt>
      <trkpt lat="46.23388" lon="6.88383">
        <ele>1619</ele>
        <time>2015-02-26T15:44:47Z</time>
      </trkpt>
      <trkpt lat="46.23389" lon="6.88385">
        <ele>1619</ele>
        <time>2015-02-26T15:44:49Z</time>
      </trkpt>
      <trkpt lat="46.23396" lon="6.88394">
        <ele>1617.56</ele>
        <time>2015-02-26T15:44:59Z</time>
      </trkpt>
      <trkpt lat="46.234" lon="6.88402">
        <ele>1617.56</ele>
        <time>2015-02-26T15:45:05Z</time>
      </trkpt>
      <trkpt lat="46.23402" lon="6.8841">
        <ele>1617.07</ele>
        <time>2015-02-26T15:45:11Z</time>
      </trkpt>
      <trkpt lat="46.23406" lon="6.88419">
        <ele>1615.15</ele>
        <time>2015-02-26T15:45:20Z</time>
      </trkpt>
      <trkpt lat="46.23409" lon="6.88425">
        <ele>1615.15</ele>
        <time>2015-02-26T15:45:24Z</time>
      </trkpt>
      <trkpt lat="46.2341" lon="6.88429">
        <ele>1614.67</ele>
        <time>2015-02-26T15:45:28Z</time>
      </trkpt>
      <trkpt lat="46.23413" lon="6.88438">
        <ele>1613.23</ele>
        <time>2015-02-26T15:45:40Z</time>
      </trkpt>
      <trkpt lat="46.23413" lon="6.88438">
        <ele>1612.27</ele>
        <time>2015-02-26T15:46:01Z</time>
      </trkpt>
      <trkpt lat="46.23414" lon="6.88438">
        <ele>1612.27</ele>
        <time>2015-02-26T15:46:29Z</time>
      </trkpt>
      <trkpt lat="46.23417" lon="6.88446">
        <ele>1610.83</ele>
        <time>2015-02-26T15:46:44Z</time>
      </trkpt>
      <trkpt lat="46.23419" lon="6.88451">
        <ele>1610.35</ele>
        <time>2015-02-26T15:46:48Z</time>
      </trkpt>
      <trkpt lat="46.2342" lon="6.88456">
        <ele>1609.38</ele>
        <time>2015-02-26T15:46:52Z</time>
      </trkpt>
      <trkpt lat="46.23422" lon="6.88466">
        <ele>1607.94</ele>
        <time>2015-02-26T15:46:59Z</time>
      </trkpt>
      <trkpt lat="46.23423" lon="6.88478">
        <ele>1606.02</ele>
        <time>2015-02-26T15:47:07Z</time>
      </trkpt>
      <trkpt lat="46.23424" lon="6.88482">
        <ele>1605.06</ele>
        <time>2015-02-26T15:47:11Z</time>
      </trkpt>
      <trkpt lat="46.23428" lon="6.88493">
        <ele>1604.1</ele>
        <time>2015-02-26T15:47:21Z</time>
      </trkpt>
      <trkpt lat="46.23427" lon="6.88506">
        <ele>1603.14</ele>
        <time>2015-02-26T15:47:32Z</time>
      </trkpt>
      <trkpt lat="46.23423" lon="6.88513">
        <ele>1601.69</ele>
        <time>2015-02-26T15:47:46Z</time>
      </trkpt>
      <trkpt lat="46.23423" lon="6.88514">
        <ele>1600.25</ele>
        <time>2015-02-26T15:48:02Z</time>
      </trkpt>
      <trkpt lat="46.23422" lon="6.88521">
        <ele>1599.77</ele>
        <time>2015-02-26T15:48:13Z</time>
      </trkpt>
      <trkpt lat="46.23422" lon="6.88522">
        <ele>1599.29</ele>
        <time>2015-02-26T15:48:14Z</time>
      </trkpt>
      <trkpt lat="46.2342" lon="6.88529">
        <ele>1597.37</ele>
        <time>2015-02-26T15:48:20Z</time>
      </trkpt>
      <trkpt lat="46.23418" lon="6.88535">
        <ele>1593.52</ele>
        <time>2015-02-26T15:48:31Z</time>
      </trkpt>
      <trkpt lat="46.23419" lon="6.88543">
        <ele>1593.04</ele>
        <time>2015-02-26T15:48:45Z</time>
      </trkpt>
      <trkpt lat="46.2342" lon="6.88552">
        <ele>1592.08</ele>
        <time>2015-02-26T15:48:57Z</time>
      </trkpt>
      <trkpt lat="46.23421" lon="6.88553">
        <ele>1589.68</ele>
        <time>2015-02-26T15:49:19Z</time>
      </trkpt>
      <trkpt lat="46.23421" lon="6.88554">
        <ele>1590.16</ele>
        <time>2015-02-26T15:49:34Z</time>
      </trkpt>
      <trkpt lat="46.23421" lon="6.88555">
        <ele>1589.68</ele>
        <time>2015-02-26T15:49:59Z</time>
      </trkpt>
      <trkpt lat="46.23421" lon="6.88555">
        <ele>1589.68</ele>
        <time>2015-02-26T15:50:23Z</time>
      </trkpt>
      <trkpt lat="46.23421" lon="6.88555">
        <ele>1590.16</ele>
        <time>2015-02-26T15:50:49Z</time>
      </trkpt>
      <trkpt lat="46.2342" lon="6.88556">
        <ele>1591.12</ele>
        <time>2015-02-26T15:51:08Z</time>
      </trkpt>
      <trkpt lat="46.23421" lon="6.88554">
        <ele>1593.52</ele>
        <time>2015-02-26T15:51:23Z</time>
      </trkpt>
      <trkpt lat="46.23422" lon="6.88563">
        <ele>1591.12</ele>
        <time>2015-02-26T15:51:38Z</time>
      </trkpt>
      <trkpt lat="46.23421" lon="6.88574">
        <ele>1585.35</ele>
        <time>2015-02-26T15:51:50Z</time>
      </trkpt>
      <trkpt lat="46.2342" lon="6.88584">
        <ele>1581.99</ele>
        <time>2015-02-26T15:52:00Z</time>
      </trkpt>
      <trkpt lat="46.23421" lon="6.88599">
        <ele>1578.62</ele>
        <time>2015-02-26T15:52:10Z</time>
      </trkpt>
      <trkpt lat="46.23421" lon="6.88614">
        <ele>1575.26</ele>
        <time>2015-02-26T15:52:21Z</time>
      </trkpt>
      <trkpt lat="46.23421" lon="6.88616">
        <ele>1573.82</ele>
        <time>2015-02-26T15:52:35Z</time>
      </trkpt>
      <trkpt lat="46.23422" lon="6.88618">
        <ele>1575.26</ele>
        <time>2015-02-26T15:53:02Z</time>
      </trkpt>
      <trkpt lat="46.23422" lon="6.88617">
        <ele>1577.66</ele>
        <time>2015-02-26T15:53:28Z</time>
      </trkpt>
      <trkpt lat="46.23423" lon="6.88618">
        <ele>1576.7</ele>
        <time>2015-02-26T15:53:54Z</time>
      </trkpt>
      <trkpt lat="46.23423" lon="6.88619">
        <ele>1576.7</ele>
        <time>2015-02-26T15:53:57Z</time>
      </trkpt>
      <trkpt lat="46.23422" lon="6.88645">
        <ele>1573.82</ele>
        <time>2015-02-26T15:54:10Z</time>
      </trkpt>
      <trkpt lat="46.23423" lon="6.88654">
        <ele>1572.37</ele>
        <time>2015-02-26T15:54:14Z</time>
      </trkpt>
      <trkpt lat="46.23427" lon="6.88671">
        <ele>1568.53</ele>
        <time>2015-02-26T15:54:22Z</time>
      </trkpt>
      <trkpt lat="46.23431" lon="6.88689">
        <ele>1564.2</ele>
        <time>2015-02-26T15:54:31Z</time>
      </trkpt>
      <trkpt lat="46.23433" lon="6.88696">
        <ele>1562.28</ele>
        <time>2015-02-26T15:54:43Z</time>
      </trkpt>
      <trkpt lat="46.23433" lon="6.88701">
        <ele>1560.84</ele>
        <time>2015-02-26T15:54:58Z</time>
      </trkpt>
      <trkpt lat="46.23438" lon="6.88712">
        <ele>1558.92</ele>
        <time>2015-02-26T15:55:09Z</time>
      </trkpt>
      <trkpt lat="46.2344" lon="6.88714">
        <ele>1556.99</ele>
        <time>2015-02-26T15:55:13Z</time>
      </trkpt>
      <trkpt lat="46.23451" lon="6.88726">
        <ele>1547.38</ele>
        <time>2015-02-26T15:55:29Z</time>
      </trkpt>
      <trkpt lat="46.23459" lon="6.88735">
        <ele>1541.13</ele>
        <time>2015-02-26T15:55:41Z</time>
      </trkpt>
      <trkpt lat="46.2346" lon="6.88736">
        <ele>1540.65</ele>
        <time>2015-02-26T15:55:42Z</time>
      </trkpt>
      <trkpt lat="46.23467" lon="6.88742">
        <ele>1536.32</ele>
        <time>2015-02-26T15:55:49Z</time>
      </trkpt>
      <trkpt lat="46.23475" lon="6.88754">
        <ele>1530.08</ele>
        <time>2015-02-26T15:56:02Z</time>
      </trkpt>
      <trkpt lat="46.23485" lon="6.88765">
        <ele>1527.67</ele>
        <time>2015-02-26T15:56:16Z</time>
      </trkpt>
      <trkpt lat="46.23486" lon="6.88767">
        <ele>1524.79</ele>
        <time>2015-02-26T15:56:29Z</time>
      </trkpt>
      <trkpt lat="46.23486" lon="6.88769">
        <ele>1522.87</ele>
        <time>2015-02-26T15:56:44Z</time>
      </trkpt>
      <trkpt lat="46.23487" lon="6.88781">
        <ele>1519.5</ele>
        <time>2015-02-26T15:56:58Z</time>
      </trkpt>
      <trkpt lat="46.23483" lon="6.88787">
        <ele>1515.18</ele>
        <time>2015-02-26T15:57:08Z</time>
      </trkpt>
      <trkpt lat="46.23482" lon="6.88787">
        <ele>1514.69</ele>
        <time>2015-02-26T15:57:09Z</time>
      </trkpt>
      <trkpt lat="46.23484" lon="6.88797">
        <ele>1515.18</ele>
        <time>2015-02-26T15:57:18Z</time>
      </trkpt>
      <trkpt lat="46.23484" lon="6.88797">
        <ele>1515.18</ele>
        <time>2015-02-26T15:57:19Z</time>
      </trkpt>
      <trkpt lat="46.2349" lon="6.88814">
        <ele>1513.73</ele>
        <time>2015-02-26T15:57:30Z</time>
      </trkpt>
      <trkpt lat="46.23488" lon="6.88817">
        <ele>1510.85</ele>
        <time>2015-02-26T15:57:42Z</time>
      </trkpt>
      <trkpt lat="46.23488" lon="6.88818">
        <ele>1508.93</ele>
        <time>2015-02-26T15:57:55Z</time>
      </trkpt>
      <trkpt lat="46.23485" lon="6.88827">
        <ele>1506.52</ele>
        <time>2015-02-26T15:58:05Z</time>
      </trkpt>
      <trkpt lat="46.23484" lon="6.88833">
        <ele>1505.56</ele>
        <time>2015-02-26T15:58:10Z</time>
      </trkpt>
      <trkpt lat="46.23483" lon="6.88842">
        <ele>1505.56</ele>
        <time>2015-02-26T15:58:17Z</time>
      </trkpt>
      <trkpt lat="46.23482" lon="6.88844">
        <ele>1505.56</ele>
        <time>2015-02-26T15:58:20Z</time>
      </trkpt>
      <trkpt lat="46.23478" lon="6.88856">
        <ele>1507.48</ele>
        <time>2015-02-26T15:58:29Z</time>
      </trkpt>
      <trkpt lat="46.23478" lon="6.88866">
        <ele>1504.6</ele>
        <time>2015-02-26T15:58:40Z</time>
      </trkpt>
      <trkpt lat="46.23477" lon="6.88863">
        <ele>1503.64</ele>
        <time>2015-02-26T15:58:55Z</time>
      </trkpt>
      <trkpt lat="46.23478" lon="6.88863">
        <ele>1503.64</ele>
        <time>2015-02-26T15:59:08Z</time>
      </trkpt>
      <trkpt lat="46.2348" lon="6.88864">
        <ele>1502.2</ele>
        <time>2015-02-26T15:59:19Z</time>
      </trkpt>
      <trkpt lat="46.23481" lon="6.88862">
        <ele>1501.72</ele>
        <time>2015-02-26T15:59:29Z</time>
      </trkpt>
      <trkpt lat="46.23482" lon="6.88861">
        <ele>1500.76</ele>
        <time>2015-02-26T15:59:45Z</time>
      </trkpt>
      <trkpt lat="46.23483" lon="6.8886">
        <ele>1501.24</ele>
        <time>2015-02-26T16:00:05Z</time>
      </trkpt>
      <trkpt lat="46.23483" lon="6.88861">
        <ele>1501.24</ele>
        <time>2015-02-26T16:00:23Z</time>
      </trkpt>
      <trkpt lat="46.23482" lon="6.88862">
        <ele>1500.76</ele>
        <time>2015-02-26T16:00:36Z</time>
      </trkpt>
      <trkpt lat="46.23484" lon="6.88862">
        <ele>1501.72</ele>
        <time>2015-02-26T16:00:55Z</time>
      </trkpt>
      <trkpt lat="46.23485" lon="6.88862">
        <ele>1502.2</ele>
        <time>2015-02-26T16:01:18Z</time>
      </trkpt>
      <trkpt lat="46.23484" lon="6.88862">
        <ele>1503.16</ele>
        <time>2015-02-26T16:01:33Z</time>
      </trkpt>
      <trkpt lat="46.23483" lon="6.88861">
        <ele>1503.16</ele>
        <time>2015-02-26T16:01:52Z</time>
      </trkpt>
      <trkpt lat="46.23482" lon="6.88861">
        <ele>1503.16</ele>
        <time>2015-02-26T16:02:08Z</time>
      </trkpt>
      <trkpt lat="46.23482" lon="6.88859">
        <ele>1503.64</ele>
        <time>2015-02-26T16:02:30Z</time>
      </trkpt>
      <trkpt lat="46.23482" lon="6.8886">
        <ele>1503.64</ele>
        <time>2015-02-26T16:02:50Z</time>
      </trkpt>
      <trkpt lat="46.23482" lon="6.8886">
        <ele>1503.16</ele>
        <time>2015-02-26T16:03:05Z</time>
      </trkpt>
      <trkpt lat="46.23482" lon="6.88861">
        <ele>1503.64</ele>
        <time>2015-02-26T16:03:17Z</time>
      </trkpt>
      <trkpt lat="46.23482" lon="6.88863">
        <ele>1503.64</ele>
        <time>2015-02-26T16:03:35Z</time>
      </trkpt>
      <trkpt lat="46.23482" lon="6.88864">
        <ele>1504.12</ele>
        <time>2015-02-26T16:03:36Z</time>
      </trkpt>
      <trkpt lat="46.23477" lon="6.8888">
        <ele>1504.6</ele>
        <time>2015-02-26T16:03:47Z</time>
      </trkpt>
      <trkpt lat="46.23473" lon="6.88884">
        <ele>1504.12</ele>
        <time>2015-02-26T16:03:51Z</time>
      </trkpt>
      <trkpt lat="46.23469" lon="6.88892">
        <ele>1503.64</ele>
        <time>2015-02-26T16:03:58Z</time>
      </trkpt>
      <trkpt lat="46.2346" lon="6.88904">
        <ele>1504.6</ele>
        <time>2015-02-26T16:04:08Z</time>
      </trkpt>
      <trkpt lat="46.23455" lon="6.88908">
        <ele>1505.08</ele>
        <time>2015-02-26T16:04:13Z</time>
      </trkpt>
      <trkpt lat="46.23454" lon="6.8891">
        <ele>1505.08</ele>
        <time>2015-02-26T16:04:15Z</time>
      </trkpt>
      <trkpt lat="46.23443" lon="6.88923">
        <ele>1504.6</ele>
        <time>2015-02-26T16:04:29Z</time>
      </trkpt>
      <trkpt lat="46.23441" lon="6.88925">
        <ele>1504.12</ele>
        <time>2015-02-26T16:04:31Z</time>
      </trkpt>
      <trkpt lat="46.23438" lon="6.88926">
        <ele>1504.12</ele>
        <time>2015-02-26T16:04:33Z</time>
      </trkpt>
      <trkpt lat="46.23434" lon="6.88932">
        <ele>1503.64</ele>
        <time>2015-02-26T16:04:39Z</time>
      </trkpt>
      <trkpt lat="46.23423" lon="6.88938">
        <ele>1505.08</ele>
        <time>2015-02-26T16:04:52Z</time>
      </trkpt>
      <trkpt lat="46.23423" lon="6.88937">
        <ele>1506.04</ele>
        <time>2015-02-26T16:05:16Z</time>
      </trkpt>
      <trkpt lat="46.23432" lon="6.88929">
        <ele>1505.56</ele>
        <time>2015-02-26T16:05:31Z</time>
      </trkpt>
      <trkpt lat="46.23434" lon="6.8893">
        <ele>1507.48</ele>
        <time>2015-02-26T16:05:52Z</time>
      </trkpt>
      <trkpt lat="46.23432" lon="6.88927">
        <ele>1506.52</ele>
        <time>2015-02-26T16:06:15Z</time>
      </trkpt>
      <trkpt lat="46.23436" lon="6.88926">
        <ele>1508.45</ele>
        <time>2015-02-26T16:06:23Z</time>
      </trkpt>
      <trkpt lat="46.23439" lon="6.88923">
        <ele>1507.97</ele>
        <time>2015-02-26T16:06:30Z</time>
      </trkpt>
      <trkpt lat="46.23446" lon="6.88918">
        <ele>1505.56</ele>
        <time>2015-02-26T16:06:36Z</time>
      </trkpt>
      <trkpt lat="46.23454" lon="6.8891">
        <ele>1504.6</ele>
        <time>2015-02-26T16:06:44Z</time>
      </trkpt>
      <trkpt lat="46.23458" lon="6.88906">
        <ele>1503.64</ele>
        <time>2015-02-26T16:06:49Z</time>
      </trkpt>
      <trkpt lat="46.23468" lon="6.8889">
        <ele>1502.2</ele>
        <time>2015-02-26T16:07:01Z</time>
      </trkpt>
      <trkpt lat="46.23471" lon="6.88887">
        <ele>1502.2</ele>
        <time>2015-02-26T16:07:04Z</time>
      </trkpt>
      <trkpt lat="46.23476" lon="6.88878">
        <ele>1500.27</ele>
        <time>2015-02-26T16:07:11Z</time>
      </trkpt>
      <trkpt lat="46.23484" lon="6.88869">
        <ele>1499.79</ele>
        <time>2015-02-26T16:07:19Z</time>
      </trkpt>
      <trkpt lat="46.23485" lon="6.88862">
        <ele>1500.76</ele>
        <time>2015-02-26T16:07:32Z</time>
      </trkpt>
      <trkpt lat="46.23485" lon="6.88861">
        <ele>1501.24</ele>
        <time>2015-02-26T16:07:49Z</time>
      </trkpt>
      <trkpt lat="46.23485" lon="6.8886">
        <ele>1502.68</ele>
        <time>2015-02-26T16:08:10Z</time>
      </trkpt>
      <trkpt lat="46.23488" lon="6.88855">
        <ele>1503.16</ele>
        <time>2015-02-26T16:08:15Z</time>
      </trkpt>
      <trkpt lat="46.23489" lon="6.88853">
        <ele>1502.68</ele>
        <time>2015-02-26T16:08:17Z</time>
      </trkpt>
      <trkpt lat="46.23498" lon="6.88837">
        <ele>1502.68</ele>
        <time>2015-02-26T16:08:29Z</time>
      </trkpt>
      <trkpt lat="46.23501" lon="6.8883">
        <ele>1502.68</ele>
        <time>2015-02-26T16:08:34Z</time>
      </trkpt>
      <trkpt lat="46.23501" lon="6.8882">
        <ele>1503.64</ele>
        <time>2015-02-26T16:08:40Z</time>
      </trkpt>
      <trkpt lat="46.23516" lon="6.88819">
        <ele>1504.12</ele>
        <time>2015-02-26T16:08:49Z</time>
      </trkpt>
      <trkpt lat="46.23522" lon="6.88814">
        <ele>1504.12</ele>
        <time>2015-02-26T16:08:57Z</time>
      </trkpt>
      <trkpt lat="46.23524" lon="6.88813">
        <ele>1504.6</ele>
        <time>2015-02-26T16:08:59Z</time>
      </trkpt>
      <trkpt lat="46.23528" lon="6.88808">
        <ele>1505.08</ele>
        <time>2015-02-26T16:09:05Z</time>
      </trkpt>
      <trkpt lat="46.2354" lon="6.88803">
        <ele>1506.04</ele>
        <time>2015-02-26T16:09:15Z</time>
      </trkpt>
      <trkpt lat="46.23541" lon="6.88801">
        <ele>1506.04</ele>
        <time>2015-02-26T16:09:16Z</time>
      </trkpt>
      <trkpt lat="46.23537" lon="6.88776">
        <ele>1505.56</ele>
        <time>2015-02-26T16:09:28Z</time>
      </trkpt>
      <trkpt lat="46.23538" lon="6.88775">
        <ele>1505.56</ele>
        <time>2015-02-26T16:09:30Z</time>
      </trkpt>
      <trkpt lat="46.23541" lon="6.88766">
        <ele>1506.52</ele>
        <time>2015-02-26T16:09:43Z</time>
      </trkpt>
      <trkpt lat="46.23545" lon="6.88761">
        <ele>1507</ele>
        <time>2015-02-26T16:09:51Z</time>
      </trkpt>
      <trkpt lat="46.23543" lon="6.88743">
        <ele>1506.52</ele>
        <time>2015-02-26T16:09:58Z</time>
      </trkpt>
      <trkpt lat="46.23547" lon="6.88741">
        <ele>1506.52</ele>
        <time>2015-02-26T16:10:01Z</time>
      </trkpt>
      <trkpt lat="46.2355" lon="6.88736">
        <ele>1506.52</ele>
        <time>2015-02-26T16:10:05Z</time>
      </trkpt>
      <trkpt lat="46.23556" lon="6.88722">
        <ele>1506.52</ele>
        <time>2015-02-26T16:10:14Z</time>
      </trkpt>
      <trkpt lat="46.23564" lon="6.88712">
        <ele>1506.52</ele>
        <time>2015-02-26T16:10:23Z</time>
      </trkpt>
      <trkpt lat="46.23567" lon="6.88709">
        <ele>1506.52</ele>
        <time>2015-02-26T16:10:25Z</time>
      </trkpt>
      <trkpt lat="46.2357" lon="6.88708">
        <ele>1506.52</ele>
        <time>2015-02-26T16:10:27Z</time>
      </trkpt>
      <trkpt lat="46.23563" lon="6.88682">
        <ele>1504.12</ele>
        <time>2015-02-26T16:10:36Z</time>
      </trkpt>
      <trkpt lat="46.23565" lon="6.88673">
        <ele>1502.68</ele>
        <time>2015-02-26T16:10:41Z</time>
      </trkpt>
      <trkpt lat="46.23571" lon="6.88658">
        <ele>1501.72</ele>
        <time>2015-02-26T16:10:50Z</time>
      </trkpt>
      <trkpt lat="46.23577" lon="6.88646">
        <ele>1498.83</ele>
        <time>2015-02-26T16:10:58Z</time>
      </trkpt>
      <trkpt lat="46.23584" lon="6.88633">
        <ele>1493.55</ele>
        <time>2015-02-26T16:11:09Z</time>
      </trkpt>
      <trkpt lat="46.23593" lon="6.88616">
        <ele>1489.22</ele>
        <time>2015-02-26T16:11:23Z</time>
      </trkpt>
      <trkpt lat="46.23596" lon="6.88611">
        <ele>1488.74</ele>
        <time>2015-02-26T16:11:26Z</time>
      </trkpt>
      <trkpt lat="46.23599" lon="6.88605">
        <ele>1488.26</ele>
        <time>2015-02-26T16:11:31Z</time>
      </trkpt>
      <trkpt lat="46.23604" lon="6.88593">
        <ele>1488.74</ele>
        <time>2015-02-26T16:11:38Z</time>
      </trkpt>
      <trkpt lat="46.23609" lon="6.88581">
        <ele>1488.74</ele>
        <time>2015-02-26T16:11:46Z</time>
      </trkpt>
      <trkpt lat="46.23613" lon="6.88569">
        <ele>1488.74</ele>
        <time>2015-02-26T16:11:53Z</time>
      </trkpt>
      <trkpt lat="46.23618" lon="6.88565">
        <ele>1488.74</ele>
        <time>2015-02-26T16:11:58Z</time>
      </trkpt>
      <trkpt lat="46.23621" lon="6.88559">
        <ele>1488.74</ele>
        <time>2015-02-26T16:12:02Z</time>
      </trkpt>
      <trkpt lat="46.23635" lon="6.8855">
        <ele>1488.26</ele>
        <time>2015-02-26T16:12:12Z</time>
      </trkpt>
      <trkpt lat="46.23644" lon="6.88529">
        <ele>1485.37</ele>
        <time>2015-02-26T16:12:25Z</time>
      </trkpt>
      <trkpt lat="46.23653" lon="6.88511">
        <ele>1482.49</ele>
        <time>2015-02-26T16:12:38Z</time>
      </trkpt>
      <trkpt lat="46.2366" lon="6.885">
        <ele>1480.09</ele>
        <time>2015-02-26T16:12:48Z</time>
      </trkpt>
      <trkpt lat="46.23662" lon="6.88498">
        <ele>1479.61</ele>
        <time>2015-02-26T16:12:50Z</time>
      </trkpt>
      <trkpt lat="46.23671" lon="6.88486">
        <ele>1476.72</ele>
        <time>2015-02-26T16:13:03Z</time>
      </trkpt>
      <trkpt lat="46.23672" lon="6.88485">
        <ele>1476.72</ele>
        <time>2015-02-26T16:13:04Z</time>
      </trkpt>
      <trkpt lat="46.23682" lon="6.88469">
        <ele>1473.84</ele>
        <time>2015-02-26T16:13:17Z</time>
      </trkpt>
      <trkpt lat="46.23691" lon="6.88455">
        <ele>1474.32</ele>
        <time>2015-02-26T16:13:27Z</time>
      </trkpt>
      <trkpt lat="46.23691" lon="6.88453">
        <ele>1474.32</ele>
        <time>2015-02-26T16:13:28Z</time>
      </trkpt>
      <trkpt lat="46.23692" lon="6.8845">
        <ele>1474.32</ele>
        <time>2015-02-26T16:13:30Z</time>
      </trkpt>
      <trkpt lat="46.23702" lon="6.88433">
        <ele>1473.84</ele>
        <time>2015-02-26T16:13:43Z</time>
      </trkpt>
      <trkpt lat="46.23705" lon="6.88427">
        <ele>1472.4</ele>
        <time>2015-02-26T16:13:47Z</time>
      </trkpt>
      <trkpt lat="46.23707" lon="6.8842">
        <ele>1472.88</ele>
        <time>2015-02-26T16:13:51Z</time>
      </trkpt>
      <trkpt lat="46.23715" lon="6.88411">
        <ele>1476.24</ele>
        <time>2015-02-26T16:13:58Z</time>
      </trkpt>
      <trkpt lat="46.23716" lon="6.88406">
        <ele>1477.2</ele>
        <time>2015-02-26T16:14:01Z</time>
      </trkpt>
      <trkpt lat="46.23723" lon="6.88388">
        <ele>1478.65</ele>
        <time>2015-02-26T16:14:12Z</time>
      </trkpt>
      <trkpt lat="46.23727" lon="6.88379">
        <ele>1477.2</ele>
        <time>2015-02-26T16:14:17Z</time>
      </trkpt>
      <trkpt lat="46.23728" lon="6.88376">
        <ele>1476.72</ele>
        <time>2015-02-26T16:14:19Z</time>
      </trkpt>
      <trkpt lat="46.23733" lon="6.88359">
        <ele>1476.24</ele>
        <time>2015-02-26T16:14:29Z</time>
      </trkpt>
      <trkpt lat="46.23737" lon="6.88347">
        <ele>1474.8</ele>
        <time>2015-02-26T16:14:36Z</time>
      </trkpt>
      <trkpt lat="46.23738" lon="6.88341">
        <ele>1472.4</ele>
        <time>2015-02-26T16:14:40Z</time>
      </trkpt>
      <trkpt lat="46.23738" lon="6.88337">
        <ele>1471.44</ele>
        <time>2015-02-26T16:14:42Z</time>
      </trkpt>
      <trkpt lat="46.2374" lon="6.88316">
        <ele>1468.55</ele>
        <time>2015-02-26T16:14:53Z</time>
      </trkpt>
      <trkpt lat="46.23741" lon="6.88312">
        <ele>1468.55</ele>
        <time>2015-02-26T16:14:55Z</time>
      </trkpt>
      <trkpt lat="46.23745" lon="6.88303">
        <ele>1469.51</ele>
        <time>2015-02-26T16:15:01Z</time>
      </trkpt>
      <trkpt lat="46.23746" lon="6.88285">
        <ele>1471.44</ele>
        <time>2015-02-26T16:15:11Z</time>
      </trkpt>
      <trkpt lat="46.23746" lon="6.88278">
        <ele>1471.44</ele>
        <time>2015-02-26T16:15:15Z</time>
      </trkpt>
      <trkpt lat="46.23747" lon="6.8827">
        <ele>1471.44</ele>
        <time>2015-02-26T16:15:19Z</time>
      </trkpt>
      <trkpt lat="46.23751" lon="6.88259">
        <ele>1471.44</ele>
        <time>2015-02-26T16:15:25Z</time>
      </trkpt>
      <trkpt lat="46.23754" lon="6.88251">
        <ele>1470.95</ele>
        <time>2015-02-26T16:15:29Z</time>
      </trkpt>
      <trkpt lat="46.23756" lon="6.88249">
        <ele>1470.95</ele>
        <time>2015-02-26T16:15:31Z</time>
      </trkpt>
      <trkpt lat="46.23757" lon="6.88236">
        <ele>1472.4</ele>
        <time>2015-02-26T16:15:38Z</time>
      </trkpt>
      <trkpt lat="46.23758" lon="6.88232">
        <ele>1472.88</ele>
        <time>2015-02-26T16:15:41Z</time>
      </trkpt>
      <trkpt lat="46.2376" lon="6.88216">
        <ele>1474.32</ele>
        <time>2015-02-26T16:15:50Z</time>
      </trkpt>
      <trkpt lat="46.2376" lon="6.88213">
        <ele>1473.84</ele>
        <time>2015-02-26T16:15:52Z</time>
      </trkpt>
      <trkpt lat="46.23761" lon="6.8821">
        <ele>1473.36</ele>
        <time>2015-02-26T16:15:54Z</time>
      </trkpt>
      <trkpt lat="46.23761" lon="6.88207">
        <ele>1473.36</ele>
        <time>2015-02-26T16:15:56Z</time>
      </trkpt>
      <trkpt lat="46.23765" lon="6.8819">
        <ele>1473.36</ele>
        <time>2015-02-26T16:16:06Z</time>
      </trkpt>
      <trkpt lat="46.23765" lon="6.88184">
        <ele>1473.36</ele>
        <time>2015-02-26T16:16:09Z</time>
      </trkpt>
      <trkpt lat="46.23766" lon="6.88171">
        <ele>1474.32</ele>
        <time>2015-02-26T16:16:17Z</time>
      </trkpt>
      <trkpt lat="46.23769" lon="6.8815">
        <ele>1474.32</ele>
        <time>2015-02-26T16:16:30Z</time>
      </trkpt>
      <trkpt lat="46.23768" lon="6.88139">
        <ele>1474.32</ele>
        <time>2015-02-26T16:16:36Z</time>
      </trkpt>
      <trkpt lat="46.23768" lon="6.88133">
        <ele>1474.32</ele>
        <time>2015-02-26T16:16:39Z</time>
      </trkpt>
      <trkpt lat="46.23766" lon="6.88127">
        <ele>1474.32</ele>
        <time>2015-02-26T16:16:42Z</time>
      </trkpt>
      <trkpt lat="46.23763" lon="6.88112">
        <ele>1474.8</ele>
        <time>2015-02-26T16:16:50Z</time>
      </trkpt>
      <trkpt lat="46.23763" lon="6.88105">
        <ele>1475.28</ele>
        <time>2015-02-26T16:16:53Z</time>
      </trkpt>
      <trkpt lat="46.23763" lon="6.88097">
        <ele>1475.28</ele>
        <time>2015-02-26T16:16:58Z</time>
      </trkpt>
      <trkpt lat="46.23765" lon="6.88091">
        <ele>1475.76</ele>
        <time>2015-02-26T16:17:02Z</time>
      </trkpt>
      <trkpt lat="46.23765" lon="6.88082">
        <ele>1475.76</ele>
        <time>2015-02-26T16:17:07Z</time>
      </trkpt>
      <trkpt lat="46.23767" lon="6.88077">
        <ele>1474.8</ele>
        <time>2015-02-26T16:17:10Z</time>
      </trkpt>
      <trkpt lat="46.23765" lon="6.88062">
        <ele>1476.24</ele>
        <time>2015-02-26T16:17:18Z</time>
      </trkpt>
      <trkpt lat="46.23765" lon="6.88059">
        <ele>1475.76</ele>
        <time>2015-02-26T16:17:20Z</time>
      </trkpt>
      <trkpt lat="46.23764" lon="6.88051">
        <ele>1476.24</ele>
        <time>2015-02-26T16:17:24Z</time>
      </trkpt>
      <trkpt lat="46.23764" lon="6.88044">
        <ele>1476.24</ele>
        <time>2015-02-26T16:17:28Z</time>
      </trkpt>
      <trkpt lat="46.23766" lon="6.88035">
        <ele>1475.28</ele>
        <time>2015-02-26T16:17:33Z</time>
      </trkpt>
      <trkpt lat="46.23766" lon="6.88028">
        <ele>1474.32</ele>
        <time>2015-02-26T16:17:37Z</time>
      </trkpt>
      <trkpt lat="46.23768" lon="6.88013">
        <ele>1471.44</ele>
        <time>2015-02-26T16:17:45Z</time>
      </trkpt>
      <trkpt lat="46.23766" lon="6.88008">
        <ele>1470.95</ele>
        <time>2015-02-26T16:17:48Z</time>
      </trkpt>
      <trkpt lat="46.23766" lon="6.88005">
        <ele>1470.95</ele>
        <time>2015-02-26T16:17:50Z</time>
      </trkpt>
      <trkpt lat="46.23763" lon="6.87993">
        <ele>1470.95</ele>
        <time>2015-02-26T16:17:56Z</time>
      </trkpt>
      <trkpt lat="46.23763" lon="6.87987">
        <ele>1470.95</ele>
        <time>2015-02-26T16:17:59Z</time>
      </trkpt>
      <trkpt lat="46.2376" lon="6.87968">
        <ele>1469.51</ele>
        <time>2015-02-26T16:18:09Z</time>
      </trkpt>
      <trkpt lat="46.23759" lon="6.87961">
        <ele>1468.07</ele>
        <time>2015-02-26T16:18:13Z</time>
      </trkpt>
      <trkpt lat="46.23759" lon="6.8794">
        <ele>1462.78</ele>
        <time>2015-02-26T16:18:26Z</time>
      </trkpt>
      <trkpt lat="46.2376" lon="6.87936">
        <ele>1464.71</ele>
        <time>2015-02-26T16:18:41Z</time>
      </trkpt>
      <trkpt lat="46.2376" lon="6.87936">
        <ele>1464.71</ele>
        <time>2015-02-26T16:19:01Z</time>
      </trkpt>
      <trkpt lat="46.23764" lon="6.87935">
        <ele>1467.11</ele>
        <time>2015-02-26T16:19:25Z</time>
      </trkpt>
      <trkpt lat="46.23763" lon="6.87935">
        <ele>1469.03</ele>
        <time>2015-02-26T16:19:47Z</time>
      </trkpt>
      <trkpt lat="46.23764" lon="6.87935">
        <ele>1469.03</ele>
        <time>2015-02-26T16:20:09Z</time>
      </trkpt>
      <trkpt lat="46.23764" lon="6.87935">
        <ele>1468.55</ele>
        <time>2015-02-26T16:20:31Z</time>
      </trkpt>
      <trkpt lat="46.23764" lon="6.87932">
        <ele>1469.03</ele>
        <time>2015-02-26T16:20:50Z</time>
      </trkpt>
      <trkpt lat="46.23763" lon="6.8793">
        <ele>1469.03</ele>
        <time>2015-02-26T16:20:51Z</time>
      </trkpt>
      <trkpt lat="46.23764" lon="6.87926">
        <ele>1469.03</ele>
        <time>2015-02-26T16:20:53Z</time>
      </trkpt>
      <trkpt lat="46.23763" lon="6.87919">
        <ele>1468.07</ele>
        <time>2015-02-26T16:20:57Z</time>
      </trkpt>
      <trkpt lat="46.23755" lon="6.87899">
        <ele>1464.23</ele>
        <time>2015-02-26T16:21:10Z</time>
      </trkpt>
      <trkpt lat="46.23754" lon="6.8789">
        <ele>1464.71</ele>
        <time>2015-02-26T16:21:16Z</time>
      </trkpt>
      <trkpt lat="46.23755" lon="6.87886">
        <ele>1465.67</ele>
        <time>2015-02-26T16:21:19Z</time>
      </trkpt>
      <trkpt lat="46.23753" lon="6.87879">
        <ele>1465.67</ele>
        <time>2015-02-26T16:21:23Z</time>
      </trkpt>
      <trkpt lat="46.23748" lon="6.87858">
        <ele>1462.78</ele>
        <time>2015-02-26T16:21:35Z</time>
      </trkpt>
      <trkpt lat="46.23746" lon="6.87847">
        <ele>1461.34</ele>
        <time>2015-02-26T16:21:41Z</time>
      </trkpt>
      <trkpt lat="46.23745" lon="6.87833">
        <ele>1458.94</ele>
        <time>2015-02-26T16:21:49Z</time>
      </trkpt>
      <trkpt lat="46.23744" lon="6.87827">
        <ele>1457.98</ele>
        <time>2015-02-26T16:21:53Z</time>
      </trkpt>
      <trkpt lat="46.23744" lon="6.87811">
        <ele>1455.57</ele>
        <time>2015-02-26T16:22:03Z</time>
      </trkpt>
      <trkpt lat="46.23746" lon="6.87807">
        <ele>1456.53</ele>
        <time>2015-02-26T16:22:06Z</time>
      </trkpt>
      <trkpt lat="46.23746" lon="6.87803">
        <ele>1456.53</ele>
        <time>2015-02-26T16:22:08Z</time>
      </trkpt>
      <trkpt lat="46.23744" lon="6.87792">
        <ele>1455.09</ele>
        <time>2015-02-26T16:22:13Z</time>
      </trkpt>
      <trkpt lat="46.23741" lon="6.87784">
        <ele>1454.61</ele>
        <time>2015-02-26T16:22:18Z</time>
      </trkpt>
      <trkpt lat="46.23738" lon="6.87776">
        <ele>1454.61</ele>
        <time>2015-02-26T16:22:24Z</time>
      </trkpt>
      <trkpt lat="46.23736" lon="6.87769">
        <ele>1453.17</ele>
        <time>2015-02-26T16:22:28Z</time>
      </trkpt>
      <trkpt lat="46.23734" lon="6.87741">
        <ele>1450.77</ele>
        <time>2015-02-26T16:22:43Z</time>
      </trkpt>
      <trkpt lat="46.23732" lon="6.87726">
        <ele>1451.73</ele>
        <time>2015-02-26T16:22:53Z</time>
      </trkpt>
      <trkpt lat="46.23731" lon="6.87719">
        <ele>1450.29</ele>
        <time>2015-02-26T16:22:58Z</time>
      </trkpt>
      <trkpt lat="46.23725" lon="6.87687">
        <ele>1450.29</ele>
        <time>2015-02-26T16:23:15Z</time>
      </trkpt>
      <trkpt lat="46.23721" lon="6.87678">
        <ele>1448.36</ele>
        <time>2015-02-26T16:23:20Z</time>
      </trkpt>
      <trkpt lat="46.2372" lon="6.8766">
        <ele>1447.88</ele>
        <time>2015-02-26T16:23:30Z</time>
      </trkpt>
      <trkpt lat="46.23717" lon="6.87649">
        <ele>1447.4</ele>
        <time>2015-02-26T16:23:36Z</time>
      </trkpt>
      <trkpt lat="46.23716" lon="6.87644">
        <ele>1446.92</ele>
        <time>2015-02-26T16:23:39Z</time>
      </trkpt>
      <trkpt lat="46.23715" lon="6.87637">
        <ele>1446.44</ele>
        <time>2015-02-26T16:23:42Z</time>
      </trkpt>
      <trkpt lat="46.2371" lon="6.87617">
        <ele>1445.96</ele>
        <time>2015-02-26T16:23:54Z</time>
      </trkpt>
      <trkpt lat="46.2371" lon="6.87596">
        <ele>1446.92</ele>
        <time>2015-02-26T16:24:07Z</time>
      </trkpt>
      <trkpt lat="46.23708" lon="6.87579">
        <ele>1445.48</ele>
        <time>2015-02-26T16:24:17Z</time>
      </trkpt>
      <trkpt lat="46.23706" lon="6.87556">
        <ele>1446.92</ele>
        <time>2015-02-26T16:24:30Z</time>
      </trkpt>
      <trkpt lat="46.23704" lon="6.87546">
        <ele>1445</ele>
        <time>2015-02-26T16:24:36Z</time>
      </trkpt>
      <trkpt lat="46.23702" lon="6.87537">
        <ele>1443.56</ele>
        <time>2015-02-26T16:24:41Z</time>
      </trkpt>
      <trkpt lat="46.23699" lon="6.87527">
        <ele>1441.15</ele>
        <time>2015-02-26T16:24:46Z</time>
      </trkpt>
      <trkpt lat="46.23698" lon="6.87514">
        <ele>1436.35</ele>
        <time>2015-02-26T16:24:54Z</time>
      </trkpt>
      <trkpt lat="46.23694" lon="6.87493">
        <ele>1436.35</ele>
        <time>2015-02-26T16:25:04Z</time>
      </trkpt>
      <trkpt lat="46.23694" lon="6.87486">
        <ele>1435.39</ele>
        <time>2015-02-26T16:25:08Z</time>
      </trkpt>
      <trkpt lat="46.23693" lon="6.87478">
        <ele>1434.42</ele>
        <time>2015-02-26T16:25:12Z</time>
      </trkpt>
      <trkpt lat="46.23696" lon="6.87464">
        <ele>1434.42</ele>
        <time>2015-02-26T16:25:23Z</time>
      </trkpt>
      <trkpt lat="46.23697" lon="6.87462">
        <ele>1434.91</ele>
        <time>2015-02-26T16:25:25Z</time>
      </trkpt>
      <trkpt lat="46.23696" lon="6.8745">
        <ele>1435.39</ele>
        <time>2015-02-26T16:25:31Z</time>
      </trkpt>
      <trkpt lat="46.23692" lon="6.87435">
        <ele>1435.87</ele>
        <time>2015-02-26T16:25:39Z</time>
      </trkpt>
      <trkpt lat="46.23686" lon="6.87425">
        <ele>1435.39</ele>
        <time>2015-02-26T16:25:44Z</time>
      </trkpt>
      <trkpt lat="46.23684" lon="6.87407">
        <ele>1433.94</ele>
        <time>2015-02-26T16:25:55Z</time>
      </trkpt>
      <trkpt lat="46.23683" lon="6.8739">
        <ele>1435.87</ele>
        <time>2015-02-26T16:26:04Z</time>
      </trkpt>
      <trkpt lat="46.23681" lon="6.8738">
        <ele>1436.83</ele>
        <time>2015-02-26T16:26:10Z</time>
      </trkpt>
      <trkpt lat="46.2368" lon="6.8737">
        <ele>1433.94</ele>
        <time>2015-02-26T16:26:18Z</time>
      </trkpt>
      <trkpt lat="46.23678" lon="6.87364">
        <ele>1433.46</ele>
        <time>2015-02-26T16:26:22Z</time>
      </trkpt>
      <trkpt lat="46.23674" lon="6.8734">
        <ele>1433.46</ele>
        <time>2015-02-26T16:26:35Z</time>
      </trkpt>
      <trkpt lat="46.23675" lon="6.8734">
        <ele>1434.42</ele>
        <time>2015-02-26T16:26:52Z</time>
      </trkpt>
      <trkpt lat="46.23675" lon="6.87328">
        <ele>1433.46</ele>
        <time>2015-02-26T16:27:03Z</time>
      </trkpt>
      <trkpt lat="46.23673" lon="6.87322">
        <ele>1432.98</ele>
        <time>2015-02-26T16:27:07Z</time>
      </trkpt>
      <trkpt lat="46.23672" lon="6.87314">
        <ele>1430.58</ele>
        <time>2015-02-26T16:27:14Z</time>
      </trkpt>
      <trkpt lat="46.23663" lon="6.87296">
        <ele>1425.29</ele>
        <time>2015-02-26T16:27:26Z</time>
      </trkpt>
      <trkpt lat="46.23663" lon="6.87276">
        <ele>1424.81</ele>
        <time>2015-02-26T16:27:39Z</time>
      </trkpt>
      <trkpt lat="46.2366" lon="6.87267">
        <ele>1425.29</ele>
        <time>2015-02-26T16:27:54Z</time>
      </trkpt>
      <trkpt lat="46.23661" lon="6.87265">
        <ele>1425.77</ele>
        <time>2015-02-26T16:28:12Z</time>
      </trkpt>
      <trkpt lat="46.23661" lon="6.87266">
        <ele>1425.77</ele>
        <time>2015-02-26T16:28:31Z</time>
      </trkpt>
      <trkpt lat="46.23663" lon="6.87269">
        <ele>1424.81</ele>
        <time>2015-02-26T16:28:43Z</time>
      </trkpt>
      <trkpt lat="46.2366" lon="6.87261">
        <ele>1423.37</ele>
        <time>2015-02-26T16:28:49Z</time>
      </trkpt>
      <trkpt lat="46.23658" lon="6.87246">
        <ele>1421.93</ele>
        <time>2015-02-26T16:28:58Z</time>
      </trkpt>
      <trkpt lat="46.23658" lon="6.87239">
        <ele>1420.97</ele>
        <time>2015-02-26T16:29:02Z</time>
      </trkpt>
      <trkpt lat="46.23655" lon="6.87228">
        <ele>1419.52</ele>
        <time>2015-02-26T16:29:08Z</time>
      </trkpt>
      <trkpt lat="46.23654" lon="6.87224">
        <ele>1419.52</ele>
        <time>2015-02-26T16:29:10Z</time>
      </trkpt>
      <trkpt lat="46.2365" lon="6.87209">
        <ele>1419.04</ele>
        <time>2015-02-26T16:29:17Z</time>
      </trkpt>
      <trkpt lat="46.23643" lon="6.87191">
        <ele>1416.16</ele>
        <time>2015-02-26T16:29:29Z</time>
      </trkpt>
      <trkpt lat="46.23644" lon="6.87179">
        <ele>1415.2</ele>
        <time>2015-02-26T16:29:36Z</time>
      </trkpt>
      <trkpt lat="46.23643" lon="6.87175">
        <ele>1413.76</ele>
        <time>2015-02-26T16:29:39Z</time>
      </trkpt>
      <trkpt lat="46.23639" lon="6.87164">
        <ele>1409.43</ele>
        <time>2015-02-26T16:29:47Z</time>
      </trkpt>
      <trkpt lat="46.23634" lon="6.87147">
        <ele>1407.51</ele>
        <time>2015-02-26T16:29:59Z</time>
      </trkpt>
      <trkpt lat="46.23633" lon="6.87145">
        <ele>1407.51</ele>
        <time>2015-02-26T16:30:00Z</time>
      </trkpt>
      <trkpt lat="46.23624" lon="6.87132">
        <ele>1408.95</ele>
        <time>2015-02-26T16:30:11Z</time>
      </trkpt>
      <trkpt lat="46.23612" lon="6.87123">
        <ele>1407.51</ele>
        <time>2015-02-26T16:30:23Z</time>
      </trkpt>
      <trkpt lat="46.236" lon="6.87112">
        <ele>1407.03</ele>
        <time>2015-02-26T16:30:34Z</time>
      </trkpt>
      <trkpt lat="46.236" lon="6.87112">
        <ele>1407.03</ele>
        <time>2015-02-26T16:30:36Z</time>
      </trkpt>
      <trkpt lat="46.23599" lon="6.87111">
        <ele>1407.51</ele>
        <time>2015-02-26T16:30:38Z</time>
      </trkpt>
      <trkpt lat="46.23596" lon="6.87106">
        <ele>1407.99</ele>
        <time>2015-02-26T16:30:48Z</time>
      </trkpt>
      <trkpt lat="46.23591" lon="6.87098">
        <ele>1408.47</ele>
        <time>2015-02-26T16:31:05Z</time>
      </trkpt>
      <trkpt lat="46.23593" lon="6.87101">
        <ele>1410.39</ele>
        <time>2015-02-26T16:31:22Z</time>
      </trkpt>
      <trkpt lat="46.23594" lon="6.87102">
        <ele>1409.91</ele>
        <time>2015-02-26T16:31:44Z</time>
      </trkpt>
      <trkpt lat="46.23595" lon="6.87102">
        <ele>1410.39</ele>
        <time>2015-02-26T16:31:50Z</time>
      </trkpt>
      <trkpt lat="46.23603" lon="6.87081">
        <ele>1409.91</ele>
        <time>2015-02-26T16:32:02Z</time>
      </trkpt>
      <trkpt lat="46.23608" lon="6.87075">
        <ele>1409.43</ele>
        <time>2015-02-26T16:32:06Z</time>
      </trkpt>
      <trkpt lat="46.23617" lon="6.87058">
        <ele>1410.39</ele>
        <time>2015-02-26T16:32:19Z</time>
      </trkpt>
      <trkpt lat="46.23619" lon="6.87049">
        <ele>1409.43</ele>
        <time>2015-02-26T16:32:25Z</time>
      </trkpt>
      <trkpt lat="46.23619" lon="6.8704">
        <ele>1408.95</ele>
        <time>2015-02-26T16:32:31Z</time>
      </trkpt>
      <trkpt lat="46.2362" lon="6.87032">
        <ele>1407.99</ele>
        <time>2015-02-26T16:32:36Z</time>
      </trkpt>
      <trkpt lat="46.23616" lon="6.87003">
        <ele>1407.99</ele>
        <time>2015-02-26T16:32:49Z</time>
      </trkpt>
      <trkpt lat="46.23614" lon="6.8699">
        <ele>1406.55</ele>
        <time>2015-02-26T16:32:56Z</time>
      </trkpt>
      <trkpt lat="46.23612" lon="6.86982">
        <ele>1407.03</ele>
        <time>2015-02-26T16:33:01Z</time>
      </trkpt>
      <trkpt lat="46.23609" lon="6.86957">
        <ele>1403.18</ele>
        <time>2015-02-26T16:33:14Z</time>
      </trkpt>
      <trkpt lat="46.2361" lon="6.86954">
        <ele>1402.22</ele>
        <time>2015-02-26T16:33:17Z</time>
      </trkpt>
      <trkpt lat="46.23608" lon="6.8694">
        <ele>1401.26</ele>
        <time>2015-02-26T16:33:25Z</time>
      </trkpt>
      <trkpt lat="46.23608" lon="6.8693">
        <ele>1401.74</ele>
        <time>2015-02-26T16:33:31Z</time>
      </trkpt>
      <trkpt lat="46.23607" lon="6.86923">
        <ele>1401.26</ele>
        <time>2015-02-26T16:33:35Z</time>
      </trkpt>
      <trkpt lat="46.23605" lon="6.8691">
        <ele>1398.37</ele>
        <time>2015-02-26T16:33:42Z</time>
      </trkpt>
      <trkpt lat="46.23603" lon="6.86905">
        <ele>1396.93</ele>
        <time>2015-02-26T16:33:45Z</time>
      </trkpt>
      <trkpt lat="46.23602" lon="6.869">
        <ele>1395.97</ele>
        <time>2015-02-26T16:33:48Z</time>
      </trkpt>
      <trkpt lat="46.23601" lon="6.86884">
        <ele>1393.57</ele>
        <time>2015-02-26T16:33:58Z</time>
      </trkpt>
      <trkpt lat="46.23601" lon="6.86874">
        <ele>1393.57</ele>
        <time>2015-02-26T16:34:05Z</time>
      </trkpt>
      <trkpt lat="46.23602" lon="6.86871">
        <ele>1393.57</ele>
        <time>2015-02-26T16:34:07Z</time>
      </trkpt>
      <trkpt lat="46.23603" lon="6.86863">
        <ele>1393.57</ele>
        <time>2015-02-26T16:34:11Z</time>
      </trkpt>
      <trkpt lat="46.23602" lon="6.86851">
        <ele>1392.13</ele>
        <time>2015-02-26T16:34:17Z</time>
      </trkpt>
      <trkpt lat="46.23604" lon="6.8683">
        <ele>1393.57</ele>
        <time>2015-02-26T16:34:29Z</time>
      </trkpt>
      <trkpt lat="46.23603" lon="6.86827">
        <ele>1393.57</ele>
        <time>2015-02-26T16:34:31Z</time>
      </trkpt>
      <trkpt lat="46.23602" lon="6.86816">
        <ele>1394.53</ele>
        <time>2015-02-26T16:34:37Z</time>
      </trkpt>
      <trkpt lat="46.23603" lon="6.86812">
        <ele>1395.01</ele>
        <time>2015-02-26T16:34:40Z</time>
      </trkpt>
      <trkpt lat="46.236" lon="6.868">
        <ele>1394.53</ele>
        <time>2015-02-26T16:34:47Z</time>
      </trkpt>
      <trkpt lat="46.23595" lon="6.86776">
        <ele>1394.05</ele>
        <time>2015-02-26T16:34:59Z</time>
      </trkpt>
      <trkpt lat="46.23595" lon="6.86773">
        <ele>1393.57</ele>
        <time>2015-02-26T16:35:01Z</time>
      </trkpt>
      <trkpt lat="46.23596" lon="6.86765">
        <ele>1393.57</ele>
        <time>2015-02-26T16:35:06Z</time>
      </trkpt>
      <trkpt lat="46.23595" lon="6.86761">
        <ele>1393.09</ele>
        <time>2015-02-26T16:35:08Z</time>
      </trkpt>
      <trkpt lat="46.23595" lon="6.8675">
        <ele>1394.05</ele>
        <time>2015-02-26T16:35:14Z</time>
      </trkpt>
      <trkpt lat="46.23594" lon="6.8674">
        <ele>1393.57</ele>
        <time>2015-02-26T16:35:19Z</time>
      </trkpt>
      <trkpt lat="46.23589" lon="6.86718">
        <ele>1387.32</ele>
        <time>2015-02-26T16:35:32Z</time>
      </trkpt>
      <trkpt lat="46.23586" lon="6.86703">
        <ele>1386.84</ele>
        <time>2015-02-26T16:35:42Z</time>
      </trkpt>
      <trkpt lat="46.23584" lon="6.86699">
        <ele>1387.32</ele>
        <time>2015-02-26T16:35:45Z</time>
      </trkpt>
      <trkpt lat="46.23582" lon="6.86678">
        <ele>1387.8</ele>
        <time>2015-02-26T16:35:57Z</time>
      </trkpt>
      <trkpt lat="46.23582" lon="6.86672">
        <ele>1386.84</ele>
        <time>2015-02-26T16:36:00Z</time>
      </trkpt>
      <trkpt lat="46.23581" lon="6.86668">
        <ele>1386.84</ele>
        <time>2015-02-26T16:36:02Z</time>
      </trkpt>
      <trkpt lat="46.23578" lon="6.86657">
        <ele>1386.36</ele>
        <time>2015-02-26T16:36:07Z</time>
      </trkpt>
      <trkpt lat="46.23576" lon="6.86636">
        <ele>1382.51</ele>
        <time>2015-02-26T16:36:19Z</time>
      </trkpt>
      <trkpt lat="46.23576" lon="6.86634">
        <ele>1382.51</ele>
        <time>2015-02-26T16:36:20Z</time>
      </trkpt>
      <trkpt lat="46.23578" lon="6.86628">
        <ele>1382.03</ele>
        <time>2015-02-26T16:36:24Z</time>
      </trkpt>
      <trkpt lat="46.23579" lon="6.8662">
        <ele>1381.07</ele>
        <time>2015-02-26T16:36:29Z</time>
      </trkpt>
      <trkpt lat="46.23581" lon="6.86616">
        <ele>1379.63</ele>
        <time>2015-02-26T16:36:32Z</time>
      </trkpt>
      <trkpt lat="46.23584" lon="6.86598">
        <ele>1377.23</ele>
        <time>2015-02-26T16:36:42Z</time>
      </trkpt>
      <trkpt lat="46.23582" lon="6.86594">
        <ele>1376.75</ele>
        <time>2015-02-26T16:36:45Z</time>
      </trkpt>
      <trkpt lat="46.23577" lon="6.86578">
        <ele>1377.71</ele>
        <time>2015-02-26T16:36:55Z</time>
      </trkpt>
      <trkpt lat="46.23573" lon="6.86573">
        <ele>1378.19</ele>
        <time>2015-02-26T16:36:59Z</time>
      </trkpt>
      <trkpt lat="46.23571" lon="6.86556">
        <ele>1377.23</ele>
        <time>2015-02-26T16:37:09Z</time>
      </trkpt>
      <trkpt lat="46.23571" lon="6.86544">
        <ele>1378.19</ele>
        <time>2015-02-26T16:37:15Z</time>
      </trkpt>
      <trkpt lat="46.23571" lon="6.86534">
        <ele>1377.23</ele>
        <time>2015-02-26T16:37:20Z</time>
      </trkpt>
      <trkpt lat="46.23571" lon="6.86525">
        <ele>1377.71</ele>
        <time>2015-02-26T16:37:25Z</time>
      </trkpt>
      <trkpt lat="46.23572" lon="6.86521">
        <ele>1377.71</ele>
        <time>2015-02-26T16:37:27Z</time>
      </trkpt>
      <trkpt lat="46.23581" lon="6.86502">
        <ele>1376.75</ele>
        <time>2015-02-26T16:37:38Z</time>
      </trkpt>
      <trkpt lat="46.23583" lon="6.86498">
        <ele>1375.3</ele>
        <time>2015-02-26T16:37:41Z</time>
      </trkpt>
      <trkpt lat="46.23584" lon="6.86493">
        <ele>1374.34</ele>
        <time>2015-02-26T16:37:45Z</time>
      </trkpt>
      <trkpt lat="46.23589" lon="6.86477">
        <ele>1372.9</ele>
        <time>2015-02-26T16:37:56Z</time>
      </trkpt>
      <trkpt lat="46.23588" lon="6.86459">
        <ele>1374.34</ele>
        <time>2015-02-26T16:38:06Z</time>
      </trkpt>
      <trkpt lat="46.23585" lon="6.86436">
        <ele>1373.86</ele>
        <time>2015-02-26T16:38:19Z</time>
      </trkpt>
      <trkpt lat="46.23584" lon="6.86429">
        <ele>1373.38</ele>
        <time>2015-02-26T16:38:23Z</time>
      </trkpt>
      <trkpt lat="46.23583" lon="6.86426">
        <ele>1373.38</ele>
        <time>2015-02-26T16:38:25Z</time>
      </trkpt>
      <trkpt lat="46.23583" lon="6.86423">
        <ele>1373.38</ele>
        <time>2015-02-26T16:38:27Z</time>
      </trkpt>
      <trkpt lat="46.23577" lon="6.86407">
        <ele>1372.42</ele>
        <time>2015-02-26T16:38:41Z</time>
      </trkpt>
      <trkpt lat="46.23577" lon="6.86406">
        <ele>1372.42</ele>
        <time>2015-02-26T16:38:42Z</time>
      </trkpt>
      <trkpt lat="46.23575" lon="6.86385">
        <ele>1368.57</ele>
        <time>2015-02-26T16:38:54Z</time>
      </trkpt>
      <trkpt lat="46.23575" lon="6.86377">
        <ele>1368.57</ele>
        <time>2015-02-26T16:39:00Z</time>
      </trkpt>
      <trkpt lat="46.23574" lon="6.86372">
        <ele>1369.05</ele>
        <time>2015-02-26T16:39:02Z</time>
      </trkpt>
      <trkpt lat="46.2357" lon="6.86362">
        <ele>1369.54</ele>
        <time>2015-02-26T16:39:16Z</time>
      </trkpt>
      <trkpt lat="46.23569" lon="6.86362">
        <ele>1369.54</ele>
        <time>2015-02-26T16:39:35Z</time>
      </trkpt>
      <trkpt lat="46.23568" lon="6.86361">
        <ele>1369.54</ele>
        <time>2015-02-26T16:39:56Z</time>
      </trkpt>
      <trkpt lat="46.23568" lon="6.86363">
        <ele>1368.57</ele>
        <time>2015-02-26T16:40:12Z</time>
      </trkpt>
      <trkpt lat="46.23568" lon="6.86365">
        <ele>1369.54</ele>
        <time>2015-02-26T16:40:41Z</time>
      </trkpt>
      <trkpt lat="46.23567" lon="6.86366">
        <ele>1370.5</ele>
        <time>2015-02-26T16:41:10Z</time>
      </trkpt>
      <trkpt lat="46.23568" lon="6.86367">
        <ele>1370.98</ele>
        <time>2015-02-26T16:41:39Z</time>
      </trkpt>
      <trkpt lat="46.23568" lon="6.86366">
        <ele>1370.98</ele>
        <time>2015-02-26T16:42:00Z</time>
      </trkpt>
      <trkpt lat="46.23568" lon="6.86361">
        <ele>1369.54</ele>
        <time>2015-02-26T16:42:04Z</time>
      </trkpt>
      <trkpt lat="46.23568" lon="6.86345">
        <ele>1369.54</ele>
        <time>2015-02-26T16:42:12Z</time>
      </trkpt>
      <trkpt lat="46.23566" lon="6.86329">
        <ele>1368.57</ele>
        <time>2015-02-26T16:42:20Z</time>
      </trkpt>
      <trkpt lat="46.23562" lon="6.86313">
        <ele>1364.25</ele>
        <time>2015-02-26T16:42:34Z</time>
      </trkpt>
      <trkpt lat="46.23563" lon="6.8631">
        <ele>1364.73</ele>
        <time>2015-02-26T16:42:43Z</time>
      </trkpt>
      <trkpt lat="46.23564" lon="6.86306">
        <ele>1364.73</ele>
        <time>2015-02-26T16:42:45Z</time>
      </trkpt>
      <trkpt lat="46.23564" lon="6.86301">
        <ele>1365.21</ele>
        <time>2015-02-26T16:42:48Z</time>
      </trkpt>
      <trkpt lat="46.23564" lon="6.86297">
        <ele>1364.73</ele>
        <time>2015-02-26T16:42:50Z</time>
      </trkpt>
      <trkpt lat="46.23564" lon="6.86272">
        <ele>1361.36</ele>
        <time>2015-02-26T16:43:03Z</time>
      </trkpt>
      <trkpt lat="46.23565" lon="6.86268">
        <ele>1360.88</ele>
        <time>2015-02-26T16:43:05Z</time>
      </trkpt>
      <trkpt lat="46.23565" lon="6.8626">
        <ele>1360.4</ele>
        <time>2015-02-26T16:43:09Z</time>
      </trkpt>
      <trkpt lat="46.23571" lon="6.86243">
        <ele>1360.88</ele>
        <time>2015-02-26T16:43:19Z</time>
      </trkpt>
      <trkpt lat="46.23574" lon="6.86239">
        <ele>1361.84</ele>
        <time>2015-02-26T16:43:22Z</time>
      </trkpt>
      <trkpt lat="46.23579" lon="6.86226">
        <ele>1360.4</ele>
        <time>2015-02-26T16:43:30Z</time>
      </trkpt>
      <trkpt lat="46.23582" lon="6.86212">
        <ele>1358.96</ele>
        <time>2015-02-26T16:43:37Z</time>
      </trkpt>
      <trkpt lat="46.23586" lon="6.86206">
        <ele>1358.48</ele>
        <time>2015-02-26T16:43:42Z</time>
      </trkpt>
      <trkpt lat="46.23586" lon="6.86203">
        <ele>1358</ele>
        <time>2015-02-26T16:43:44Z</time>
      </trkpt>
      <trkpt lat="46.23586" lon="6.86198">
        <ele>1358</ele>
        <time>2015-02-26T16:43:47Z</time>
      </trkpt>
      <trkpt lat="46.23585" lon="6.86185">
        <ele>1358</ele>
        <time>2015-02-26T16:43:53Z</time>
      </trkpt>
      <trkpt lat="46.23581" lon="6.86161">
        <ele>1357.52</ele>
        <time>2015-02-26T16:44:06Z</time>
      </trkpt>
      <trkpt lat="46.23581" lon="6.86156">
        <ele>1356.56</ele>
        <time>2015-02-26T16:44:10Z</time>
      </trkpt>
      <trkpt lat="46.23578" lon="6.86143">
        <ele>1355.12</ele>
        <time>2015-02-26T16:44:20Z</time>
      </trkpt>
      <trkpt lat="46.23576" lon="6.86125">
        <ele>1355.12</ele>
        <time>2015-02-26T16:44:30Z</time>
      </trkpt>
      <trkpt lat="46.23575" lon="6.86102">
        <ele>1351.75</ele>
        <time>2015-02-26T16:44:42Z</time>
      </trkpt>
      <trkpt lat="46.23575" lon="6.861">
        <ele>1351.27</ele>
        <time>2015-02-26T16:44:43Z</time>
      </trkpt>
      <trkpt lat="46.23575" lon="6.86078">
        <ele>1347.43</ele>
        <time>2015-02-26T16:44:55Z</time>
      </trkpt>
      <trkpt lat="46.23576" lon="6.86077">
        <ele>1347.43</ele>
        <time>2015-02-26T16:44:56Z</time>
      </trkpt>
      <trkpt lat="46.23576" lon="6.8607">
        <ele>1347.43</ele>
        <time>2015-02-26T16:45:00Z</time>
      </trkpt>
      <trkpt lat="46.23578" lon="6.8606">
        <ele>1347.91</ele>
        <time>2015-02-26T16:45:06Z</time>
      </trkpt>
      <trkpt lat="46.23579" lon="6.86045">
        <ele>1346.46</ele>
        <time>2015-02-26T16:45:14Z</time>
      </trkpt>
      <trkpt lat="46.23578" lon="6.86041">
        <ele>1345.98</ele>
        <time>2015-02-26T16:45:17Z</time>
      </trkpt>
      <trkpt lat="46.23578" lon="6.86036">
        <ele>1345.5</ele>
        <time>2015-02-26T16:45:19Z</time>
      </trkpt>
      <trkpt lat="46.23577" lon="6.8603">
        <ele>1345.02</ele>
        <time>2015-02-26T16:45:22Z</time>
      </trkpt>
      <trkpt lat="46.23576" lon="6.86026">
        <ele>1345.5</ele>
        <time>2015-02-26T16:45:25Z</time>
      </trkpt>
      <trkpt lat="46.23576" lon="6.86">
        <ele>1346.46</ele>
        <time>2015-02-26T16:45:39Z</time>
      </trkpt>
      <trkpt lat="46.23576" lon="6.85988">
        <ele>1344.54</ele>
        <time>2015-02-26T16:45:45Z</time>
      </trkpt>
      <trkpt lat="46.23577" lon="6.85979">
        <ele>1344.06</ele>
        <time>2015-02-26T16:45:49Z</time>
      </trkpt>
      <trkpt lat="46.23578" lon="6.85972">
        <ele>1344.06</ele>
        <time>2015-02-26T16:45:52Z</time>
      </trkpt>
      <trkpt lat="46.23578" lon="6.85964">
        <ele>1342.62</ele>
        <time>2015-02-26T16:45:57Z</time>
      </trkpt>
      <trkpt lat="46.2358" lon="6.85948">
        <ele>1342.62</ele>
        <time>2015-02-26T16:46:06Z</time>
      </trkpt>
      <trkpt lat="46.23583" lon="6.85939">
        <ele>1342.14</ele>
        <time>2015-02-26T16:46:12Z</time>
      </trkpt>
      <trkpt lat="46.23583" lon="6.85931">
        <ele>1341.66</ele>
        <time>2015-02-26T16:46:16Z</time>
      </trkpt>
      <trkpt lat="46.23585" lon="6.85922">
        <ele>1340.22</ele>
        <time>2015-02-26T16:46:22Z</time>
      </trkpt>
      <trkpt lat="46.23586" lon="6.85909">
        <ele>1338.29</ele>
        <time>2015-02-26T16:46:28Z</time>
      </trkpt>
      <trkpt lat="46.23586" lon="6.85896">
        <ele>1336.85</ele>
        <time>2015-02-26T16:46:39Z</time>
      </trkpt>
      <trkpt lat="46.23588" lon="6.85889">
        <ele>1337.33</ele>
        <time>2015-02-26T16:46:44Z</time>
      </trkpt>
      <trkpt lat="46.23591" lon="6.85872">
        <ele>1335.89</ele>
        <time>2015-02-26T16:46:57Z</time>
      </trkpt>
      <trkpt lat="46.23595" lon="6.85861">
        <ele>1334.93</ele>
        <time>2015-02-26T16:47:08Z</time>
      </trkpt>
      <trkpt lat="46.23596" lon="6.85853">
        <ele>1334.93</ele>
        <time>2015-02-26T16:47:13Z</time>
      </trkpt>
      <trkpt lat="46.23598" lon="6.85845">
        <ele>1333.97</ele>
        <time>2015-02-26T16:47:19Z</time>
      </trkpt>
      <trkpt lat="46.23602" lon="6.85835">
        <ele>1332.04</ele>
        <time>2015-02-26T16:47:33Z</time>
      </trkpt>
      <trkpt lat="46.23603" lon="6.85834">
        <ele>1334.45</ele>
        <time>2015-02-26T16:47:54Z</time>
      </trkpt>
      <trkpt lat="46.23604" lon="6.85835">
        <ele>1333.97</ele>
        <time>2015-02-26T16:48:00Z</time>
      </trkpt>
      <trkpt lat="46.23612" lon="6.85831">
        <ele>1330.12</ele>
        <time>2015-02-26T16:48:14Z</time>
      </trkpt>
      <trkpt lat="46.23617" lon="6.85827">
        <ele>1328.2</ele>
        <time>2015-02-26T16:48:24Z</time>
      </trkpt>
      <trkpt lat="46.23617" lon="6.85828">
        <ele>1328.2</ele>
        <time>2015-02-26T16:48:25Z</time>
      </trkpt>
      <trkpt lat="46.23622" lon="6.85827">
        <ele>1326.76</ele>
        <time>2015-02-26T16:48:28Z</time>
      </trkpt>
      <trkpt lat="46.23628" lon="6.8582">
        <ele>1324.35</ele>
        <time>2015-02-26T16:48:34Z</time>
      </trkpt>
      <trkpt lat="46.23629" lon="6.85818">
        <ele>1323.39</ele>
        <time>2015-02-26T16:48:36Z</time>
      </trkpt>
      <trkpt lat="46.23636" lon="6.85812">
        <ele>1321.47</ele>
        <time>2015-02-26T16:48:43Z</time>
      </trkpt>
      <trkpt lat="46.23647" lon="6.85808">
        <ele>1318.1</ele>
        <time>2015-02-26T16:48:54Z</time>
      </trkpt>
      <trkpt lat="46.23658" lon="6.858">
        <ele>1316.66</ele>
        <time>2015-02-26T16:49:07Z</time>
      </trkpt>
      <trkpt lat="46.23662" lon="6.85793">
        <ele>1313.78</ele>
        <time>2015-02-26T16:49:13Z</time>
      </trkpt>
      <trkpt lat="46.23673" lon="6.85787">
        <ele>1310.41</ele>
        <time>2015-02-26T16:49:24Z</time>
      </trkpt>
      <trkpt lat="46.23674" lon="6.85787">
        <ele>1310.41</ele>
        <time>2015-02-26T16:49:25Z</time>
      </trkpt>
      <trkpt lat="46.23681" lon="6.85783">
        <ele>1311.38</ele>
        <time>2015-02-26T16:49:31Z</time>
      </trkpt>
      <trkpt lat="46.23688" lon="6.85776">
        <ele>1313.3</ele>
        <time>2015-02-26T16:49:43Z</time>
      </trkpt>
      <trkpt lat="46.23689" lon="6.85775">
        <ele>1314.74</ele>
        <time>2015-02-26T16:49:59Z</time>
      </trkpt>
      <trkpt lat="46.23689" lon="6.85775">
        <ele>1314.74</ele>
        <time>2015-02-26T16:50:11Z</time>
      </trkpt>
      <trkpt lat="46.23689" lon="6.85774">
        <ele>1315.7</ele>
        <time>2015-02-26T16:50:26Z</time>
      </trkpt>
      <trkpt lat="46.2369" lon="6.85774">
        <ele>1317.14</ele>
        <time>2015-02-26T16:50:40Z</time>
      </trkpt>
      <trkpt lat="46.23689" lon="6.85774">
        <ele>1317.14</ele>
        <time>2015-02-26T16:50:54Z</time>
      </trkpt>
      <trkpt lat="46.23689" lon="6.85774">
        <ele>1317.14</ele>
        <time>2015-02-26T16:50:57Z</time>
      </trkpt>
    </trkseg>
  </trk>
</gpx>